Time,TemperatureF,DewpointF,PressureIn,WindDirection,WindDirectionDegrees,WindSpeedMPH,WindSpeedGustMPH,Humidity,HourlyPrecipIn,Conditions,Clouds,dailyrainin,SoftwareType,DateUTC
2013-03-12 00:00:00,47.1,40.3,29.96,NNE,16,0.0,0.0,77,0.00,,,0.00,VWS V14.01,2013-03-12 05:00:00,
2013-03-12 00:01:00,47.1,40.3,29.96,North,353,0.0,0.0,77,0.00,,,0.00,VWS V14.01,2013-03-12 05:01:00,
2013-03-12 00:02:00,47.1,40.3,29.96,North,353,0.0,0.0,77,0.00,,,0.00,VWS V14.01,2013-03-12 05:02:00,
2013-03-12 00:03:00,47.1,40.3,29.96,North,353,0.0,0.0,77,0.00,,,0.00,VWS V14.01,2013-03-12 05:03:00,
2013-03-12 00:04:00,47.1,40.3,29.96,North,353,0.0,0.0,77,0.00,,,0.00,VWS V14.01,2013-03-12 05:04:00,
2013-03-12 00:05:00,47.1,40.3,29.96,North,0,0.0,0.0,77,0.00,,,0.00,VWS V14.01,2013-03-12 05:05:00,
2013-03-12 00:06:00,47.1,40.3,29.96,North,0,0.0,0.0,77,0.00,,,0.00,VWS V14.01,2013-03-12 05:06:00,
2013-03-12 00:07:00,47.1,40.3,29.96,North,0,0.0,0.0,77,0.00,,,0.00,VWS V14.01,2013-03-12 05:07:00,
2013-03-12 00:08:00,46.9,40.1,29.96,WNW,295,0.0,0.0,77,0.00,,,0.00,VWS V14.01,2013-03-12 05:08:00,
2013-03-12 00:09:00,46.9,40.1,29.96,NW,317,2.2,3.1,77,0.00,,,0.00,VWS V14.01,2013-03-12 05:09:00,
2013-03-12 00:10:00,46.9,40.1,29.96,North,0,0.0,3.1,77,0.00,,,0.00,VWS V14.01,2013-03-12 05:10:00,
2013-03-12 00:11:00,46.9,40.1,29.96,NW,304,0.0,3.1,77,0.00,,,0.00,VWS V14.01,2013-03-12 05:11:00,
2013-03-12 00:12:00,46.9,40.1,29.96,NW,319,0.0,0.0,77,0.00,,,0.00,VWS V14.01,2013-03-12 05:12:00,
2013-03-12 00:13:00,46.9,40.1,29.96,NW,318,0.0,0.0,77,0.00,,,0.00,VWS V14.01,2013-03-12 05:13:00,
2013-03-12 00:14:00,46.9,40.1,29.96,North,6,0.0,0.0,77,0.00,,,0.00,VWS V14.01,2013-03-12 05:14:00,
2013-03-12 00:15:00,46.9,40.1,29.96,WNW,300,0.0,0.0,77,0.00,,,0.00,VWS V14.01,2013-03-12 05:15:00,
2013-03-12 00:16:00,46.9,40.1,29.96,NW,321,0.0,0.0,77,0.00,,,0.00,VWS V14.01,2013-03-12 05:16:00,
2013-03-12 00:17:00,46.9,40.1,29.96,NW,321,0.0,0.0,77,0.00,,,0.00,VWS V14.01,2013-03-12 05:17:00,
2013-03-12 00:18:00,46.9,40.1,29.96,NW,315,2.7,4.0,77,0.00,,,0.00,VWS V14.01,2013-03-12 05:18:00,
2013-03-12 00:19:00,46.9,40.1,29.96,NW,309,3.1,3.1,77,0.00,,,0.00,VWS V14.01,2013-03-12 05:19:00,
2013-03-12 00:20:00,46.9,40.1,29.96,WNW,291,0.0,0.0,77,0.00,,,0.00,VWS V14.01,2013-03-12 05:20:00,
2013-03-12 00:21:00,46.9,40.1,29.96,WNW,294,0.0,0.0,77,0.00,,,0.00,VWS V14.01,2013-03-12 05:21:00,
2013-03-12 00:22:00,46.9,40.1,29.96,NW,322,2.7,4.0,77,0.00,,,0.00,VWS V14.01,2013-03-12 05:22:00,
2013-03-12 00:23:00,46.9,40.1,29.96,NNW,327,4.0,4.0,77,0.00,,,0.00,VWS V14.01,2013-03-12 05:23:00,
2013-03-12 00:24:00,46.9,40.1,29.96,NW,321,2.7,4.0,77,0.00,,,0.00,VWS V14.01,2013-03-12 05:24:00,
2013-03-12 00:25:00,46.9,40.1,29.96,NW,309,0.0,0.0,77,0.00,,,0.00,VWS V14.01,2013-03-12 05:25:00,
2013-03-12 00:26:00,46.9,40.1,29.96,NW,325,4.0,4.0,77,0.00,,,0.00,VWS V14.01,2013-03-12 05:26:00,
2013-03-12 00:27:00,46.9,40.5,29.96,NW,305,3.6,4.0,78,0.00,,,0.00,VWS V14.01,2013-03-12 05:27:00,
2013-03-12 00:28:00,46.9,40.5,29.96,NNW,348,2.2,3.6,78,0.00,,,0.00,VWS V14.01,2013-03-12 05:28:00,
2013-03-12 00:29:00,46.9,40.5,29.96,WNW,292,0.0,2.2,78,0.00,,,0.00,VWS V14.01,2013-03-12 05:29:00,
2013-03-12 00:30:00,46.9,40.5,29.96,North,0,0.0,0.0,78,0.00,,,0.00,VWS V14.01,2013-03-12 05:30:00,
2013-03-12 00:31:00,46.9,40.5,29.96,North,0,0.0,0.0,78,0.00,,,0.00,VWS V14.01,2013-03-12 05:31:00,
2013-03-12 00:32:00,46.9,40.5,29.96,North,0,2.2,2.2,78,0.00,,,0.00,VWS V14.01,2013-03-12 05:32:00,
2013-03-12 00:33:00,46.9,40.5,29.96,NNW,340,2.2,3.1,78,0.00,,,0.00,VWS V14.01,2013-03-12 05:33:00,
2013-03-12 00:34:00,46.9,40.5,29.96,North,7,0.0,2.2,78,0.00,,,0.00,VWS V14.01,2013-03-12 05:34:00,
2013-03-12 00:35:00,46.9,40.5,29.96,North,4,0.0,3.6,78,0.00,,,0.00,VWS V14.01,2013-03-12 05:35:00,
2013-03-12 00:36:00,46.9,40.5,29.96,NW,326,0.0,3.6,78,0.00,,,0.00,VWS V14.01,2013-03-12 05:36:00,
2013-03-12 00:37:00,46.9,40.5,29.96,WNW,284,0.0,0.0,78,0.00,,,0.00,VWS V14.01,2013-03-12 05:37:00,
2013-03-12 00:38:00,46.9,40.5,29.96,NW,308,0.0,0.0,78,0.00,,,0.00,VWS V14.01,2013-03-12 05:38:00,
2013-03-12 00:39:00,46.9,40.5,29.96,NNW,339,0.0,0.0,78,0.00,,,0.00,VWS V14.01,2013-03-12 05:39:00,
2013-03-12 00:40:00,46.9,40.5,29.96,NW,326,0.0,0.0,78,0.00,,,0.00,VWS V14.01,2013-03-12 05:40:00,
2013-03-12 00:41:00,46.9,40.5,29.96,NW,307,0.0,0.0,78,0.00,,,0.00,VWS V14.01,2013-03-12 05:41:00,
2013-03-12 00:42:00,46.9,40.5,29.96,NNE,20,0.0,0.0,78,0.00,,,0.00,VWS V14.01,2013-03-12 05:42:00,
2013-03-12 00:43:00,46.9,40.5,29.96,WNW,295,3.6,3.6,78,0.00,,,0.00,VWS V14.01,2013-03-12 05:43:00,
2013-03-12 00:44:00,46.9,40.5,29.96,NW,306,2.7,4.9,78,0.00,,,0.00,VWS V14.01,2013-03-12 05:44:00,
2013-03-12 00:45:00,46.9,40.5,29.96,NW,316,5.4,5.4,78,0.00,,,0.00,VWS V14.01,2013-03-12 05:45:00,
2013-03-12 00:46:00,46.9,40.5,29.96,NW,326,0.0,5.4,78,0.00,,,0.00,VWS V14.01,2013-03-12 05:46:00,
2013-03-12 00:47:00,46.9,40.8,29.96,NW,304,0.0,0.0,79,0.00,,,0.00,VWS V14.01,2013-03-12 05:47:00,
2013-03-12 00:48:00,46.9,40.8,29.96,NW,304,0.0,0.0,79,0.00,,,0.00,VWS V14.01,2013-03-12 05:48:00,
2013-03-12 00:49:00,46.9,40.8,29.96,NNW,335,0.0,0.0,79,0.00,,,0.00,VWS V14.01,2013-03-12 05:49:00,
2013-03-12 00:50:00,46.9,40.8,29.96,NNW,335,0.0,0.0,79,0.00,,,0.00,VWS V14.01,2013-03-12 05:50:00,
2013-03-12 00:51:00,46.9,40.8,29.96,NW,311,0.0,0.0,79,0.00,,,0.00,VWS V14.01,2013-03-12 05:51:00,
2013-03-12 00:52:00,46.9,40.8,29.96,NW,321,0.0,0.0,79,0.00,,,0.00,VWS V14.01,2013-03-12 05:52:00,
2013-03-12 00:53:00,46.9,40.8,29.96,WNW,285,3.1,4.0,79,0.00,,,0.00,VWS V14.01,2013-03-12 05:53:00,
2013-03-12 00:54:00,46.9,40.8,29.96,NW,319,3.6,3.6,79,0.00,,,0.00,VWS V14.01,2013-03-12 05:54:00,
2013-03-12 00:55:00,46.9,40.8,29.96,NW,325,2.2,4.0,79,0.00,,,0.00,VWS V14.01,2013-03-12 05:55:00,
2013-03-12 00:56:00,46.9,40.8,29.96,NNW,329,0.0,4.0,79,0.00,,,0.00,VWS V14.01,2013-03-12 05:56:00,
2013-03-12 00:57:00,46.9,40.8,29.96,NW,322,0.0,0.0,79,0.00,,,0.00,VWS V14.01,2013-03-12 05:57:00,
2013-03-12 00:58:00,46.9,40.8,29.96,WNW,297,0.0,0.0,79,0.00,,,0.00,VWS V14.01,2013-03-12 05:58:00,
2013-03-12 00:59:00,46.9,40.8,29.96,WNW,297,0.0,0.0,79,0.00,,,0.00,VWS V14.01,2013-03-12 05:59:00,
2013-03-12 01:00:00,46.9,40.8,29.96,WNW,297,0.0,0.0,79,0.00,,,0.00,VWS V14.01,2013-03-12 06:00:00,
2013-03-12 01:01:00,46.9,40.8,29.96,NNW,346,2.2,3.6,79,0.00,,,0.00,VWS V14.01,2013-03-12 06:01:00,
2013-03-12 01:02:00,46.9,40.8,29.99,NNW,346,0.0,2.2,79,0.00,,,0.00,VWS V14.01,2013-03-12 06:02:00,
2013-03-12 01:03:00,46.9,40.8,29.99,NW,308,4.0,4.0,79,0.00,,,0.00,VWS V14.01,2013-03-12 06:03:00,
2013-03-12 01:04:00,46.9,40.8,29.99,NW,314,0.0,4.0,79,0.00,,,0.00,VWS V14.01,2013-03-12 06:04:00,
2013-03-12 01:05:00,46.9,40.8,29.99,NW,311,0.0,0.0,79,0.00,,,0.00,VWS V14.01,2013-03-12 06:05:00,
2013-03-12 01:06:00,46.9,40.8,29.99,NW,311,0.0,0.0,79,0.00,,,0.00,VWS V14.01,2013-03-12 06:06:00,
2013-03-12 01:07:00,46.9,41.1,29.99,North,0,0.0,0.0,80,0.00,,,0.00,VWS V14.01,2013-03-12 06:07:00,
2013-03-12 01:08:00,46.9,41.1,29.99,North,0,0.0,0.0,80,0.00,,,0.00,VWS V14.01,2013-03-12 06:08:00,
2013-03-12 01:09:00,46.9,41.1,29.99,North,0,0.0,0.0,80,0.00,,,0.00,VWS V14.01,2013-03-12 06:09:00,
2013-03-12 01:10:00,46.9,41.1,29.99,North,0,0.0,0.0,80,0.00,,,0.00,VWS V14.01,2013-03-12 06:10:00,
2013-03-12 01:11:00,46.9,41.1,29.99,North,0,0.0,0.0,80,0.00,,,0.00,VWS V14.01,2013-03-12 06:11:00,
2013-03-12 01:12:00,46.9,41.1,29.99,NW,318,0.0,0.0,80,0.00,,,0.00,VWS V14.01,2013-03-12 06:12:00,
2013-03-12 01:13:00,46.9,41.1,29.99,WNW,303,0.0,0.0,80,0.00,,,0.00,VWS V14.01,2013-03-12 06:13:00,
2013-03-12 01:14:00,46.9,41.1,29.99,NNW,336,0.0,0.0,80,0.00,,,0.00,VWS V14.01,2013-03-12 06:14:00,
2013-03-12 01:15:00,46.9,41.1,29.99,NNW,335,0.0,0.0,80,0.00,,,0.00,VWS V14.01,2013-03-12 06:15:00,
2013-03-12 01:16:00,46.9,41.1,29.99,NNW,335,0.0,0.0,80,0.00,,,0.00,VWS V14.01,2013-03-12 06:16:00,
2013-03-12 01:17:00,46.9,41.4,29.99,NNW,335,0.0,0.0,81,0.00,,,0.00,VWS V14.01,2013-03-12 06:17:00,
2013-03-12 01:18:00,46.9,41.4,29.99,NNW,335,0.0,0.0,81,0.00,,,0.00,VWS V14.01,2013-03-12 06:18:00,
2013-03-12 01:19:00,46.9,41.4,29.99,NNW,335,0.0,0.0,81,0.00,,,0.00,VWS V14.01,2013-03-12 06:19:00,
2013-03-12 01:20:00,46.9,41.4,29.99,WNW,301,0.0,0.0,81,0.00,,,0.00,VWS V14.01,2013-03-12 06:20:00,
2013-03-12 01:21:00,46.9,41.4,29.99,NW,306,0.0,0.0,81,0.00,,,0.00,VWS V14.01,2013-03-12 06:21:00,
2013-03-12 01:22:00,46.9,41.4,29.99,North,353,0.0,0.0,81,0.00,,,0.00,VWS V14.01,2013-03-12 06:22:00,
2013-03-12 01:23:00,46.9,41.4,29.99,NW,311,0.0,0.0,81,0.00,,,0.00,VWS V14.01,2013-03-12 06:23:00,
2013-03-12 01:24:00,46.9,41.4,29.99,NNW,338,0.0,0.0,81,0.00,,,0.00,VWS V14.01,2013-03-12 06:24:00,
2013-03-12 01:25:00,46.9,41.4,29.99,NNW,338,0.0,0.0,81,0.00,,,0.00,VWS V14.01,2013-03-12 06:25:00,
2013-03-12 01:26:00,46.9,41.4,29.99,NNW,338,0.0,0.0,81,0.00,,,0.00,VWS V14.01,2013-03-12 06:26:00,
2013-03-12 01:27:00,46.9,41.4,29.99,NNW,337,0.0,0.0,81,0.00,,,0.00,VWS V14.01,2013-03-12 06:27:00,
2013-03-12 01:28:00,46.9,41.4,29.99,NNW,338,0.0,0.0,81,0.00,,,0.00,VWS V14.01,2013-03-12 06:28:00,
2013-03-12 01:29:00,46.9,41.4,29.99,NW,318,0.0,0.0,81,0.00,,,0.00,VWS V14.01,2013-03-12 06:29:00,
2013-03-12 01:30:00,46.9,41.4,29.99,NW,318,0.0,0.0,81,0.00,,,0.00,VWS V14.01,2013-03-12 06:30:00,
2013-03-12 01:31:00,46.9,41.4,29.99,WNW,297,0.0,0.0,81,0.00,,,0.00,VWS V14.01,2013-03-12 06:31:00,
2013-03-12 01:32:00,46.8,41.2,29.99,NW,306,0.0,4.0,81,0.00,,,0.00,VWS V14.01,2013-03-12 06:32:00,
2013-03-12 01:33:00,46.8,41.2,29.99,NW,320,0.0,0.0,81,0.00,,,0.00,VWS V14.01,2013-03-12 06:33:00,
2013-03-12 01:34:00,46.8,41.2,29.99,NW,316,0.0,0.0,81,0.00,,,0.00,VWS V14.01,2013-03-12 06:34:00,
2013-03-12 01:35:00,46.8,41.6,29.99,North,8,0.0,0.0,82,0.00,,,0.00,VWS V14.01,2013-03-12 06:35:00,
2013-03-12 01:36:00,46.8,41.6,29.99,NW,311,3.1,3.1,82,0.00,,,0.00,VWS V14.01,2013-03-12 06:36:00,
2013-03-12 01:37:00,46.8,41.6,29.99,NW,311,0.0,3.1,82,0.00,,,0.00,VWS V14.01,2013-03-12 06:37:00,
2013-03-12 01:38:00,46.8,41.6,29.99,NNE,24,2.7,4.0,82,0.00,,,0.00,VWS V14.01,2013-03-12 06:38:00,
2013-03-12 01:39:00,46.8,41.6,29.99,North,9,0.0,2.7,82,0.00,,,0.00,VWS V14.01,2013-03-12 06:39:00,
2013-03-12 01:40:00,46.8,41.6,29.99,NW,312,0.0,0.0,82,0.00,,,0.00,VWS V14.01,2013-03-12 06:40:00,
2013-03-12 01:41:00,46.8,41.6,29.99,North,357,0.0,0.0,82,0.00,,,0.00,VWS V14.01,2013-03-12 06:41:00,
2013-03-12 01:42:00,46.8,41.6,29.99,NW,307,0.0,0.0,82,0.00,,,0.00,VWS V14.01,2013-03-12 06:42:00,
2013-03-12 01:43:00,46.8,41.6,29.99,North,350,0.0,0.0,82,0.00,,,0.00,VWS V14.01,2013-03-12 06:43:00,
2013-03-12 01:44:00,46.8,41.6,29.99,WNW,297,0.0,0.0,82,0.00,,,0.00,VWS V14.01,2013-03-12 06:44:00,
2013-03-12 01:45:00,46.8,41.9,29.99,NW,319,3.1,3.1,83,0.00,,,0.00,VWS V14.01,2013-03-12 06:45:00,
2013-03-12 01:46:00,46.8,41.6,29.99,NW,312,2.2,3.1,82,0.00,,,0.00,VWS V14.01,2013-03-12 06:46:00,
2013-03-12 01:47:00,46.8,41.6,29.99,North,2,0.0,2.2,82,0.00,,,0.00,VWS V14.01,2013-03-12 06:47:00,
2013-03-12 01:48:00,46.8,41.6,29.99,NNW,328,0.0,0.0,82,0.00,,,0.00,VWS V14.01,2013-03-12 06:48:00,
2013-03-12 01:49:00,46.8,41.6,29.99,WNW,302,0.0,4.0,82,0.00,,,0.00,VWS V14.01,2013-03-12 06:49:00,
2013-03-12 01:50:00,46.8,41.6,29.99,WNW,298,0.0,4.0,82,0.00,,,0.00,VWS V14.01,2013-03-12 06:50:00,
2013-03-12 01:51:00,46.8,41.6,29.99,WNW,295,4.0,4.0,82,0.00,,,0.00,VWS V14.01,2013-03-12 06:51:00,
2013-03-12 01:52:00,46.8,41.9,29.99,WNW,289,0.0,4.0,83,0.00,,,0.00,VWS V14.01,2013-03-12 06:52:00,
2013-03-12 01:53:00,46.8,41.9,29.99,NW,309,2.7,3.1,83,0.00,,,0.00,VWS V14.01,2013-03-12 06:53:00,
2013-03-12 01:54:00,46.6,41.7,29.99,NW,323,2.2,5.4,83,0.00,,,0.00,VWS V14.01,2013-03-12 06:54:00,
2013-03-12 01:55:00,46.6,41.7,29.99,NW,324,0.0,0.0,83,0.00,,,0.00,VWS V14.01,2013-03-12 06:55:00,
2013-03-12 01:56:00,46.6,41.7,29.99,NW,311,4.0,4.0,83,0.00,,,0.00,VWS V14.01,2013-03-12 06:56:00,
2013-03-12 01:57:00,46.6,41.7,29.99,NW,326,2.2,4.0,83,0.00,,,0.00,VWS V14.01,2013-03-12 06:57:00,
2013-03-12 01:58:00,46.6,41.7,29.99,NW,325,0.0,2.2,83,0.00,,,0.00,VWS V14.01,2013-03-12 06:58:00,
2013-03-12 01:59:00,46.6,41.7,29.99,NW,309,0.0,4.0,83,0.00,,,0.00,VWS V14.01,2013-03-12 06:59:00,
2013-03-12 02:00:00,46.6,41.7,29.99,NW,305,0.0,0.0,83,0.00,,,0.00,VWS V14.01,2013-03-12 07:00:00,
2013-03-12 02:01:00,46.6,41.7,29.99,North,11,0.0,0.0,83,0.00,,,0.00,VWS V14.01,2013-03-12 07:01:00,
2013-03-12 02:02:00,46.6,41.7,29.99,NW,326,0.0,0.0,83,0.00,,,0.00,VWS V14.01,2013-03-12 07:02:00,
2013-03-12 02:03:00,46.6,41.7,29.99,NNW,342,2.7,2.7,83,0.00,,,0.00,VWS V14.01,2013-03-12 07:03:00,
2013-03-12 02:04:00,46.6,41.7,29.99,NW,305,0.0,2.7,83,0.00,,,0.00,VWS V14.01,2013-03-12 07:04:00,
2013-03-12 02:05:00,46.6,41.7,29.99,North,4,2.2,2.7,83,0.00,,,0.00,VWS V14.01,2013-03-12 07:05:00,
2013-03-12 02:06:00,46.6,41.7,29.99,NW,312,0.0,2.7,83,0.00,,,0.00,VWS V14.01,2013-03-12 07:06:00,
2013-03-12 02:07:00,46.6,41.7,29.99,NW,325,3.1,6.7,83,0.00,,,0.00,VWS V14.01,2013-03-12 07:07:00,
2013-03-12 02:08:00,46.6,41.7,29.99,North,0,0.0,3.1,83,0.00,,,0.00,VWS V14.01,2013-03-12 07:08:00,
2013-03-12 02:09:00,46.6,41.7,29.99,NW,322,0.0,4.0,83,0.00,,,0.00,VWS V14.01,2013-03-12 07:09:00,
2013-03-12 02:10:00,46.6,41.7,29.99,North,1,4.5,4.5,83,0.00,,,0.00,VWS V14.01,2013-03-12 07:10:00,
2013-03-12 02:11:00,46.6,41.7,29.99,WNW,290,3.1,5.4,83,0.00,,,0.00,VWS V14.01,2013-03-12 07:11:00,
2013-03-12 02:12:00,46.4,41.2,29.99,NW,316,3.1,4.0,82,0.00,,,0.00,VWS V14.01,2013-03-12 07:12:00,
2013-03-12 02:13:00,46.4,41.2,29.99,NNW,329,0.0,3.1,82,0.00,,,0.00,VWS V14.01,2013-03-12 07:13:00,
2013-03-12 02:14:00,46.4,41.2,29.99,NNW,335,2.7,6.3,82,0.00,,,0.00,VWS V14.01,2013-03-12 07:14:00,
2013-03-12 02:15:00,46.4,41.2,29.99,NW,319,2.2,2.2,82,0.00,,,0.00,VWS V14.01,2013-03-12 07:15:00,
2013-03-12 02:16:00,46.4,41.2,29.99,North,11,4.9,4.9,82,0.00,,,0.00,VWS V14.01,2013-03-12 07:16:00,
2013-03-12 02:17:00,46.4,41.2,29.99,NNW,344,3.1,4.9,82,0.00,,,0.00,VWS V14.01,2013-03-12 07:17:00,
2013-03-12 02:18:00,46.4,41.2,29.99,WNW,294,3.6,6.3,82,0.00,,,0.00,VWS V14.01,2013-03-12 07:18:00,
2013-03-12 02:19:00,46.4,41.2,29.99,NW,314,4.0,6.3,82,0.00,,,0.00,VWS V14.01,2013-03-12 07:19:00,
2013-03-12 02:20:00,46.4,40.9,29.99,North,7,2.2,5.4,81,0.00,,,0.00,VWS V14.01,2013-03-12 07:20:00,
2013-03-12 02:21:00,46.4,40.9,29.99,North,357,4.0,5.4,81,0.00,,,0.00,VWS V14.01,2013-03-12 07:21:00,
2013-03-12 02:22:00,46.4,40.9,29.99,NW,314,3.1,4.0,81,0.00,,,0.00,VWS V14.01,2013-03-12 07:22:00,
2013-03-12 02:23:00,46.4,40.9,29.99,NNW,330,4.5,4.5,81,0.00,,,0.00,VWS V14.01,2013-03-12 07:23:00,
2013-03-12 02:24:00,46.4,40.9,29.99,WNW,293,0.0,4.9,81,0.00,,,0.00,VWS V14.01,2013-03-12 07:24:00,
2013-03-12 02:25:00,46.2,40.7,29.99,North,0,4.9,4.9,81,0.00,,,0.00,VWS V14.01,2013-03-12 07:25:00,
2013-03-12 02:26:00,46.2,40.7,29.99,North,353,2.7,6.3,81,0.00,,,0.00,VWS V14.01,2013-03-12 07:26:00,
2013-03-12 02:27:00,46.2,40.7,29.99,North,357,0.0,3.6,81,0.00,,,0.00,VWS V14.01,2013-03-12 07:27:00,
2013-03-12 02:28:00,46.2,40.7,29.99,North,353,2.7,7.6,81,0.00,,,0.00,VWS V14.01,2013-03-12 07:28:00,
2013-03-12 02:29:00,46.2,40.7,29.99,NNW,346,4.9,4.9,81,0.00,,,0.00,VWS V14.01,2013-03-12 07:29:00,
2013-03-12 02:30:00,46.2,40.7,29.99,NW,316,3.6,4.0,81,0.00,,,0.00,VWS V14.01,2013-03-12 07:30:00,
2013-03-12 02:31:00,46.2,40.7,29.99,NW,312,2.7,5.4,81,0.00,,,0.00,VWS V14.01,2013-03-12 07:31:00,
2013-03-12 02:32:00,46.2,40.4,29.99,WNW,295,8.3,8.3,80,0.00,,,0.00,VWS V14.01,2013-03-12 07:32:00,
2013-03-12 02:33:00,46.2,40.4,29.99,NNW,345,4.0,8.3,80,0.00,,,0.00,VWS V14.01,2013-03-12 07:33:00,
2013-03-12 02:34:00,46.2,40.4,29.99,North,350,3.6,4.0,80,0.00,,,0.00,VWS V14.01,2013-03-12 07:34:00,
2013-03-12 02:35:00,46.0,39.9,29.99,NNW,339,3.1,5.4,79,0.00,,,0.00,VWS V14.01,2013-03-12 07:35:00,
2013-03-12 02:36:00,46.0,39.9,29.99,North,357,8.1,8.1,79,0.00,,,0.00,VWS V14.01,2013-03-12 07:36:00,
2013-03-12 02:37:00,46.0,39.9,29.99,North,357,5.4,8.1,79,0.00,,,0.00,VWS V14.01,2013-03-12 07:37:00,
2013-03-12 02:38:00,46.0,39.9,29.99,NNW,328,4.0,6.3,79,0.00,,,0.00,VWS V14.01,2013-03-12 07:38:00,
2013-03-12 02:39:00,46.0,39.6,29.99,WNW,297,5.8,5.8,78,0.00,,,0.00,VWS V14.01,2013-03-12 07:39:00,
2013-03-12 02:40:00,46.0,39.6,29.99,North,5,5.4,5.4,78,0.00,,,0.00,VWS V14.01,2013-03-12 07:40:00,
2013-03-12 02:41:00,46.0,39.6,29.99,NNE,18,3.6,5.4,78,0.00,,,0.00,VWS V14.01,2013-03-12 07:41:00,
2013-03-12 02:42:00,46.0,39.2,29.99,NW,316,4.0,7.6,77,0.00,,,0.00,VWS V14.01,2013-03-12 07:42:00,
2013-03-12 02:43:00,46.0,39.2,29.99,NW,312,3.6,5.8,77,0.00,,,0.00,VWS V14.01,2013-03-12 07:43:00,
2013-03-12 02:44:00,46.0,39.2,29.99,NNW,341,4.9,4.9,77,0.00,,,0.00,VWS V14.01,2013-03-12 07:44:00,
2013-03-12 02:45:00,45.9,39.1,29.99,NNW,335,7.2,8.1,77,0.00,,,0.00,VWS V14.01,2013-03-12 07:45:00,
2013-03-12 02:46:00,45.9,39.1,29.99,North,353,3.1,8.1,77,0.00,,,0.00,VWS V14.01,2013-03-12 07:46:00,
2013-03-12 02:47:00,45.9,39.1,29.99,NNW,331,2.7,5.4,77,0.00,,,0.00,VWS V14.01,2013-03-12 07:47:00,
2013-03-12 02:48:00,45.9,38.4,29.99,NW,319,6.3,6.3,75,0.00,,,0.00,VWS V14.01,2013-03-12 07:48:00,
2013-03-12 02:49:00,45.9,38.4,29.99,NNW,338,2.7,6.3,75,0.00,,,0.00,VWS V14.01,2013-03-12 07:49:00,
2013-03-12 02:50:00,45.9,38.4,29.99,NW,319,3.6,3.6,75,0.00,,,0.00,VWS V14.01,2013-03-12 07:50:00,
2013-03-12 02:51:00,45.9,38.4,29.99,North,353,3.6,4.9,75,0.00,,,0.00,VWS V14.01,2013-03-12 07:51:00,
2013-03-12 02:52:00,45.9,38.1,29.99,NW,318,3.1,3.6,74,0.00,,,0.00,VWS V14.01,2013-03-12 07:52:00,
2013-03-12 02:53:00,45.9,38.1,29.99,North,0,4.5,4.5,74,0.00,,,0.00,VWS V14.01,2013-03-12 07:53:00,
2013-03-12 02:54:00,45.9,38.1,29.99,North,353,3.1,6.3,74,0.00,,,0.00,VWS V14.01,2013-03-12 07:54:00,
2013-03-12 02:55:00,45.9,38.0,29.99,NW,318,3.6,3.6,74,0.00,,,0.00,VWS V14.01,2013-03-12 07:55:00,
2013-03-12 02:56:00,45.7,37.9,29.99,NNW,345,4.5,5.4,74,0.00,,,0.00,VWS V14.01,2013-03-12 07:56:00,
2013-03-12 02:57:00,45.7,37.9,29.99,North,8,4.5,4.9,74,0.00,,,0.00,VWS V14.01,2013-03-12 07:57:00,
2013-03-12 02:58:00,45.7,37.9,29.99,NNW,346,5.4,5.4,74,0.00,,,0.00,VWS V14.01,2013-03-12 07:58:00,
2013-03-12 02:59:00,45.7,37.5,29.99,West,280,4.0,5.4,73,0.00,,,0.00,VWS V14.01,2013-03-12 07:59:00,
2013-03-12 03:00:00,45.7,37.5,29.99,North,6,4.0,4.0,73,0.00,,,0.00,VWS V14.01,2013-03-12 08:00:00,
2013-03-12 03:01:00,45.7,37.5,29.99,NW,326,4.0,5.4,73,0.00,,,0.00,VWS V14.01,2013-03-12 08:01:00,
2013-03-12 03:02:00,45.7,37.5,29.99,NNW,330,0.0,4.9,73,0.00,,,0.00,VWS V14.01,2013-03-12 08:02:00,
2013-03-12 03:03:00,45.5,37.4,29.99,North,353,3.6,6.3,73,0.00,,,0.00,VWS V14.01,2013-03-12 08:03:00,
2013-03-12 03:04:00,45.5,37.4,29.99,WNW,291,0.0,3.6,73,0.00,,,0.00,VWS V14.01,2013-03-12 08:04:00,
2013-03-12 03:05:00,45.5,37.0,29.99,NNW,338,3.1,4.9,72,0.00,,,0.00,VWS V14.01,2013-03-12 08:05:00,
2013-03-12 03:06:00,45.5,37.0,29.99,NW,324,5.4,5.4,72,0.00,,,0.00,VWS V14.01,2013-03-12 08:06:00,
2013-03-12 03:07:00,45.5,37.0,29.99,NNW,341,3.6,5.4,72,0.00,,,0.00,VWS V14.01,2013-03-12 08:07:00,
2013-03-12 03:08:00,45.5,37.0,29.99,NNW,337,2.7,3.6,72,0.00,,,0.00,VWS V14.01,2013-03-12 08:08:00,
2013-03-12 03:09:00,45.5,37.0,29.99,North,11,4.0,6.3,72,0.00,,,0.00,VWS V14.01,2013-03-12 08:09:00,
2013-03-12 03:10:00,45.5,37.0,29.99,North,5,0.0,0.0,72,0.00,,,0.00,VWS V14.01,2013-03-12 08:10:00,
2013-03-12 03:11:00,45.5,37.0,29.99,North,349,0.0,0.0,72,0.00,,,0.00,VWS V14.01,2013-03-12 08:11:00,
2013-03-12 03:12:00,45.5,37.0,29.99,East,92,4.9,5.8,72,0.00,,,0.00,VWS V14.01,2013-03-12 08:12:00,
2013-03-12 03:13:00,45.5,37.0,29.99,North,0,6.3,6.3,72,0.00,,,0.00,VWS V14.01,2013-03-12 08:13:00,
2013-03-12 03:14:00,45.5,37.0,29.99,NNW,335,0.0,6.3,72,0.00,,,0.00,VWS V14.01,2013-03-12 08:14:00,
2013-03-12 03:15:00,45.5,37.0,29.99,North,0,0.0,0.0,72,0.00,,,0.00,VWS V14.01,2013-03-12 08:15:00,
2013-03-12 03:16:00,45.5,37.0,29.99,NE,44,3.6,5.4,72,0.00,,,0.00,VWS V14.01,2013-03-12 08:16:00,
2013-03-12 03:17:00,45.5,36.7,29.99,North,353,2.7,4.0,71,0.00,,,0.00,VWS V14.01,2013-03-12 08:17:00,
2013-03-12 03:18:00,45.3,36.5,29.99,NNE,12,0.0,2.7,71,0.00,,,0.00,VWS V14.01,2013-03-12 08:18:00,
2013-03-12 03:19:00,45.3,36.5,29.99,NNW,334,0.0,0.0,71,0.00,,,0.00,VWS V14.01,2013-03-12 08:19:00,
2013-03-12 03:20:00,45.3,36.5,29.99,North,10,0.0,0.0,71,0.00,,,0.00,VWS V14.01,2013-03-12 08:20:00,
2013-03-12 03:21:00,45.3,36.5,29.99,North,10,0.0,0.0,71,0.00,,,0.00,VWS V14.01,2013-03-12 08:21:00,
2013-03-12 03:22:00,45.3,36.5,29.99,North,0,0.0,0.0,71,0.00,,,0.00,VWS V14.01,2013-03-12 08:22:00,
2013-03-12 03:23:00,45.3,36.5,29.99,North,0,0.0,0.0,71,0.00,,,0.00,VWS V14.01,2013-03-12 08:23:00,
2013-03-12 03:24:00,45.3,36.5,29.99,NNW,338,0.0,5.4,71,0.00,,,0.00,VWS V14.01,2013-03-12 08:24:00,
2013-03-12 03:25:00,45.3,36.5,29.99,WNW,293,0.0,0.0,71,0.00,,,0.00,VWS V14.01,2013-03-12 08:25:00,
2013-03-12 03:26:00,45.3,36.5,29.99,NNW,343,2.7,4.0,71,0.00,,,0.00,VWS V14.01,2013-03-12 08:26:00,
2013-03-12 03:27:00,45.3,36.5,29.99,North,357,5.4,5.4,71,0.00,,,0.00,VWS V14.01,2013-03-12 08:27:00,
2013-03-12 03:28:00,45.3,36.5,29.99,North,349,0.0,5.4,71,0.00,,,0.00,VWS V14.01,2013-03-12 08:28:00,
2013-03-12 03:29:00,45.3,36.5,29.99,NW,324,3.6,3.6,71,0.00,,,0.00,VWS V14.01,2013-03-12 08:29:00,
2013-03-12 03:30:00,45.3,36.5,29.99,NNW,341,5.4,5.4,71,0.00,,,0.00,VWS V14.01,2013-03-12 08:30:00,
2013-03-12 03:31:00,45.3,36.5,29.99,NNW,341,2.7,5.4,71,0.00,,,0.00,VWS V14.01,2013-03-12 08:31:00,
2013-03-12 03:32:00,45.3,36.5,29.99,NNW,337,0.0,2.7,71,0.00,,,0.00,VWS V14.01,2013-03-12 08:32:00,
2013-03-12 03:33:00,45.3,36.5,29.99,NNW,329,3.6,3.6,71,0.00,,,0.00,VWS V14.01,2013-03-12 08:33:00,
2013-03-12 03:34:00,45.3,36.1,29.99,North,353,2.2,3.6,70,0.00,,,0.00,VWS V14.01,2013-03-12 08:34:00,
2013-03-12 03:35:00,45.3,36.1,29.99,NW,320,0.0,0.0,70,0.00,,,0.00,VWS V14.01,2013-03-12 08:35:00,
2013-03-12 03:36:00,45.1,36.0,29.99,NW,310,0.0,0.0,70,0.00,,,0.00,VWS V14.01,2013-03-12 08:36:00,
2013-03-12 03:37:00,45.1,36.0,29.99,NW,318,3.6,3.6,70,0.00,,,0.00,VWS V14.01,2013-03-12 08:37:00,
2013-03-12 03:38:00,45.1,36.0,29.99,North,353,0.0,3.6,70,0.00,,,0.00,VWS V14.01,2013-03-12 08:38:00,
2013-03-12 03:39:00,45.1,36.0,29.99,NW,315,3.6,3.6,70,0.00,,,0.00,VWS V14.01,2013-03-12 08:39:00,
2013-03-12 03:40:00,45.1,36.0,29.99,WNW,292,0.0,0.0,70,0.00,,,0.00,VWS V14.01,2013-03-12 08:40:00,
2013-03-12 03:41:00,45.1,36.0,29.99,NW,307,0.0,0.0,70,0.00,,,0.00,VWS V14.01,2013-03-12 08:41:00,
2013-03-12 03:42:00,45.1,36.0,29.99,North,353,0.0,0.0,70,0.00,,,0.00,VWS V14.01,2013-03-12 08:42:00,
2013-03-12 03:43:00,45.1,36.0,29.99,North,0,4.0,4.0,70,0.00,,,0.00,VWS V14.01,2013-03-12 08:43:00,
2013-03-12 03:44:00,45.1,36.0,29.99,NW,311,5.4,6.3,70,0.00,,,0.00,VWS V14.01,2013-03-12 08:44:00,
2013-03-12 03:45:00,45.1,36.0,29.99,North,0,2.7,2.7,70,0.00,,,0.00,VWS V14.01,2013-03-12 08:45:00,
2013-03-12 03:46:00,45.1,36.0,29.99,NW,312,5.4,5.4,70,0.00,,,0.00,VWS V14.01,2013-03-12 08:46:00,
2013-03-12 03:47:00,45.1,35.6,29.99,NW,306,3.6,5.4,69,0.00,,,0.00,VWS V14.01,2013-03-12 08:47:00,
2013-03-12 03:48:00,45.1,35.6,29.99,NNW,346,2.7,4.0,69,0.00,,,0.00,VWS V14.01,2013-03-12 08:48:00,
2013-03-12 03:49:00,45.1,36.0,29.99,NNW,345,3.1,4.5,70,0.00,,,0.00,VWS V14.01,2013-03-12 08:49:00,
2013-03-12 03:50:00,45.0,35.8,29.99,North,357,0.0,0.0,70,0.00,,,0.00,VWS V14.01,2013-03-12 08:50:00,
2013-03-12 03:51:00,45.0,35.8,29.99,NNW,345,5.4,5.4,70,0.00,,,0.00,VWS V14.01,2013-03-12 08:51:00,
2013-03-12 03:52:00,45.0,35.8,29.99,NW,326,0.0,5.4,70,0.00,,,0.00,VWS V14.01,2013-03-12 08:52:00,
2013-03-12 03:53:00,45.0,35.4,29.99,WNW,299,0.0,0.0,69,0.00,,,0.00,VWS V14.01,2013-03-12 08:53:00,
2013-03-12 03:54:00,45.0,35.4,29.99,WNW,301,0.0,0.0,69,0.00,,,0.00,VWS V14.01,2013-03-12 08:54:00,
2013-03-12 03:55:00,45.0,35.4,29.99,NNW,340,0.0,0.0,69,0.00,,,0.00,VWS V14.01,2013-03-12 08:55:00,
2013-03-12 03:56:00,45.0,35.4,29.99,NE,34,4.0,4.0,69,0.00,,,0.00,VWS V14.01,2013-03-12 08:56:00,
2013-03-12 03:57:00,45.0,35.4,29.99,NNW,337,0.0,7.6,69,0.00,,,0.00,VWS V14.01,2013-03-12 08:57:00,
2013-03-12 03:58:00,45.0,35.4,29.99,North,353,2.7,3.1,69,0.00,,,0.00,VWS V14.01,2013-03-12 08:58:00,
2013-03-12 03:59:00,45.0,35.4,29.99,WNW,293,0.0,2.7,69,0.00,,,0.00,VWS V14.01,2013-03-12 08:59:00,
2013-03-12 04:00:00,44.8,35.2,29.99,North,0,0.0,0.0,69,0.00,,,0.00,VWS V14.01,2013-03-12 09:00:00,
2013-03-12 04:01:00,44.8,35.2,29.99,North,0,4.0,4.9,69,0.00,,,0.00,VWS V14.01,2013-03-12 09:01:00,
2013-03-12 04:02:00,44.8,35.2,29.99,North,349,3.1,4.0,69,0.00,,,0.00,VWS V14.01,2013-03-12 09:02:00,
2013-03-12 04:03:00,44.8,35.2,29.99,NW,326,4.0,4.9,69,0.00,,,0.00,VWS V14.01,2013-03-12 09:03:00,
2013-03-12 04:04:00,44.8,35.2,29.99,North,0,0.0,4.0,69,0.00,,,0.00,VWS V14.01,2013-03-12 09:04:00,
2013-03-12 04:05:00,44.8,35.2,29.99,NW,316,2.2,3.1,69,0.00,,,0.00,VWS V14.01,2013-03-12 09:05:00,
2013-03-12 04:06:00,44.8,35.2,29.99,NW,321,3.6,3.6,69,0.00,,,0.00,VWS V14.01,2013-03-12 09:06:00,
2013-03-12 04:07:00,44.8,35.2,29.99,NW,318,0.0,3.6,69,0.00,,,0.00,VWS V14.01,2013-03-12 09:07:00,
2013-03-12 04:08:00,44.8,35.2,29.99,NNE,20,0.0,0.0,69,0.00,,,0.00,VWS V14.01,2013-03-12 09:08:00,
2013-03-12 04:09:00,44.8,35.2,29.99,NNW,345,0.0,0.0,69,0.00,,,0.00,VWS V14.01,2013-03-12 09:09:00,
2013-03-12 04:10:00,44.6,35.1,29.99,North,5,4.9,4.9,69,0.00,,,0.00,VWS V14.01,2013-03-12 09:10:00,
2013-03-12 04:11:00,44.6,35.1,29.99,WNW,299,5.4,6.3,69,0.00,,,0.00,VWS V14.01,2013-03-12 09:11:00,
2013-03-12 04:12:00,44.6,35.1,29.99,North,353,5.4,5.4,69,0.00,,,0.00,VWS V14.01,2013-03-12 09:12:00,
2013-03-12 04:13:00,44.6,35.1,29.99,North,357,2.2,5.4,69,0.00,,,0.00,VWS V14.01,2013-03-12 09:13:00,
2013-03-12 04:14:00,44.6,35.1,29.99,WNW,289,6.3,6.3,69,0.00,,,0.00,VWS V14.01,2013-03-12 09:14:00,
2013-03-12 04:15:00,44.6,35.1,29.99,WNW,301,2.7,3.6,69,0.00,,,0.00,VWS V14.01,2013-03-12 09:15:00,
2013-03-12 04:16:00,44.6,35.1,29.99,North,1,2.7,3.6,69,0.00,,,0.00,VWS V14.01,2013-03-12 09:16:00,
2013-03-12 04:17:00,44.6,35.1,30.02,NW,322,2.7,3.1,69,0.00,,,0.00,VWS V14.01,2013-03-12 09:17:00,
2013-03-12 04:18:00,44.6,35.1,30.02,NNW,334,0.0,2.7,69,0.00,,,0.00,VWS V14.01,2013-03-12 09:18:00,
2013-03-12 04:19:00,44.4,34.9,30.02,NNW,334,0.0,0.0,69,0.00,,,0.00,VWS V14.01,2013-03-12 09:19:00,
2013-03-12 04:20:00,44.4,34.9,30.02,NNW,337,3.6,3.6,69,0.00,,,0.00,VWS V14.01,2013-03-12 09:20:00,
2013-03-12 04:21:00,44.4,34.9,30.02,NNW,343,3.1,4.9,69,0.00,,,0.00,VWS V14.01,2013-03-12 09:21:00,
2013-03-12 04:22:00,44.4,34.9,30.02,North,0,0.0,4.9,69,0.00,,,0.00,VWS V14.01,2013-03-12 09:22:00,
2013-03-12 04:23:00,44.4,34.9,30.02,NNW,332,3.1,3.1,69,0.00,,,0.00,VWS V14.01,2013-03-12 09:23:00,
2013-03-12 04:24:00,44.4,34.9,30.02,North,5,0.0,3.1,69,0.00,,,0.00,VWS V14.01,2013-03-12 09:24:00,
2013-03-12 04:25:00,44.4,34.9,30.02,NW,311,4.5,4.5,69,0.00,,,0.00,VWS V14.01,2013-03-12 09:25:00,
2013-03-12 04:26:00,44.4,34.9,30.02,North,9,2.7,4.5,69,0.00,,,0.00,VWS V14.01,2013-03-12 09:26:00,
2013-03-12 04:27:00,44.4,34.9,30.02,NW,319,2.7,3.6,69,0.00,,,0.00,VWS V14.01,2013-03-12 09:27:00,
2013-03-12 04:28:00,44.4,34.9,30.02,WNW,299,4.0,4.0,69,0.00,,,0.00,VWS V14.01,2013-03-12 09:28:00,
2013-03-12 04:29:00,44.4,34.9,30.02,NNW,335,0.0,4.9,69,0.00,,,0.00,VWS V14.01,2013-03-12 09:29:00,
2013-03-12 04:30:00,44.4,34.9,30.02,NW,321,5.8,5.8,69,0.00,,,0.00,VWS V14.01,2013-03-12 09:30:00,
2013-03-12 04:31:00,44.4,34.9,30.02,NW,311,2.7,5.8,69,0.00,,,0.00,VWS V14.01,2013-03-12 09:31:00,
2013-03-12 04:32:00,44.2,34.7,30.02,NNW,344,0.0,2.7,69,0.00,,,0.00,VWS V14.01,2013-03-12 09:32:00,
2013-03-12 04:33:00,44.2,34.7,30.02,NNW,336,3.1,3.1,69,0.00,,,0.00,VWS V14.01,2013-03-12 09:33:00,
2013-03-12 04:34:00,44.2,34.7,30.02,NNE,16,3.1,5.8,69,0.00,,,0.00,VWS V14.01,2013-03-12 09:34:00,
2013-03-12 04:35:00,44.2,34.7,30.02,NNW,348,3.1,3.1,69,0.00,,,0.00,VWS V14.01,2013-03-12 09:35:00,
2013-03-12 04:36:00,44.2,34.7,30.02,NNW,339,8.7,8.7,69,0.00,,,0.00,VWS V14.01,2013-03-12 09:36:00,
2013-03-12 04:37:00,44.2,34.7,30.02,WNW,294,4.0,8.7,69,0.00,,,0.00,VWS V14.01,2013-03-12 09:37:00,
2013-03-12 04:38:00,44.2,34.7,30.02,North,7,4.0,4.9,69,0.00,,,0.00,VWS V14.01,2013-03-12 09:38:00,
2013-03-12 04:39:00,44.2,34.7,30.02,WNW,285,3.6,4.9,69,0.00,,,0.00,VWS V14.01,2013-03-12 09:39:00,
2013-03-12 04:40:00,44.2,34.7,30.02,North,357,2.2,2.2,69,0.00,,,0.00,VWS V14.01,2013-03-12 09:40:00,
2013-03-12 04:41:00,44.2,34.7,30.02,NE,35,3.6,3.6,69,0.00,,,0.00,VWS V14.01,2013-03-12 09:41:00,
2013-03-12 04:42:00,44.2,34.7,30.02,North,0,3.1,5.8,69,0.00,,,0.00,VWS V14.01,2013-03-12 09:42:00,
2013-03-12 04:43:00,44.1,34.6,30.02,North,353,3.6,3.6,69,0.00,,,0.00,VWS V14.01,2013-03-12 09:43:00,
2013-03-12 04:44:00,44.1,34.6,30.02,North,0,3.6,5.4,69,0.00,,,0.00,VWS V14.01,2013-03-12 09:44:00,
2013-03-12 04:45:00,44.1,34.6,30.02,NNW,334,4.0,7.6,69,0.00,,,0.00,VWS V14.01,2013-03-12 09:45:00,
2013-03-12 04:46:00,44.1,34.6,30.02,North,357,4.0,4.0,69,0.00,,,0.00,VWS V14.01,2013-03-12 09:46:00,
2013-03-12 04:47:00,44.1,34.6,30.02,West,276,3.1,5.8,69,0.00,,,0.00,VWS V14.01,2013-03-12 09:47:00,
2013-03-12 04:48:00,44.1,34.6,30.02,North,353,2.7,5.4,69,0.00,,,0.00,VWS V14.01,2013-03-12 09:48:00,
2013-03-12 04:49:00,44.1,34.6,30.02,NNE,25,3.1,3.6,69,0.00,,,0.00,VWS V14.01,2013-03-12 09:49:00,
2013-03-12 04:50:00,44.1,34.2,30.02,NW,318,3.6,3.6,68,0.00,,,0.00,VWS V14.01,2013-03-12 09:50:00,
2013-03-12 04:51:00,44.1,34.2,30.02,NNW,339,5.8,5.8,68,0.00,,,0.00,VWS V14.01,2013-03-12 09:51:00,
2013-03-12 04:52:00,43.9,34.0,30.02,NW,326,4.0,6.3,68,0.00,,,0.00,VWS V14.01,2013-03-12 09:52:00,
2013-03-12 04:53:00,43.9,34.0,30.02,NNW,346,7.6,7.6,68,0.00,,,0.00,VWS V14.01,2013-03-12 09:53:00,
2013-03-12 04:54:00,43.9,34.0,30.02,North,0,2.7,7.6,68,0.00,,,0.00,VWS V14.01,2013-03-12 09:54:00,
2013-03-12 04:55:00,43.9,34.0,30.02,North,357,0.0,0.0,68,0.00,,,0.00,VWS V14.01,2013-03-12 09:55:00,
2013-03-12 04:56:00,43.9,34.0,30.02,NNE,31,5.4,5.4,68,0.00,,,0.00,VWS V14.01,2013-03-12 09:56:00,
2013-03-12 04:57:00,43.9,34.0,30.02,North,0,5.8,5.8,68,0.00,,,0.00,VWS V14.01,2013-03-12 09:57:00,
2013-03-12 04:58:00,43.9,34.0,30.02,NW,322,5.4,7.6,68,0.00,,,0.00,VWS V14.01,2013-03-12 09:58:00,
2013-03-12 04:59:00,43.7,33.8,30.02,NNW,340,5.4,5.4,68,0.00,,,0.00,VWS V14.01,2013-03-12 09:59:00,
2013-03-12 05:00:00,43.7,33.8,30.02,NNW,344,4.9,4.9,68,0.00,,,0.00,VWS V14.01,2013-03-12 10:00:00,
2013-03-12 05:01:00,43.7,33.8,30.02,NNW,331,2.2,4.9,68,0.00,,,0.00,VWS V14.01,2013-03-12 10:01:00,
2013-03-12 05:02:00,43.7,33.8,30.02,NE,37,3.6,3.6,68,0.00,,,0.00,VWS V14.01,2013-03-12 10:02:00,
2013-03-12 05:03:00,43.7,33.8,30.02,North,1,3.1,4.0,68,0.00,,,0.00,VWS V14.01,2013-03-12 10:03:00,
2013-03-12 05:04:00,43.7,33.8,30.02,North,353,2.7,3.6,68,0.00,,,0.00,VWS V14.01,2013-03-12 10:04:00,
2013-03-12 05:05:00,43.7,33.8,30.02,North,4,3.6,3.6,68,0.00,,,0.00,VWS V14.01,2013-03-12 10:05:00,
2013-03-12 05:06:00,43.7,34.2,30.02,North,4,3.1,4.0,69,0.00,,,0.00,VWS V14.01,2013-03-12 10:06:00,
2013-03-12 05:07:00,43.5,33.7,30.02,North,6,3.1,6.3,68,0.00,,,0.00,VWS V14.01,2013-03-12 10:07:00,
2013-03-12 05:08:00,43.5,33.7,30.02,NNW,334,3.1,5.4,68,0.00,,,0.00,VWS V14.01,2013-03-12 10:08:00,
2013-03-12 05:09:00,43.5,34.0,30.02,NW,320,3.1,4.0,69,0.00,,,0.00,VWS V14.01,2013-03-12 10:09:00,
2013-03-12 05:10:00,43.5,34.0,30.02,NNE,19,0.0,0.0,69,0.00,,,0.00,VWS V14.01,2013-03-12 10:10:00,
2013-03-12 05:11:00,43.5,34.0,30.02,NNW,333,0.0,0.0,69,0.00,,,0.00,VWS V14.01,2013-03-12 10:11:00,
2013-03-12 05:12:00,43.5,34.0,30.02,NW,326,0.0,0.0,69,0.00,,,0.00,VWS V14.01,2013-03-12 10:12:00,
2013-03-12 05:13:00,43.5,34.0,30.02,NW,305,2.7,4.0,69,0.00,,,0.00,VWS V14.01,2013-03-12 10:13:00,
2013-03-12 05:14:00,43.5,34.0,30.02,NNE,12,4.9,4.9,69,0.00,,,0.00,VWS V14.01,2013-03-12 10:14:00,
2013-03-12 05:15:00,43.3,33.9,30.02,North,3,4.9,4.9,69,0.00,,,0.00,VWS V14.01,2013-03-12 10:15:00,
2013-03-12 05:16:00,43.5,34.0,30.02,NNW,334,2.7,4.9,69,0.00,,,0.00,VWS V14.01,2013-03-12 10:16:00,
2013-03-12 05:17:00,43.3,33.9,30.02,NNW,333,0.0,3.1,69,0.00,,,0.00,VWS V14.01,2013-03-12 10:17:00,
2013-03-12 05:18:00,43.3,33.9,30.02,NNW,344,2.7,4.0,69,0.00,,,0.00,VWS V14.01,2013-03-12 10:18:00,
2013-03-12 05:19:00,43.3,33.9,30.02,North,353,3.1,4.0,69,0.00,,,0.00,VWS V14.01,2013-03-12 10:19:00,
2013-03-12 05:20:00,43.3,33.9,30.02,NNW,332,0.0,0.0,69,0.00,,,0.00,VWS V14.01,2013-03-12 10:20:00,
2013-03-12 05:21:00,43.3,33.9,30.02,North,0,4.0,4.0,69,0.00,,,0.00,VWS V14.01,2013-03-12 10:21:00,
2013-03-12 05:22:00,43.3,33.9,30.02,NNE,20,0.0,4.0,69,0.00,,,0.00,VWS V14.01,2013-03-12 10:22:00,
2013-03-12 05:23:00,43.3,33.9,30.02,North,4,4.0,4.5,69,0.00,,,0.00,VWS V14.01,2013-03-12 10:23:00,
2013-03-12 05:24:00,43.3,33.9,30.02,North,0,0.0,4.9,69,0.00,,,0.00,VWS V14.01,2013-03-12 10:24:00,
2013-03-12 05:25:00,43.3,33.9,30.02,NNW,334,4.9,4.9,69,0.00,,,0.00,VWS V14.01,2013-03-12 10:25:00,
2013-03-12 05:26:00,43.2,33.7,30.02,NE,36,3.6,4.9,69,0.00,,,0.00,VWS V14.01,2013-03-12 10:26:00,
2013-03-12 05:27:00,43.2,33.7,30.02,NNW,342,4.0,4.0,69,0.00,,,0.00,VWS V14.01,2013-03-12 10:27:00,
2013-03-12 05:28:00,43.2,33.7,30.02,West,281,4.0,4.0,69,0.00,,,0.00,VWS V14.01,2013-03-12 10:28:00,
2013-03-12 05:29:00,43.2,33.7,30.02,North,3,2.7,6.3,69,0.00,,,0.00,VWS V14.01,2013-03-12 10:29:00,
2013-03-12 05:30:00,43.2,33.7,30.02,North,3,2.7,4.0,69,0.00,,,0.00,VWS V14.01,2013-03-12 10:30:00,
2013-03-12 05:31:00,43.2,33.7,30.02,NNW,346,0.0,4.0,69,0.00,,,0.00,VWS V14.01,2013-03-12 10:31:00,
2013-03-12 05:32:00,43.2,33.7,30.05,North,0,5.4,5.4,69,0.00,,,0.00,VWS V14.01,2013-03-12 10:32:00,
2013-03-12 05:33:00,43.2,33.7,30.05,North,0,0.0,5.4,69,0.00,,,0.00,VWS V14.01,2013-03-12 10:33:00,
2013-03-12 05:34:00,43.2,33.7,30.05,North,10,0.0,5.4,69,0.00,,,0.00,VWS V14.01,2013-03-12 10:34:00,
2013-03-12 05:35:00,43.0,33.5,30.05,North,0,4.9,5.4,69,0.00,,,0.00,VWS V14.01,2013-03-12 10:35:00,
2013-03-12 05:36:00,43.0,33.5,30.05,NNW,333,4.0,5.4,69,0.00,,,0.00,VWS V14.01,2013-03-12 10:36:00,
2013-03-12 05:37:00,43.0,33.5,30.05,NW,326,3.6,4.0,69,0.00,,,0.00,VWS V14.01,2013-03-12 10:37:00,
2013-03-12 05:38:00,43.0,33.5,30.05,NNE,22,3.1,4.9,69,0.00,,,0.00,VWS V14.01,2013-03-12 10:38:00,
2013-03-12 05:39:00,43.0,33.5,30.05,NNE,16,0.0,3.1,69,0.00,,,0.00,VWS V14.01,2013-03-12 10:39:00,
2013-03-12 05:40:00,43.0,33.5,30.05,North,353,0.0,0.0,69,0.00,,,0.00,VWS V14.01,2013-03-12 10:40:00,
2013-03-12 05:41:00,43.0,33.5,30.05,NNW,327,3.6,4.9,69,0.00,,,0.00,VWS V14.01,2013-03-12 10:41:00,
2013-03-12 05:42:00,43.0,33.5,30.05,North,9,2.2,3.6,69,0.00,,,0.00,VWS V14.01,2013-03-12 10:42:00,
2013-03-12 05:43:00,43.0,33.5,30.05,North,4,0.0,2.2,69,0.00,,,0.00,VWS V14.01,2013-03-12 10:43:00,
2013-03-12 05:44:00,43.0,33.5,30.05,NNW,339,0.0,0.0,69,0.00,,,0.00,VWS V14.01,2013-03-12 10:44:00,
2013-03-12 05:45:00,42.8,33.3,30.05,NNW,335,5.4,5.4,69,0.00,,,0.00,VWS V14.01,2013-03-12 10:45:00,
2013-03-12 05:46:00,42.8,33.3,30.05,North,2,0.0,5.4,69,0.00,,,0.00,VWS V14.01,2013-03-12 10:46:00,
2013-03-12 05:47:00,42.8,33.3,30.05,NNW,346,0.0,0.0,69,0.00,,,0.00,VWS V14.01,2013-03-12 10:47:00,
2013-03-12 05:48:00,42.8,33.3,30.05,NW,316,0.0,0.0,69,0.00,,,0.00,VWS V14.01,2013-03-12 10:48:00,
2013-03-12 05:49:00,42.8,33.3,30.05,North,0,0.0,3.6,69,0.00,,,0.00,VWS V14.01,2013-03-12 10:49:00,
2013-03-12 05:50:00,42.8,33.3,30.05,NW,313,0.0,0.0,69,0.00,,,0.00,VWS V14.01,2013-03-12 10:50:00,
2013-03-12 05:51:00,42.8,33.3,30.05,North,350,4.0,4.0,69,0.00,,,0.00,VWS V14.01,2013-03-12 10:51:00,
2013-03-12 05:52:00,42.8,33.3,30.05,WNW,290,0.0,4.0,69,0.00,,,0.00,VWS V14.01,2013-03-12 10:52:00,
2013-03-12 05:53:00,42.8,33.3,30.05,North,0,0.0,0.0,69,0.00,,,0.00,VWS V14.01,2013-03-12 10:53:00,
2013-03-12 05:54:00,42.8,33.3,30.05,North,0,0.0,0.0,69,0.00,,,0.00,VWS V14.01,2013-03-12 10:54:00,
2013-03-12 05:55:00,42.8,33.0,30.05,North,3,0.0,0.0,68,0.00,,,0.00,VWS V14.01,2013-03-12 10:55:00,
2013-03-12 05:56:00,42.8,33.0,30.05,NNW,343,3.6,3.6,68,0.00,,,0.00,VWS V14.01,2013-03-12 10:56:00,
2013-03-12 05:57:00,42.6,33.2,30.05,North,353,0.0,3.6,69,0.00,,,0.00,VWS V14.01,2013-03-12 10:57:00,
2013-03-12 05:58:00,42.6,33.2,30.05,NNW,348,2.2,4.0,69,0.00,,,0.00,VWS V14.01,2013-03-12 10:58:00,
2013-03-12 05:59:00,42.6,33.2,30.05,NNW,344,4.9,4.9,69,0.00,,,0.00,VWS V14.01,2013-03-12 10:59:00,
2013-03-12 06:00:00,42.6,33.2,30.05,WNW,302,0.0,4.9,69,0.00,,,0.00,VWS V14.01,2013-03-12 11:00:00,
2013-03-12 06:01:00,42.6,33.2,30.05,NNW,329,2.7,2.7,69,0.00,,,0.00,VWS V14.01,2013-03-12 11:01:00,
2013-03-12 06:02:00,42.6,33.2,30.05,NNE,29,0.0,2.7,69,0.00,,,0.00,VWS V14.01,2013-03-12 11:02:00,
2013-03-12 06:03:00,42.6,33.2,30.05,North,0,0.0,0.0,69,0.00,,,0.00,VWS V14.01,2013-03-12 11:03:00,
2013-03-12 06:04:00,42.6,33.2,30.05,North,0,0.0,0.0,69,0.00,,,0.00,VWS V14.01,2013-03-12 11:04:00,
2013-03-12 06:05:00,42.4,33.0,30.05,North,0,0.0,0.0,69,0.00,,,0.00,VWS V14.01,2013-03-12 11:05:00,
2013-03-12 06:06:00,42.4,33.0,30.05,NNW,343,0.0,0.0,69,0.00,,,0.00,VWS V14.01,2013-03-12 11:06:00,
2013-03-12 06:07:00,42.4,33.0,30.05,NNW,348,0.0,0.0,69,0.00,,,0.00,VWS V14.01,2013-03-12 11:07:00,
2013-03-12 06:08:00,42.4,33.0,30.05,NNW,328,2.7,2.7,69,0.00,,,0.00,VWS V14.01,2013-03-12 11:08:00,
2013-03-12 06:09:00,42.4,33.0,30.05,NNW,343,0.0,2.7,69,0.00,,,0.00,VWS V14.01,2013-03-12 11:09:00,
2013-03-12 06:10:00,42.4,33.0,30.05,NNW,338,0.0,0.0,69,0.00,,,0.00,VWS V14.01,2013-03-12 11:10:00,
2013-03-12 06:11:00,42.4,33.0,30.05,North,0,2.7,3.1,69,0.00,,,0.00,VWS V14.01,2013-03-12 11:11:00,
2013-03-12 06:12:00,42.4,33.0,30.05,North,353,4.0,4.0,69,0.00,,,0.00,VWS V14.01,2013-03-12 11:12:00,
2013-03-12 06:13:00,42.4,33.0,30.05,North,9,3.1,4.0,69,0.00,,,0.00,VWS V14.01,2013-03-12 11:13:00,
2013-03-12 06:14:00,42.4,33.0,30.05,NNW,341,0.0,3.1,69,0.00,,,0.00,VWS V14.01,2013-03-12 11:14:00,
2013-03-12 06:15:00,42.4,33.0,30.05,North,0,0.0,0.0,69,0.00,,,0.00,VWS V14.01,2013-03-12 11:15:00,
2013-03-12 06:16:00,42.3,32.8,30.05,NW,320,0.0,0.0,69,0.00,,,0.00,VWS V14.01,2013-03-12 11:16:00,
2013-03-12 06:17:00,42.3,32.8,30.05,NNE,29,0.0,0.0,69,0.00,,,0.00,VWS V14.01,2013-03-12 11:17:00,
2013-03-12 06:18:00,42.3,32.8,30.05,North,2,3.6,4.0,69,0.00,,,0.00,VWS V14.01,2013-03-12 11:18:00,
2013-03-12 06:19:00,42.3,32.8,30.05,NW,308,0.0,3.6,69,0.00,,,0.00,VWS V14.01,2013-03-12 11:19:00,
2013-03-12 06:20:00,42.3,32.8,30.05,North,0,4.0,4.0,69,0.00,,,0.00,VWS V14.01,2013-03-12 11:20:00,
2013-03-12 06:21:00,42.3,32.8,30.05,NNW,344,2.2,4.0,69,0.00,,,0.00,VWS V14.01,2013-03-12 11:21:00,
2013-03-12 06:22:00,42.3,32.8,30.05,WNW,298,0.0,2.2,69,0.00,,,0.00,VWS V14.01,2013-03-12 11:22:00,
2013-03-12 06:23:00,42.3,32.8,30.05,NNW,341,0.0,0.0,69,0.00,,,0.00,VWS V14.01,2013-03-12 11:23:00,
2013-03-12 06:24:00,42.3,32.8,30.05,NW,312,0.0,0.0,69,0.00,,,0.00,VWS V14.01,2013-03-12 11:24:00,
2013-03-12 06:25:00,42.3,32.8,30.05,NW,314,0.0,0.0,69,0.00,,,0.00,VWS V14.01,2013-03-12 11:25:00,
2013-03-12 06:26:00,42.3,32.8,30.05,NW,314,0.0,0.0,69,0.00,,,0.00,VWS V14.01,2013-03-12 11:26:00,
2013-03-12 06:27:00,42.1,32.7,30.05,North,4,0.0,0.0,69,0.00,,,0.00,VWS V14.01,2013-03-12 11:27:00,
2013-03-12 06:28:00,42.1,32.7,30.05,NNW,333,4.9,4.9,69,0.00,,,0.00,VWS V14.01,2013-03-12 11:28:00,
2013-03-12 06:29:00,42.1,32.7,30.05,NW,322,2.2,4.9,69,0.00,,,0.00,VWS V14.01,2013-03-12 11:29:00,
2013-03-12 06:30:00,42.1,32.7,30.05,NW,322,0.0,0.0,69,0.00,,,0.00,VWS V14.01,2013-03-12 11:30:00,
2013-03-12 06:31:00,42.1,32.7,30.05,NW,315,0.0,0.0,69,0.00,,,0.00,VWS V14.01,2013-03-12 11:31:00,
2013-03-12 06:32:00,42.1,32.7,30.05,NNE,14,4.0,4.0,69,0.00,,,0.00,VWS V14.01,2013-03-12 11:32:00,
2013-03-12 06:33:00,42.1,32.7,30.05,North,0,3.6,4.0,69,0.00,,,0.00,VWS V14.01,2013-03-12 11:33:00,
2013-03-12 06:34:00,42.1,32.7,30.05,NNE,18,0.0,3.6,69,0.00,,,0.00,VWS V14.01,2013-03-12 11:34:00,
2013-03-12 06:35:00,42.3,32.8,30.05,NNE,21,4.0,4.0,69,0.00,,,0.00,VWS V14.01,2013-03-12 11:35:00,
2013-03-12 06:36:00,42.3,32.8,30.05,North,2,0.0,4.0,69,0.00,,,0.00,VWS V14.01,2013-03-12 11:36:00,
2013-03-12 06:37:00,42.3,32.8,30.05,NNW,337,0.0,0.0,69,0.00,,,0.00,VWS V14.01,2013-03-12 11:37:00,
2013-03-12 06:38:00,42.3,32.8,30.05,NNW,346,4.9,4.9,69,0.00,,,0.00,VWS V14.01,2013-03-12 11:38:00,
2013-03-12 06:39:00,42.3,32.8,30.05,NW,310,0.0,4.9,69,0.00,,,0.00,VWS V14.01,2013-03-12 11:39:00,
2013-03-12 06:40:00,42.3,32.8,30.05,North,353,0.0,0.0,69,0.00,,,0.00,VWS V14.01,2013-03-12 11:40:00,
2013-03-12 06:41:00,42.3,32.8,30.05,NW,319,0.0,0.0,69,0.00,,,0.00,VWS V14.01,2013-03-12 11:41:00,
2013-03-12 06:42:00,42.1,32.7,30.05,North,357,0.0,0.0,69,0.00,,,0.00,VWS V14.01,2013-03-12 11:42:00,
2013-03-12 06:43:00,42.1,32.3,30.05,North,357,0.0,0.0,68,0.00,,,0.00,VWS V14.01,2013-03-12 11:43:00,
2013-03-12 06:44:00,42.1,32.3,30.05,North,357,0.0,0.0,68,0.00,,,0.00,VWS V14.01,2013-03-12 11:44:00,
2013-03-12 06:45:00,42.1,32.3,30.05,North,357,0.0,0.0,68,0.00,,,0.00,VWS V14.01,2013-03-12 11:45:00,
2013-03-12 06:46:00,42.1,32.3,30.05,North,0,0.0,0.0,68,0.00,,,0.00,VWS V14.01,2013-03-12 11:46:00,
2013-03-12 06:47:00,42.1,32.3,30.05,North,357,0.0,0.0,68,0.00,,,0.00,VWS V14.01,2013-03-12 11:47:00,
2013-03-12 06:48:00,42.1,32.7,30.05,North,357,0.0,0.0,69,0.00,,,0.00,VWS V14.01,2013-03-12 11:48:00,
2013-03-12 06:49:00,42.3,32.8,30.05,North,357,0.0,0.0,69,0.00,,,0.00,VWS V14.01,2013-03-12 11:49:00,
2013-03-12 06:50:00,42.3,32.8,30.05,North,357,0.0,0.0,69,0.00,,,0.00,VWS V14.01,2013-03-12 11:50:00,
2013-03-12 06:51:00,42.1,32.7,30.05,NW,324,0.0,0.0,69,0.00,,,0.00,VWS V14.01,2013-03-12 11:51:00,
2013-03-12 06:52:00,42.1,32.7,30.05,North,353,0.0,0.0,69,0.00,,,0.00,VWS V14.01,2013-03-12 11:52:00,
2013-03-12 06:53:00,42.1,32.3,30.05,North,357,0.0,5.4,68,0.00,,,0.00,VWS V14.01,2013-03-12 11:53:00,
2013-03-12 06:54:00,42.1,32.3,30.05,NW,321,0.0,0.0,68,0.00,,,0.00,VWS V14.01,2013-03-12 11:54:00,
2013-03-12 06:55:00,42.1,32.3,30.05,NNE,21,4.0,4.0,68,0.00,,,0.00,VWS V14.01,2013-03-12 11:55:00,
2013-03-12 06:56:00,41.9,32.1,30.05,NNW,345,3.1,5.8,68,0.00,,,0.00,VWS V14.01,2013-03-12 11:56:00,
2013-03-12 06:57:00,41.9,32.1,30.05,NW,325,2.2,4.9,68,0.00,,,0.00,VWS V14.01,2013-03-12 11:57:00,
2013-03-12 06:58:00,41.9,32.1,30.05,NNW,344,2.2,3.6,68,0.00,,,0.00,VWS V14.01,2013-03-12 11:58:00,
2013-03-12 06:59:00,41.9,32.1,30.05,North,357,3.1,3.1,68,0.00,,,0.00,VWS V14.01,2013-03-12 11:59:00,
2013-03-12 07:00:00,42.1,32.3,30.05,NNE,16,2.7,3.1,68,0.00,,,0.55,VWS V14.01,2013-03-12 12:00:00,
2013-03-12 07:01:00,42.1,32.7,30.05,North,0,3.6,3.6,69,0.00,,,0.00,VWS V14.01,2013-03-12 12:01:00,
2013-03-12 07:02:00,42.3,32.8,30.05,NNW,340,0.0,3.6,69,0.00,,,0.00,VWS V14.01,2013-03-12 12:02:00,
2013-03-12 07:03:00,42.1,32.7,30.05,NNW,338,0.0,0.0,69,0.00,,,0.00,VWS V14.01,2013-03-12 12:03:00,
2013-03-12 07:04:00,42.3,32.8,30.05,NNE,16,2.7,3.6,69,0.00,,,0.00,VWS V14.01,2013-03-12 12:04:00,
2013-03-12 07:05:00,42.3,32.8,30.05,NW,326,0.0,2.7,69,0.00,,,0.00,VWS V14.01,2013-03-12 12:05:00,
2013-03-12 07:06:00,42.3,32.8,30.05,North,0,0.0,0.0,69,0.00,,,0.00,VWS V14.01,2013-03-12 12:06:00,
2013-03-12 07:07:00,42.3,32.8,30.05,NNW,327,0.0,0.0,69,0.00,,,0.00,VWS V14.01,2013-03-12 12:07:00,
2013-03-12 07:08:00,42.3,32.8,30.05,North,0,2.2,4.0,69,0.00,,,0.00,VWS V14.01,2013-03-12 12:08:00,
2013-03-12 07:09:00,42.3,32.8,30.05,NNW,348,0.0,2.2,69,0.00,,,0.00,VWS V14.01,2013-03-12 12:09:00,
2013-03-12 07:10:00,42.1,32.7,30.05,NNW,341,0.0,0.0,69,0.00,,,0.00,VWS V14.01,2013-03-12 12:10:00,
2013-03-12 07:11:00,42.1,32.7,30.05,North,357,0.0,0.0,69,0.00,,,0.00,VWS V14.01,2013-03-12 12:11:00,
2013-03-12 07:12:00,42.1,32.7,30.05,North,353,0.0,0.0,69,0.00,,,0.00,VWS V14.01,2013-03-12 12:12:00,
2013-03-12 07:13:00,41.9,32.5,30.05,NNE,17,0.0,0.0,69,0.00,,,0.00,VWS V14.01,2013-03-12 12:13:00,
2013-03-12 07:14:00,41.9,32.5,30.05,NNE,17,0.0,0.0,69,0.00,,,0.00,VWS V14.01,2013-03-12 12:14:00,
2013-03-12 07:15:00,41.9,32.5,30.05,NNE,17,0.0,0.0,69,0.00,,,0.00,VWS V14.01,2013-03-12 12:15:00,
2013-03-12 07:16:00,41.7,32.0,30.05,NNE,16,0.0,0.0,68,0.00,,,0.00,VWS V14.01,2013-03-12 12:16:00,
2013-03-12 07:17:00,41.7,32.0,30.08,NNE,16,0.0,0.0,68,0.00,,,0.00,VWS V14.01,2013-03-12 12:17:00,
2013-03-12 07:18:00,41.7,32.0,30.08,North,357,0.0,0.0,68,0.00,,,0.00,VWS V14.01,2013-03-12 12:18:00,
2013-03-12 07:19:00,41.7,32.0,30.08,North,7,0.0,0.0,68,0.00,,,0.00,VWS V14.01,2013-03-12 12:19:00,
2013-03-12 07:20:00,41.7,32.0,30.08,North,7,0.0,0.0,68,0.00,,,0.00,VWS V14.01,2013-03-12 12:20:00,
2013-03-12 07:21:00,41.7,32.0,30.08,North,7,0.0,0.0,68,0.00,,,0.00,VWS V14.01,2013-03-12 12:21:00,
2013-03-12 07:22:00,41.7,32.0,30.08,North,7,0.0,0.0,68,0.00,,,0.00,VWS V14.01,2013-03-12 12:22:00,
2013-03-12 07:23:00,41.7,32.3,30.08,North,7,0.0,0.0,69,0.00,,,0.00,VWS V14.01,2013-03-12 12:23:00,
2013-03-12 07:24:00,41.7,32.3,30.08,North,7,0.0,0.0,69,0.00,,,0.00,VWS V14.01,2013-03-12 12:24:00,
2013-03-12 07:25:00,41.7,32.3,30.08,North,7,0.0,0.0,69,0.00,,,0.00,VWS V14.01,2013-03-12 12:25:00,
2013-03-12 07:26:00,41.7,32.3,30.08,North,7,0.0,0.0,69,0.00,,,0.00,VWS V14.01,2013-03-12 12:26:00,
2013-03-12 07:27:00,41.7,32.3,30.08,North,7,0.0,0.0,69,0.00,,,0.00,VWS V14.01,2013-03-12 12:27:00,
2013-03-12 07:28:00,41.7,32.3,30.08,North,7,0.0,0.0,69,0.00,,,0.00,VWS V14.01,2013-03-12 12:28:00,
2013-03-12 07:29:00,41.7,32.3,30.08,North,7,0.0,0.0,69,0.00,,,0.00,VWS V14.01,2013-03-12 12:29:00,
2013-03-12 07:30:00,41.7,32.3,30.08,North,7,0.0,0.0,69,0.00,,,0.00,VWS V14.01,2013-03-12 12:30:00,
2013-03-12 07:31:00,41.7,32.3,30.08,North,353,0.0,0.0,69,0.00,,,0.00,VWS V14.01,2013-03-12 12:31:00,
2013-03-12 07:32:00,41.7,32.3,30.08,North,353,0.0,0.0,69,0.00,,,0.00,VWS V14.01,2013-03-12 12:32:00,
2013-03-12 07:33:00,41.7,32.3,30.08,North,353,0.0,0.0,69,0.00,,,0.00,VWS V14.01,2013-03-12 12:33:00,
2013-03-12 07:34:00,41.7,32.3,30.08,North,353,0.0,0.0,69,0.00,,,0.00,VWS V14.01,2013-03-12 12:34:00,
2013-03-12 07:35:00,41.7,32.3,30.08,North,353,0.0,0.0,69,0.00,,,0.00,VWS V14.01,2013-03-12 12:35:00,
2013-03-12 07:36:00,41.5,32.1,30.08,North,353,0.0,0.0,69,0.00,,,0.00,VWS V14.01,2013-03-12 12:36:00,
2013-03-12 07:37:00,41.5,32.1,30.08,North,353,0.0,0.0,69,0.00,,,0.00,VWS V14.01,2013-03-12 12:37:00,
2013-03-12 07:38:00,41.5,32.1,30.08,North,353,0.0,0.0,69,0.00,,,0.00,VWS V14.01,2013-03-12 12:38:00,
2013-03-12 07:39:00,41.5,32.1,30.08,North,353,0.0,0.0,69,0.00,,,0.00,VWS V14.01,2013-03-12 12:39:00,
2013-03-12 07:40:00,41.5,32.1,30.08,North,353,0.0,0.0,69,0.00,,,0.00,VWS V14.01,2013-03-12 12:40:00,
2013-03-12 07:41:00,41.5,32.1,30.08,North,353,0.0,0.0,69,0.00,,,0.00,VWS V14.01,2013-03-12 12:41:00,
2013-03-12 07:42:00,41.5,32.1,30.08,North,353,0.0,0.0,69,0.00,,,0.00,VWS V14.01,2013-03-12 12:42:00,
2013-03-12 07:43:00,41.5,32.1,30.08,North,353,0.0,0.0,69,0.00,,,0.00,VWS V14.01,2013-03-12 12:43:00,
2013-03-12 07:44:00,41.5,32.1,30.08,North,353,0.0,0.0,69,0.00,,,0.00,VWS V14.01,2013-03-12 12:44:00,
2013-03-12 07:45:00,41.5,32.1,30.08,North,353,0.0,0.0,69,0.00,,,0.00,VWS V14.01,2013-03-12 12:45:00,
2013-03-12 07:46:00,41.5,32.1,30.08,North,353,0.0,0.0,69,0.00,,,0.00,VWS V14.01,2013-03-12 12:46:00,
2013-03-12 07:47:00,41.5,32.1,30.08,North,353,0.0,0.0,69,0.00,,,0.00,VWS V14.01,2013-03-12 12:47:00,
2013-03-12 07:48:00,41.5,32.1,30.08,North,353,0.0,0.0,69,0.00,,,0.00,VWS V14.01,2013-03-12 12:48:00,
2013-03-12 07:49:00,41.5,32.1,30.08,North,353,0.0,0.0,69,0.00,,,0.00,VWS V14.01,2013-03-12 12:49:00,
2013-03-12 07:50:00,41.5,32.1,30.08,North,353,0.0,0.0,69,0.00,,,0.00,VWS V14.01,2013-03-12 12:50:00,
2013-03-12 07:51:00,41.5,32.1,30.08,North,353,0.0,0.0,69,0.00,,,0.00,VWS V14.01,2013-03-12 12:51:00,
2013-03-12 07:52:00,41.5,32.1,30.08,NNW,343,0.0,0.0,69,0.00,,,0.00,VWS V14.01,2013-03-12 12:52:00,
2013-03-12 07:53:00,41.5,32.1,30.08,NNW,343,0.0,0.0,69,0.00,,,0.00,VWS V14.01,2013-03-12 12:53:00,
2013-03-12 07:54:00,41.5,32.1,30.08,North,353,0.0,0.0,69,0.00,,,0.00,VWS V14.01,2013-03-12 12:54:00,
2013-03-12 07:55:00,41.5,32.1,30.08,North,353,3.1,3.1,69,0.00,,,0.00,VWS V14.01,2013-03-12 12:55:00,
2013-03-12 07:56:00,41.5,32.1,30.08,North,350,0.0,4.9,69,0.00,,,0.00,VWS V14.01,2013-03-12 12:56:00,
2013-03-12 07:57:00,41.5,32.1,30.08,North,349,0.0,0.0,69,0.00,,,0.00,VWS V14.01,2013-03-12 12:57:00,
2013-03-12 07:58:00,41.7,32.3,30.08,North,349,0.0,0.0,69,0.00,,,0.00,VWS V14.01,2013-03-12 12:58:00,
2013-03-12 07:59:00,41.7,32.3,30.08,NNW,328,0.0,0.0,69,0.00,,,0.00,VWS V14.01,2013-03-12 12:59:00,
2013-03-12 08:00:00,41.7,32.3,30.08,NNW,328,0.0,0.0,69,0.00,,,0.00,VWS V14.01,2013-03-12 13:00:00,
2013-03-12 08:01:00,41.7,32.3,30.08,NNW,328,0.0,0.0,69,0.00,,,0.00,VWS V14.01,2013-03-12 13:01:00,
2013-03-12 08:02:00,41.7,32.3,30.08,NNW,340,0.0,0.0,69,0.00,,,0.00,VWS V14.01,2013-03-12 13:02:00,
2013-03-12 08:03:00,41.7,32.3,30.08,NNW,346,3.6,3.6,69,0.00,,,0.00,VWS V14.01,2013-03-12 13:03:00,
2013-03-12 08:04:00,41.9,32.5,30.08,North,10,0.0,3.1,69,0.00,,,0.00,VWS V14.01,2013-03-12 13:04:00,
2013-03-12 08:05:00,41.9,32.5,30.08,North,10,0.0,3.1,69,0.00,,,0.00,VWS V14.01,2013-03-12 13:05:00,
2013-03-12 08:06:00,41.9,32.5,30.08,NNW,333,0.0,3.6,69,0.00,,,0.00,VWS V14.01,2013-03-12 13:06:00,
2013-03-12 08:07:00,41.9,32.5,30.08,NNW,338,0.0,0.0,69,0.00,,,0.00,VWS V14.01,2013-03-12 13:07:00,
2013-03-12 08:08:00,42.1,32.7,30.08,NNW,330,0.0,0.0,69,0.00,,,0.00,VWS V14.01,2013-03-12 13:08:00,
2013-03-12 08:09:00,42.1,32.7,30.08,NW,317,0.0,3.6,69,0.00,,,0.00,VWS V14.01,2013-03-12 13:09:00,
2013-03-12 08:10:00,42.1,32.7,30.08,NW,319,0.0,3.6,69,0.00,,,0.00,VWS V14.01,2013-03-12 13:10:00,
2013-03-12 08:11:00,42.1,32.7,30.08,North,0,0.0,0.0,69,0.00,,,0.00,VWS V14.01,2013-03-12 13:11:00,
2013-03-12 08:12:00,42.1,32.7,30.08,NNW,345,3.6,3.6,69,0.00,,,0.00,VWS V14.01,2013-03-12 13:12:00,
2013-03-12 08:13:00,42.3,32.8,30.08,NNW,342,5.8,5.8,69,0.00,,,0.00,VWS V14.01,2013-03-12 13:13:00,
2013-03-12 08:14:00,42.3,32.8,30.08,North,5,0.0,0.0,69,0.00,,,0.00,VWS V14.01,2013-03-12 13:14:00,
2013-03-12 08:15:00,42.3,32.8,30.08,NW,322,0.0,0.0,69,0.00,,,0.00,VWS V14.01,2013-03-12 13:15:00,
2013-03-12 08:16:00,42.3,32.8,30.08,North,353,6.3,6.3,69,0.00,,,0.00,VWS V14.01,2013-03-12 13:16:00,
2013-03-12 08:17:00,42.4,33.0,30.11,NW,304,5.4,6.3,69,0.00,,,0.00,VWS V14.01,2013-03-12 13:17:00,
2013-03-12 08:18:00,42.4,33.0,30.11,NW,323,0.0,5.4,69,0.00,,,0.00,VWS V14.01,2013-03-12 13:18:00,
2013-03-12 08:19:00,42.4,33.0,30.11,NW,320,3.1,3.1,69,0.00,,,0.00,VWS V14.01,2013-03-12 13:19:00,
2013-03-12 08:20:00,42.4,33.0,30.11,NW,320,3.1,3.1,69,0.00,,,0.00,VWS V14.01,2013-03-12 13:20:00,
2013-03-12 08:21:00,42.6,33.2,30.11,North,8,4.9,4.9,69,0.00,,,0.00,VWS V14.01,2013-03-12 13:21:00,
2013-03-12 08:22:00,42.8,33.0,30.11,NW,306,4.0,6.3,68,0.00,,,0.00,VWS V14.01,2013-03-12 13:22:00,
2013-03-12 08:23:00,42.8,33.0,30.11,NW,321,3.1,4.0,68,0.00,,,0.00,VWS V14.01,2013-03-12 13:23:00,
2013-03-12 08:24:00,42.8,33.0,30.11,NW,325,4.0,5.8,68,0.00,,,0.00,VWS V14.01,2013-03-12 13:24:00,
2013-03-12 08:25:00,42.8,33.0,30.11,NW,308,5.4,5.8,68,0.00,,,0.00,VWS V14.01,2013-03-12 13:25:00,
2013-03-12 08:26:00,43.0,33.2,30.11,NNE,14,6.3,6.3,68,0.00,,,0.00,VWS V14.01,2013-03-12 13:26:00,
2013-03-12 08:27:00,43.0,33.2,30.11,NNW,331,3.6,6.3,68,0.00,,,0.00,VWS V14.01,2013-03-12 13:27:00,
2013-03-12 08:28:00,43.0,33.2,30.11,North,357,7.6,7.6,68,0.00,,,0.00,VWS V14.01,2013-03-12 13:28:00,
2013-03-12 08:29:00,43.0,33.2,30.11,NNW,346,6.3,6.3,68,0.00,,,0.00,VWS V14.01,2013-03-12 13:29:00,
2013-03-12 08:30:00,43.0,33.2,30.11,NNW,346,6.3,6.3,68,0.00,,,0.00,VWS V14.01,2013-03-12 13:30:00,
2013-03-12 08:31:00,43.2,33.0,30.11,North,357,4.5,6.3,67,0.00,,,0.00,VWS V14.01,2013-03-12 13:31:00,
2013-03-12 08:32:00,43.2,33.0,30.11,NE,49,4.0,8.1,67,0.00,,,0.00,VWS V14.01,2013-03-12 13:32:00,
2013-03-12 08:33:00,43.2,33.0,30.11,NNW,334,4.0,6.3,67,0.00,,,0.00,VWS V14.01,2013-03-12 13:33:00,
2013-03-12 08:34:00,43.3,33.1,30.11,NNW,337,5.4,6.3,67,0.00,,,0.00,VWS V14.01,2013-03-12 13:34:00,
2013-03-12 08:35:00,43.3,33.1,30.11,NNW,337,5.4,6.3,67,0.00,,,0.00,VWS V14.01,2013-03-12 13:35:00,
2013-03-12 08:36:00,43.3,33.1,30.11,NNW,343,5.8,6.3,67,0.00,,,0.00,VWS V14.01,2013-03-12 13:36:00,
2013-03-12 08:37:00,43.5,33.3,30.11,North,7,2.7,5.8,67,0.00,,,0.00,VWS V14.01,2013-03-12 13:37:00,
2013-03-12 08:38:00,43.5,33.3,30.11,WNW,290,4.0,5.8,67,0.00,,,0.00,VWS V14.01,2013-03-12 13:38:00,
2013-03-12 08:39:00,43.7,33.5,30.11,North,357,5.8,6.3,67,0.00,,,0.00,VWS V14.01,2013-03-12 13:39:00,
2013-03-12 08:40:00,43.7,33.5,30.11,NNW,332,3.1,6.3,67,0.00,,,0.00,VWS V14.01,2013-03-12 13:40:00,
2013-03-12 08:41:00,43.7,33.5,30.11,NNW,335,0.0,5.8,67,0.00,,,0.00,VWS V14.01,2013-03-12 13:41:00,
2013-03-12 08:42:00,43.7,33.5,30.11,NNW,341,0.0,0.0,67,0.00,,,0.00,VWS V14.01,2013-03-12 13:42:00,
2013-03-12 08:43:00,43.7,33.5,30.11,NNE,29,4.9,4.9,67,0.00,,,0.00,VWS V14.01,2013-03-12 13:43:00,
2013-03-12 08:44:00,43.7,33.5,30.11,WNW,298,3.6,7.6,67,0.00,,,0.00,VWS V14.01,2013-03-12 13:44:00,
2013-03-12 08:45:00,43.7,33.5,30.11,WNW,298,3.6,7.6,67,0.00,,,0.00,VWS V14.01,2013-03-12 13:45:00,
2013-03-12 08:46:00,43.7,33.5,30.11,ENE,65,5.8,5.8,67,0.00,,,0.00,VWS V14.01,2013-03-12 13:46:00,
2013-03-12 08:47:00,43.7,33.5,30.11,NNW,342,0.0,5.8,67,0.00,,,0.00,VWS V14.01,2013-03-12 13:47:00,
2013-03-12 08:48:00,43.9,33.7,30.11,NNW,340,5.4,5.8,67,0.00,,,0.00,VWS V14.01,2013-03-12 13:48:00,
2013-03-12 08:49:00,44.1,33.8,30.11,North,357,3.6,4.9,67,0.00,,,0.00,VWS V14.01,2013-03-12 13:49:00,
2013-03-12 08:50:00,44.1,33.8,30.11,NE,48,4.0,4.9,67,0.00,,,0.00,VWS V14.01,2013-03-12 13:50:00,
2013-03-12 08:51:00,44.1,33.8,30.11,North,0,4.0,4.0,67,0.00,,,0.00,VWS V14.01,2013-03-12 13:51:00,
2013-03-12 08:52:00,44.1,33.8,30.11,WNW,302,3.6,4.0,67,0.00,,,0.00,VWS V14.01,2013-03-12 13:52:00,
2013-03-12 08:53:00,44.1,33.8,30.11,NNW,344,3.6,4.0,67,0.00,,,0.00,VWS V14.01,2013-03-12 13:53:00,
2013-03-12 08:54:00,44.2,33.6,30.11,North,10,8.3,8.3,66,0.00,,,0.00,VWS V14.01,2013-03-12 13:54:00,
2013-03-12 08:55:00,44.2,33.6,30.11,North,10,8.3,8.3,66,0.00,,,0.00,VWS V14.01,2013-03-12 13:55:00,
2013-03-12 08:56:00,44.2,33.6,30.11,ENE,75,3.1,8.3,66,0.00,,,0.00,VWS V14.01,2013-03-12 13:56:00,
2013-03-12 08:57:00,44.2,33.6,30.11,North,3,3.1,3.6,66,0.00,,,0.00,VWS V14.01,2013-03-12 13:57:00,
2013-03-12 08:58:00,44.4,33.4,30.11,NW,325,4.0,4.9,65,0.00,,,0.00,VWS V14.01,2013-03-12 13:58:00,
2013-03-12 08:59:00,44.4,33.0,30.11,NNW,345,5.8,8.1,64,0.00,,,0.00,VWS V14.01,2013-03-12 13:59:00,
2013-03-12 09:00:00,44.4,33.0,30.11,NNW,328,2.7,6.3,64,0.00,,,0.00,VWS V14.01,2013-03-12 14:00:00,
2013-03-12 09:01:00,44.6,32.8,30.11,NNW,343,0.0,3.1,63,0.00,,,0.00,VWS V14.01,2013-03-12 14:01:00,
2013-03-12 09:02:00,44.6,32.8,30.11,NW,317,4.0,4.0,63,0.00,,,0.00,VWS V14.01,2013-03-12 14:02:00,
2013-03-12 09:03:00,44.6,32.8,30.11,NNW,343,4.0,4.0,63,0.00,,,0.00,VWS V14.01,2013-03-12 14:03:00,
2013-03-12 09:04:00,44.6,32.8,30.11,NNW,329,2.7,4.0,63,0.00,,,0.00,VWS V14.01,2013-03-12 14:04:00,
2013-03-12 09:05:00,44.8,33.0,30.11,NNE,19,4.9,5.8,63,0.00,,,0.00,VWS V14.01,2013-03-12 14:05:00,
2013-03-12 09:06:00,44.8,32.6,30.11,NW,322,3.6,4.9,62,0.00,,,0.00,VWS V14.01,2013-03-12 14:06:00,
2013-03-12 09:07:00,44.8,32.6,30.11,NNE,30,3.1,5.4,62,0.00,,,0.00,VWS V14.01,2013-03-12 14:07:00,
2013-03-12 09:08:00,45.0,32.7,30.11,North,0,3.6,5.4,62,0.00,,,0.00,VWS V14.01,2013-03-12 14:08:00,
2013-03-12 09:09:00,45.1,32.9,30.11,NE,51,3.6,5.4,62,0.00,,,0.00,VWS V14.01,2013-03-12 14:09:00,
2013-03-12 09:10:00,45.1,32.9,30.11,NNW,345,5.4,6.3,62,0.00,,,0.00,VWS V14.01,2013-03-12 14:10:00,
2013-03-12 09:11:00,45.3,33.1,30.11,NNW,338,5.8,6.3,62,0.00,,,0.00,VWS V14.01,2013-03-12 14:11:00,
2013-03-12 09:12:00,45.3,33.1,30.11,NNE,15,5.4,6.3,62,0.00,,,0.00,VWS V14.01,2013-03-12 14:12:00,
2013-03-12 09:13:00,45.3,32.7,30.11,North,349,0.0,8.1,61,0.00,,,0.00,VWS V14.01,2013-03-12 14:13:00,
2013-03-12 09:14:00,45.5,32.8,30.11,NNW,334,7.6,7.6,61,0.00,,,0.00,VWS V14.01,2013-03-12 14:14:00,
2013-03-12 09:15:00,45.5,32.8,30.11,North,1,3.6,7.6,61,0.00,,,0.00,VWS V14.01,2013-03-12 14:15:00,
2013-03-12 09:16:00,45.5,32.8,30.11,NNW,329,4.9,5.8,61,0.00,,,0.00,VWS V14.01,2013-03-12 14:16:00,
2013-03-12 09:17:00,45.7,33.0,30.11,NE,40,5.4,5.4,61,0.00,,,0.00,VWS V14.01,2013-03-12 14:17:00,
2013-03-12 09:18:00,45.9,32.8,30.11,NE,36,4.0,5.8,60,0.00,,,0.00,VWS V14.01,2013-03-12 14:18:00,
2013-03-12 09:19:00,45.9,32.8,30.11,North,353,0.0,4.0,60,0.00,,,0.00,VWS V14.01,2013-03-12 14:19:00,
2013-03-12 09:20:00,46.0,33.0,30.11,NE,56,3.6,3.6,60,0.00,,,0.00,VWS V14.01,2013-03-12 14:20:00,
2013-03-12 09:21:00,46.0,33.0,30.11,NNW,327,5.8,5.8,60,0.00,,,0.00,VWS V14.01,2013-03-12 14:21:00,
2013-03-12 09:22:00,46.2,32.7,30.11,NNE,12,7.6,7.6,59,0.00,,,0.00,VWS V14.01,2013-03-12 14:22:00,
2013-03-12 09:23:00,46.2,32.7,30.11,North,11,5.8,8.1,59,0.00,,,0.00,VWS V14.01,2013-03-12 14:23:00,
2013-03-12 09:24:00,46.2,32.3,30.11,NNW,331,3.6,8.3,58,0.00,,,0.00,VWS V14.01,2013-03-12 14:24:00,
2013-03-12 09:25:00,46.4,32.4,30.11,East,94,7.2,7.2,58,0.00,,,0.00,VWS V14.01,2013-03-12 14:25:00,
2013-03-12 09:26:00,46.4,32.4,30.11,North,357,3.6,7.2,58,0.00,,,0.00,VWS V14.01,2013-03-12 14:26:00,
2013-03-12 09:27:00,46.6,32.6,30.11,North,0,6.3,7.6,58,0.00,,,0.00,VWS V14.01,2013-03-12 14:27:00,
2013-03-12 09:28:00,46.6,32.6,30.11,ENE,70,6.3,6.3,58,0.00,,,0.00,VWS V14.01,2013-03-12 14:28:00,
2013-03-12 09:29:00,46.8,32.8,30.11,NNE,28,5.4,8.1,58,0.00,,,0.00,VWS V14.01,2013-03-12 14:29:00,
2013-03-12 09:30:00,46.8,32.8,30.11,NW,325,2.7,5.4,58,0.00,,,0.00,VWS V14.01,2013-03-12 14:30:00,
2013-03-12 09:31:00,46.9,33.0,30.11,North,5,6.7,6.7,58,0.00,,,0.00,VWS V14.01,2013-03-12 14:31:00,
2013-03-12 09:32:00,46.9,33.0,30.11,NNW,339,2.7,6.7,58,0.00,,,0.00,VWS V14.01,2013-03-12 14:32:00,
2013-03-12 09:33:00,47.1,33.1,30.11,North,1,2.2,4.9,58,0.00,,,0.00,VWS V14.01,2013-03-12 14:33:00,
2013-03-12 09:34:00,47.3,33.3,30.11,NNW,335,5.4,6.7,58,0.00,,,0.00,VWS V14.01,2013-03-12 14:34:00,
2013-03-12 09:35:00,47.3,33.3,30.11,NNE,16,4.9,5.4,58,0.00,,,0.00,VWS V14.01,2013-03-12 14:35:00,
2013-03-12 09:36:00,47.3,33.3,30.11,NNW,336,3.6,4.9,58,0.00,,,0.00,VWS V14.01,2013-03-12 14:36:00,
2013-03-12 09:37:00,47.3,33.3,30.11,NE,50,0.0,3.6,58,0.00,,,0.00,VWS V14.01,2013-03-12 14:37:00,
2013-03-12 09:38:00,47.5,33.5,30.11,NW,318,0.0,0.0,58,0.00,,,0.00,VWS V14.01,2013-03-12 14:38:00,
2013-03-12 09:39:00,47.7,33.6,30.11,NNE,32,6.3,6.3,58,0.00,,,0.00,VWS V14.01,2013-03-12 14:39:00,
2013-03-12 09:40:00,47.7,33.6,30.11,North,357,4.0,4.0,58,0.00,,,0.00,VWS V14.01,2013-03-12 14:40:00,
2013-03-12 09:41:00,47.7,33.6,30.11,NNW,337,5.4,8.7,58,0.00,,,0.00,VWS V14.01,2013-03-12 14:41:00,
2013-03-12 09:42:00,47.8,33.4,30.11,NE,48,5.8,5.8,57,0.00,,,0.00,VWS V14.01,2013-03-12 14:42:00,
2013-03-12 09:43:00,47.8,33.4,30.11,North,9,6.3,6.3,57,0.00,,,0.00,VWS V14.01,2013-03-12 14:43:00,
2013-03-12 09:44:00,48.0,33.5,30.11,North,353,5.8,6.3,57,0.00,,,0.00,VWS V14.01,2013-03-12 14:44:00,
2013-03-12 09:45:00,48.0,33.5,30.11,ESE,104,5.4,5.8,57,0.00,,,0.00,VWS V14.01,2013-03-12 14:45:00,
2013-03-12 09:46:00,48.2,33.3,30.11,North,0,7.6,7.6,56,0.00,,,0.00,VWS V14.01,2013-03-12 14:46:00,
2013-03-12 09:47:00,48.2,33.3,30.11,North,7,5.4,10.5,56,0.00,,,0.00,VWS V14.01,2013-03-12 14:47:00,
2013-03-12 09:48:00,48.2,33.3,30.11,NNE,21,7.6,7.6,56,0.00,,,0.00,VWS V14.01,2013-03-12 14:48:00,
2013-03-12 09:49:00,48.2,32.8,30.11,ENE,65,8.3,8.7,55,0.00,,,0.00,VWS V14.01,2013-03-12 14:49:00,
2013-03-12 09:50:00,48.4,32.0,30.11,North,10,7.6,7.6,53,0.00,,,0.00,VWS V14.01,2013-03-12 14:50:00,
2013-03-12 09:51:00,48.4,32.0,30.11,NNW,342,4.0,8.1,53,0.00,,,0.00,VWS V14.01,2013-03-12 14:51:00,
2013-03-12 09:52:00,48.4,32.0,30.11,NNE,30,6.3,7.6,53,0.00,,,0.00,VWS V14.01,2013-03-12 14:52:00,
2013-03-12 09:53:00,48.4,32.0,30.11,NNE,23,7.6,8.1,53,0.00,,,0.00,VWS V14.01,2013-03-12 14:53:00,
2013-03-12 09:54:00,48.4,32.0,30.11,NE,40,5.4,9.2,53,0.00,,,0.00,VWS V14.01,2013-03-12 14:54:00,
2013-03-12 09:55:00,48.6,32.2,30.11,NE,34,5.4,8.3,53,0.00,,,0.00,VWS V14.01,2013-03-12 14:55:00,
2013-03-12 09:56:00,48.6,32.2,30.11,North,9,3.6,6.7,53,0.00,,,0.00,VWS V14.01,2013-03-12 14:56:00,
2013-03-12 09:57:00,48.7,33.3,30.11,NNW,330,5.8,5.8,55,0.00,,,0.00,VWS V14.01,2013-03-12 14:57:00,
2013-03-12 09:58:00,48.7,33.3,30.11,NNW,330,3.6,6.3,55,0.00,,,0.00,VWS V14.01,2013-03-12 14:58:00,
2013-03-12 09:59:00,48.9,32.6,30.11,NNW,342,8.1,8.3,53,0.00,,,0.00,VWS V14.01,2013-03-12 14:59:00,
2013-03-12 10:00:00,48.9,32.6,30.11,North,10,7.6,8.3,53,0.00,,,0.00,VWS V14.01,2013-03-12 15:00:00,
2013-03-12 10:01:00,48.9,32.6,30.11,NNW,338,6.3,7.6,53,0.00,,,0.00,VWS V14.01,2013-03-12 15:01:00,
2013-03-12 10:02:00,48.9,32.6,30.11,WNW,296,4.9,6.3,53,0.00,,,0.00,VWS V14.01,2013-03-12 15:02:00,
2013-03-12 10:03:00,49.1,32.7,30.11,NNW,340,5.4,7.6,53,0.00,,,0.00,VWS V14.01,2013-03-12 15:03:00,
2013-03-12 10:04:00,49.3,32.9,30.11,North,6,2.2,8.7,53,0.00,,,0.00,VWS V14.01,2013-03-12 15:04:00,
2013-03-12 10:05:00,49.3,32.9,30.11,NNE,30,0.0,8.7,53,0.00,,,0.00,VWS V14.01,2013-03-12 15:05:00,
2013-03-12 10:06:00,49.3,32.9,30.11,NE,41,4.0,4.0,53,0.00,,,0.00,VWS V14.01,2013-03-12 15:06:00,
2013-03-12 10:07:00,49.5,33.1,30.11,NNE,27,3.1,5.8,53,0.00,,,0.00,VWS V14.01,2013-03-12 15:07:00,
2013-03-12 10:08:00,49.5,33.1,30.11,NNW,344,8.1,8.1,53,0.00,,,0.00,VWS V14.01,2013-03-12 15:08:00,
2013-03-12 10:09:00,49.6,33.2,30.11,NNW,339,5.4,5.4,53,0.00,,,0.00,VWS V14.01,2013-03-12 15:09:00,
2013-03-12 10:10:00,49.6,33.2,30.11,North,2,4.0,5.4,53,0.00,,,0.00,VWS V14.01,2013-03-12 15:10:00,
2013-03-12 10:11:00,49.6,33.2,30.11,NNE,29,4.0,5.4,53,0.00,,,0.00,VWS V14.01,2013-03-12 15:11:00,
2013-03-12 10:12:00,49.6,33.2,30.11,NNE,25,5.8,8.3,53,0.00,,,0.00,VWS V14.01,2013-03-12 15:12:00,
2013-03-12 10:13:00,49.6,33.2,30.11,North,10,3.6,8.7,53,0.00,,,0.00,VWS V14.01,2013-03-12 15:13:00,
2013-03-12 10:14:00,49.6,33.2,30.11,North,353,5.4,7.6,53,0.00,,,0.00,VWS V14.01,2013-03-12 15:14:00,
2013-03-12 10:15:00,49.6,33.2,30.11,North,353,5.4,7.6,53,0.00,,,0.00,VWS V14.01,2013-03-12 15:15:00,
2013-03-12 10:16:00,49.8,31.9,30.11,North,353,7.6,7.6,50,0.00,,,0.00,VWS V14.01,2013-03-12 15:16:00,
2013-03-12 10:17:00,49.8,33.4,30.11,NNE,21,2.7,7.6,53,0.00,,,0.00,VWS V14.01,2013-03-12 15:17:00,
2013-03-12 10:18:00,50.0,33.6,30.11,NW,312,3.6,7.6,53,0.00,,,0.00,VWS V14.01,2013-03-12 15:18:00,
2013-03-12 10:19:00,50.0,33.6,30.11,NNE,25,5.4,5.4,53,0.00,,,0.00,VWS V14.01,2013-03-12 15:19:00,
2013-03-12 10:20:00,50.0,33.6,30.11,NNE,25,5.4,5.4,53,0.00,,,0.00,VWS V14.01,2013-03-12 15:20:00,
2013-03-12 10:21:00,50.2,33.7,30.11,NE,48,6.3,6.3,53,0.00,,,0.00,VWS V14.01,2013-03-12 15:21:00,
2013-03-12 10:22:00,50.2,33.7,30.11,North,0,7.6,7.6,53,0.00,,,0.00,VWS V14.01,2013-03-12 15:22:00,
2013-03-12 10:23:00,50.2,32.3,30.11,NNW,333,8.1,8.1,50,0.00,,,0.00,VWS V14.01,2013-03-12 15:23:00,
2013-03-12 10:24:00,50.4,33.9,30.11,North,353,3.6,4.0,53,0.00,,,0.00,VWS V14.01,2013-03-12 15:24:00,
2013-03-12 10:25:00,50.4,33.9,30.11,North,353,3.6,4.0,53,0.00,,,0.00,VWS V14.01,2013-03-12 15:25:00,
2013-03-12 10:26:00,50.4,33.9,30.11,NNE,24,3.6,3.6,53,0.00,,,0.00,VWS V14.01,2013-03-12 15:26:00,
2013-03-12 10:27:00,50.5,34.1,30.11,NNE,26,0.0,4.5,53,0.00,,,0.00,VWS V14.01,2013-03-12 15:27:00,
2013-03-12 10:28:00,50.5,34.1,30.11,NNW,343,3.6,5.8,53,0.00,,,0.00,VWS V14.01,2013-03-12 15:28:00,
2013-03-12 10:29:00,50.5,34.1,30.11,NW,316,2.7,10.5,53,0.00,,,0.00,VWS V14.01,2013-03-12 15:29:00,
2013-03-12 10:30:00,50.5,34.1,30.11,NW,316,2.7,10.5,53,0.00,,,0.00,VWS V14.01,2013-03-12 15:30:00,
2013-03-12 10:31:00,50.7,32.8,30.11,North,353,6.3,6.3,50,0.00,,,0.00,VWS V14.01,2013-03-12 15:31:00,
2013-03-12 10:32:00,50.5,32.6,30.11,NW,321,5.8,6.3,50,0.00,,,0.00,VWS V14.01,2013-03-12 15:32:00,
2013-03-12 10:33:00,50.5,32.6,30.11,North,357,3.6,8.3,50,0.00,,,0.00,VWS V14.01,2013-03-12 15:33:00,
2013-03-12 10:34:00,50.7,32.8,30.11,West,279,5.4,5.4,50,0.00,,,0.00,VWS V14.01,2013-03-12 15:34:00,
2013-03-12 10:35:00,50.7,32.8,30.11,WNW,298,8.1,8.1,50,0.00,,,0.00,VWS V14.01,2013-03-12 15:35:00,
2013-03-12 10:36:00,50.7,32.8,30.11,NNW,344,5.8,8.1,50,0.00,,,0.00,VWS V14.01,2013-03-12 15:36:00,
2013-03-12 10:37:00,50.5,32.6,30.11,NNW,338,7.6,9.2,50,0.00,,,0.00,VWS V14.01,2013-03-12 15:37:00,
2013-03-12 10:38:00,50.7,32.8,30.11,North,353,5.4,11.0,50,0.00,,,0.00,VWS V14.01,2013-03-12 15:38:00,
2013-03-12 10:39:00,50.7,32.8,30.11,NNE,12,8.7,8.7,50,0.00,,,0.00,VWS V14.01,2013-03-12 15:39:00,
2013-03-12 10:40:00,50.7,32.8,30.11,North,8,8.1,8.7,50,0.00,,,0.00,VWS V14.01,2013-03-12 15:40:00,
2013-03-12 10:41:00,50.7,32.8,30.11,ENE,78,8.3,8.3,50,0.00,,,0.00,VWS V14.01,2013-03-12 15:41:00,
2013-03-12 10:42:00,50.7,32.8,30.11,NNW,330,6.3,8.3,50,0.00,,,0.00,VWS V14.01,2013-03-12 15:42:00,
2013-03-12 10:43:00,50.7,32.8,30.11,WNW,290,8.3,8.3,50,0.00,,,0.00,VWS V14.01,2013-03-12 15:43:00,
2013-03-12 10:44:00,50.7,32.8,30.11,North,357,8.1,9.6,50,0.00,,,0.00,VWS V14.01,2013-03-12 15:44:00,
2013-03-12 10:45:00,50.7,32.8,30.11,NW,307,7.6,9.2,50,0.00,,,0.00,VWS V14.01,2013-03-12 15:45:00,
2013-03-12 10:46:00,50.9,32.9,30.14,NNW,327,5.4,9.6,50,0.00,,,0.00,VWS V14.01,2013-03-12 15:46:00,
2013-03-12 10:47:00,50.9,32.9,30.14,NNW,348,9.6,9.6,50,0.00,,,0.00,VWS V14.01,2013-03-12 15:47:00,
2013-03-12 10:48:00,50.9,32.9,30.14,North,353,6.3,9.6,50,0.00,,,0.00,VWS V14.01,2013-03-12 15:48:00,
2013-03-12 10:49:00,50.9,32.9,30.14,North,353,5.4,5.8,50,0.00,,,0.00,VWS V14.01,2013-03-12 15:49:00,
2013-03-12 10:50:00,50.9,32.9,30.14,North,353,5.4,5.8,50,0.00,,,0.00,VWS V14.01,2013-03-12 15:50:00,
2013-03-12 10:51:00,51.1,33.1,30.14,NNE,21,8.7,8.7,50,0.00,,,0.00,VWS V14.01,2013-03-12 15:51:00,
2013-03-12 10:52:00,50.9,32.9,30.14,NNE,16,5.8,8.7,50,0.00,,,0.00,VWS V14.01,2013-03-12 15:52:00,
2013-03-12 10:53:00,51.1,33.1,30.14,NNE,32,8.1,8.1,50,0.00,,,0.00,VWS V14.01,2013-03-12 15:53:00,
2013-03-12 10:54:00,51.3,33.3,30.14,North,357,4.0,4.9,50,0.00,,,0.00,VWS V14.01,2013-03-12 15:54:00,
2013-03-12 10:55:00,51.3,33.3,30.14,North,357,4.0,4.9,50,0.00,,,0.00,VWS V14.01,2013-03-12 15:55:00,
2013-03-12 10:56:00,51.3,33.3,30.14,North,6,5.8,5.8,50,0.00,,,0.00,VWS V14.01,2013-03-12 15:56:00,
2013-03-12 10:57:00,51.4,33.4,30.14,NNE,22,7.6,8.1,50,0.00,,,0.00,VWS V14.01,2013-03-12 15:57:00,
2013-03-12 10:58:00,51.4,33.4,30.14,NNE,21,3.1,7.6,50,0.00,,,0.00,VWS V14.01,2013-03-12 15:58:00,
2013-03-12 10:59:00,51.4,33.4,30.14,North,357,5.8,6.3,50,0.00,,,0.00,VWS V14.01,2013-03-12 15:59:00,
2013-03-12 11:00:00,51.4,33.4,30.14,North,357,5.4,7.6,50,0.00,,,0.00,VWS V14.01,2013-03-12 16:00:00,
2013-03-12 11:01:00,51.4,33.4,30.14,NNW,329,7.6,7.6,50,0.00,,,0.00,VWS V14.01,2013-03-12 16:01:00,
2013-03-12 11:02:00,51.6,33.6,30.14,North,9,5.4,7.6,50,0.00,,,0.00,VWS V14.01,2013-03-12 16:02:00,
2013-03-12 11:03:00,51.6,33.6,30.14,North,350,6.3,9.2,50,0.00,,,0.00,VWS V14.01,2013-03-12 16:03:00,
2013-03-12 11:04:00,51.6,33.6,30.14,WNW,296,3.1,8.1,50,0.00,,,0.00,VWS V14.01,2013-03-12 16:04:00,
2013-03-12 11:05:00,51.6,33.6,30.14,WNW,294,7.6,8.1,50,0.00,,,0.00,VWS V14.01,2013-03-12 16:05:00,
2013-03-12 11:06:00,51.6,33.6,30.14,North,357,4.0,11.0,50,0.00,,,0.00,VWS V14.01,2013-03-12 16:06:00,
2013-03-12 11:07:00,51.8,33.8,30.14,North,1,6.3,8.3,50,0.00,,,0.00,VWS V14.01,2013-03-12 16:07:00,
2013-03-12 11:08:00,51.8,33.8,30.14,NNW,343,2.7,6.3,50,0.00,,,0.00,VWS V14.01,2013-03-12 16:08:00,
2013-03-12 11:09:00,52.0,33.9,30.14,NNE,14,6.3,8.1,50,0.00,,,0.00,VWS V14.01,2013-03-12 16:09:00,
2013-03-12 11:10:00,52.0,33.9,30.14,NW,317,7.6,8.1,50,0.00,,,0.00,VWS V14.01,2013-03-12 16:10:00,
2013-03-12 11:11:00,52.2,34.1,30.14,NNW,334,8.3,8.3,50,0.00,,,0.00,VWS V14.01,2013-03-12 16:11:00,
2013-03-12 11:12:00,52.3,34.3,30.14,North,353,5.8,8.3,50,0.00,,,0.00,VWS V14.01,2013-03-12 16:12:00,
2013-03-12 11:13:00,52.3,34.3,30.14,North,6,3.6,5.8,50,0.00,,,0.00,VWS V14.01,2013-03-12 16:13:00,
2013-03-12 11:14:00,52.3,34.3,30.14,WNW,303,3.1,6.7,50,0.00,,,0.00,VWS V14.01,2013-03-12 16:14:00,
2013-03-12 11:15:00,52.5,34.4,30.14,NNW,342,5.4,5.4,50,0.00,,,0.00,VWS V14.01,2013-03-12 16:15:00,
2013-03-12 11:16:00,52.5,34.4,30.14,NNW,331,8.1,8.1,50,0.00,,,0.00,VWS V14.01,2013-03-12 16:16:00,
2013-03-12 11:17:00,52.5,34.4,30.14,NW,307,10.1,11.0,50,0.00,,,0.00,VWS V14.01,2013-03-12 16:17:00,
2013-03-12 11:18:00,52.5,34.4,30.14,NW,307,5.4,10.1,50,0.00,,,0.00,VWS V14.01,2013-03-12 16:18:00,
2013-03-12 11:19:00,52.5,34.4,30.14,NNW,330,5.8,6.3,50,0.00,,,0.00,VWS V14.01,2013-03-12 16:19:00,
2013-03-12 11:20:00,52.5,34.4,30.14,WNW,292,10.1,10.1,50,0.00,,,0.00,VWS V14.01,2013-03-12 16:20:00,
2013-03-12 11:21:00,52.7,34.6,30.14,WNW,285,7.6,10.1,50,0.00,,,0.00,VWS V14.01,2013-03-12 16:21:00,
2013-03-12 11:22:00,52.7,34.6,30.14,NW,310,6.3,7.6,50,0.00,,,0.00,VWS V14.01,2013-03-12 16:22:00,
2013-03-12 11:23:00,52.7,34.6,30.14,NW,311,5.4,6.3,50,0.00,,,0.00,VWS V14.01,2013-03-12 16:23:00,
2013-03-12 11:24:00,52.9,34.8,30.14,NNE,20,3.6,7.2,50,0.00,,,0.00,VWS V14.01,2013-03-12 16:24:00,
2013-03-12 11:25:00,52.9,34.8,30.14,NNE,16,4.0,6.3,50,0.00,,,0.00,VWS V14.01,2013-03-12 16:25:00,
2013-03-12 11:26:00,53.1,34.9,30.14,NNE,32,3.6,8.3,50,0.00,,,0.00,VWS V14.01,2013-03-12 16:26:00,
2013-03-12 11:27:00,53.1,34.9,30.14,North,353,3.1,4.9,50,0.00,,,0.00,VWS V14.01,2013-03-12 16:27:00,
2013-03-12 11:28:00,53.1,34.9,30.14,NNE,17,3.1,3.6,50,0.00,,,0.00,VWS V14.01,2013-03-12 16:28:00,
2013-03-12 11:29:00,53.1,34.9,30.14,North,357,4.0,5.8,50,0.00,,,0.00,VWS V14.01,2013-03-12 16:29:00,
2013-03-12 11:30:00,53.2,35.1,30.14,NW,309,4.0,4.0,50,0.00,,,0.00,VWS V14.01,2013-03-12 16:30:00,
2013-03-12 11:31:00,53.2,35.1,30.14,NNE,12,5.8,5.8,50,0.00,,,0.00,VWS V14.01,2013-03-12 16:31:00,
2013-03-12 11:32:00,53.4,35.3,30.14,North,357,9.2,9.2,50,0.00,,,0.00,VWS V14.01,2013-03-12 16:32:00,
2013-03-12 11:33:00,53.4,35.3,30.14,NNE,26,5.4,9.6,50,0.00,,,0.00,VWS V14.01,2013-03-12 16:33:00,
2013-03-12 11:34:00,53.4,35.3,30.14,NNE,16,5.4,8.7,50,0.00,,,0.00,VWS V14.01,2013-03-12 16:34:00,
2013-03-12 11:35:00,53.4,35.3,30.14,NNW,342,8.7,10.5,50,0.00,,,0.00,VWS V14.01,2013-03-12 16:35:00,
2013-03-12 11:36:00,53.4,35.3,30.14,North,7,10.1,10.1,50,0.00,,,0.00,VWS V14.01,2013-03-12 16:36:00,
2013-03-12 11:37:00,53.4,35.3,30.14,North,350,7.6,10.1,50,0.00,,,0.00,VWS V14.01,2013-03-12 16:37:00,
2013-03-12 11:38:00,53.4,35.3,30.14,North,6,6.3,7.6,50,0.00,,,0.00,VWS V14.01,2013-03-12 16:38:00,
2013-03-12 11:39:00,53.4,35.3,30.14,NNW,335,5.4,8.7,50,0.00,,,0.00,VWS V14.01,2013-03-12 16:39:00,
2013-03-12 11:40:00,53.4,35.3,30.14,NNE,22,5.8,8.7,50,0.00,,,0.00,VWS V14.01,2013-03-12 16:40:00,
2013-03-12 11:41:00,53.4,35.3,30.14,North,0,6.3,8.1,50,0.00,,,0.00,VWS V14.01,2013-03-12 16:41:00,
2013-03-12 11:42:00,53.4,35.3,30.14,NNW,344,5.8,8.7,50,0.00,,,0.00,VWS V14.01,2013-03-12 16:42:00,
2013-03-12 11:43:00,53.4,35.3,30.14,North,353,8.3,8.3,50,0.00,,,0.00,VWS V14.01,2013-03-12 16:43:00,
2013-03-12 11:44:00,53.4,35.3,30.14,WNW,300,5.8,8.1,50,0.00,,,0.00,VWS V14.01,2013-03-12 16:44:00,
2013-03-12 11:45:00,53.4,35.3,30.14,NW,307,5.8,8.1,50,0.00,,,0.00,VWS V14.01,2013-03-12 16:45:00,
2013-03-12 11:46:00,53.4,33.7,30.14,WNW,291,7.6,8.1,47,0.00,,,0.00,VWS V14.01,2013-03-12 16:46:00,
2013-03-12 11:47:00,53.6,33.9,30.14,NNW,331,8.7,8.7,47,0.00,,,0.00,VWS V14.01,2013-03-12 16:47:00,
2013-03-12 11:48:00,53.6,33.9,30.14,WNW,292,5.4,8.7,47,0.00,,,0.00,VWS V14.01,2013-03-12 16:48:00,
2013-03-12 11:49:00,54.0,35.2,30.14,NW,313,4.0,4.0,49,0.00,,,0.00,VWS V14.01,2013-03-12 16:49:00,
2013-03-12 11:50:00,53.8,35.1,30.14,NW,313,4.0,7.6,49,0.00,,,0.00,VWS V14.01,2013-03-12 16:50:00,
2013-03-12 11:51:00,54.0,35.2,30.14,North,0,2.7,5.8,49,0.00,,,0.00,VWS V14.01,2013-03-12 16:51:00,
2013-03-12 11:52:00,54.0,35.2,30.14,NNW,340,5.8,10.1,49,0.00,,,0.00,VWS V14.01,2013-03-12 16:52:00,
2013-03-12 11:53:00,54.1,35.4,30.14,NNW,338,4.9,8.1,49,0.00,,,0.00,VWS V14.01,2013-03-12 16:53:00,
2013-03-12 11:54:00,54.3,35.6,30.14,NNE,30,5.4,5.4,49,0.00,,,0.00,VWS V14.01,2013-03-12 16:54:00,
2013-03-12 11:55:00,54.3,35.6,30.14,NNE,30,5.4,5.4,49,0.00,,,0.00,VWS V14.01,2013-03-12 16:55:00,
2013-03-12 11:56:00,54.3,35.6,30.14,NNW,346,5.8,8.7,49,0.00,,,0.00,VWS V14.01,2013-03-12 16:56:00,
2013-03-12 11:57:00,54.3,34.5,30.14,NW,324,6.3,8.1,47,0.00,,,0.00,VWS V14.01,2013-03-12 16:57:00,
2013-03-12 11:58:00,54.3,34.5,30.14,North,353,8.1,8.3,47,0.00,,,0.00,VWS V14.01,2013-03-12 16:58:00,
2013-03-12 11:59:00,54.5,35.8,30.14,North,357,0.0,4.0,49,0.00,,,0.00,VWS V14.01,2013-03-12 16:59:00,
2013-03-12 12:00:00,54.5,35.8,30.14,North,11,4.9,4.9,49,0.00,,,0.00,VWS V14.01,2013-03-12 17:00:00,
2013-03-12 12:01:00,54.5,35.8,30.14,NW,322,3.1,9.2,49,0.00,,,0.00,VWS V14.01,2013-03-12 17:01:00,
2013-03-12 12:02:00,54.5,35.8,30.11,NNE,15,5.4,5.8,49,0.00,,,0.00,VWS V14.01,2013-03-12 17:02:00,
2013-03-12 12:03:00,54.7,35.9,30.11,NW,312,5.4,7.6,49,0.00,,,0.00,VWS V14.01,2013-03-12 17:03:00,
2013-03-12 12:04:00,54.9,36.1,30.11,NW,315,3.1,6.3,49,0.00,,,0.00,VWS V14.01,2013-03-12 17:04:00,
2013-03-12 12:05:00,54.9,36.1,30.11,NW,315,3.1,6.3,49,0.00,,,0.00,VWS V14.01,2013-03-12 17:05:00,
2013-03-12 12:06:00,55.0,36.2,30.11,North,0,3.6,5.4,49,0.00,,,0.00,VWS V14.01,2013-03-12 17:06:00,
2013-03-12 12:07:00,55.2,35.4,30.11,NW,315,6.3,8.7,47,0.00,,,0.00,VWS V14.01,2013-03-12 17:07:00,
2013-03-12 12:08:00,55.2,35.4,30.11,WNW,303,4.9,8.3,47,0.00,,,0.00,VWS V14.01,2013-03-12 17:08:00,
2013-03-12 12:09:00,55.2,35.4,30.11,WNW,285,8.3,8.7,47,0.00,,,0.00,VWS V14.01,2013-03-12 17:09:00,
2013-03-12 12:10:00,55.2,35.4,30.11,NW,320,8.3,8.7,47,0.00,,,0.00,VWS V14.01,2013-03-12 17:10:00,
2013-03-12 12:11:00,55.4,35.0,30.11,North,1,7.6,8.3,46,0.00,,,0.00,VWS V14.01,2013-03-12 17:11:00,
2013-03-12 12:12:00,55.8,35.3,30.11,North,7,5.4,7.6,46,0.00,,,0.00,VWS V14.01,2013-03-12 17:12:00,
2013-03-12 12:13:00,55.8,35.3,30.11,WNW,299,3.1,6.3,46,0.00,,,0.00,VWS V14.01,2013-03-12 17:13:00,
2013-03-12 12:14:00,55.9,35.5,30.11,NW,315,4.0,8.3,46,0.00,,,0.00,VWS V14.01,2013-03-12 17:14:00,
2013-03-12 12:15:00,55.9,35.5,30.11,NW,315,4.0,8.3,46,0.00,,,0.00,VWS V14.01,2013-03-12 17:15:00,
2013-03-12 12:16:00,56.1,35.6,30.11,NW,318,5.4,5.4,46,0.00,,,0.00,VWS V14.01,2013-03-12 17:16:00,
2013-03-12 12:17:00,56.1,35.6,30.11,NNE,24,4.9,5.8,46,0.00,,,0.00,VWS V14.01,2013-03-12 17:17:00,
2013-03-12 12:18:00,56.1,35.6,30.11,NW,305,3.6,6.3,46,0.00,,,0.00,VWS V14.01,2013-03-12 17:18:00,
2013-03-12 12:19:00,56.3,35.8,30.11,NW,326,3.6,3.6,46,0.00,,,0.00,VWS V14.01,2013-03-12 17:19:00,
2013-03-12 12:20:00,56.3,35.8,30.11,NNW,335,4.0,4.0,46,0.00,,,0.00,VWS V14.01,2013-03-12 17:20:00,
2013-03-12 12:21:00,56.3,35.8,30.11,NNW,331,6.3,7.2,46,0.00,,,0.00,VWS V14.01,2013-03-12 17:21:00,
2013-03-12 12:22:00,56.3,35.8,30.11,North,8,3.6,6.3,46,0.00,,,0.00,VWS V14.01,2013-03-12 17:22:00,
2013-03-12 12:23:00,56.3,35.8,30.11,North,357,4.0,6.3,46,0.00,,,0.00,VWS V14.01,2013-03-12 17:23:00,
2013-03-12 12:24:00,56.5,36.0,30.11,North,0,3.1,3.1,46,0.00,,,0.00,VWS V14.01,2013-03-12 17:24:00,
2013-03-12 12:25:00,56.5,36.0,30.11,WNW,299,4.0,4.0,46,0.00,,,0.00,VWS V14.01,2013-03-12 17:25:00,
2013-03-12 12:26:00,56.7,36.1,30.11,NNW,329,8.1,8.1,46,0.00,,,0.00,VWS V14.01,2013-03-12 17:26:00,
2013-03-12 12:27:00,56.7,36.1,30.11,WNW,298,8.3,8.3,46,0.00,,,0.00,VWS V14.01,2013-03-12 17:27:00,
2013-03-12 12:28:00,56.8,36.3,30.11,North,353,10.5,10.5,46,0.00,,,0.00,VWS V14.01,2013-03-12 17:28:00,
2013-03-12 12:29:00,56.8,36.3,30.11,NNW,341,5.4,8.3,46,0.00,,,0.00,VWS V14.01,2013-03-12 17:29:00,
2013-03-12 12:30:00,56.8,36.3,30.11,NNW,341,5.4,8.3,46,0.00,,,0.00,VWS V14.01,2013-03-12 17:30:00,
2013-03-12 12:31:00,56.8,36.3,30.11,NNE,17,5.4,5.8,46,0.00,,,0.00,VWS V14.01,2013-03-12 17:31:00,
2013-03-12 12:32:00,56.8,36.3,30.11,NW,314,2.7,8.1,46,0.00,,,0.00,VWS V14.01,2013-03-12 17:32:00,
2013-03-12 12:33:00,56.8,36.3,30.11,WNW,299,4.0,4.9,46,0.00,,,0.00,VWS V14.01,2013-03-12 17:33:00,
2013-03-12 12:34:00,57.0,36.5,30.11,NNE,16,7.6,7.6,46,0.00,,,0.00,VWS V14.01,2013-03-12 17:34:00,
2013-03-12 12:35:00,57.0,36.5,30.11,North,8,7.6,7.6,46,0.00,,,0.00,VWS V14.01,2013-03-12 17:35:00,
2013-03-12 12:36:00,57.0,36.5,30.11,NE,37,3.1,9.2,46,0.00,,,0.00,VWS V14.01,2013-03-12 17:36:00,
2013-03-12 12:37:00,57.2,36.6,30.11,North,353,5.8,9.2,46,0.00,,,0.00,VWS V14.01,2013-03-12 17:37:00,
2013-03-12 12:38:00,57.2,36.6,30.11,WNW,303,4.9,7.6,46,0.00,,,0.00,VWS V14.01,2013-03-12 17:38:00,
2013-03-12 12:39:00,57.2,36.6,30.11,North,357,5.8,8.7,46,0.00,,,0.00,VWS V14.01,2013-03-12 17:39:00,
2013-03-12 12:40:00,57.2,36.6,30.11,North,357,5.8,8.7,46,0.00,,,0.00,VWS V14.01,2013-03-12 17:40:00,
2013-03-12 12:41:00,57.2,36.6,30.11,NE,34,5.8,6.3,46,0.00,,,0.00,VWS V14.01,2013-03-12 17:41:00,
2013-03-12 12:42:00,57.2,36.6,30.11,North,10,7.6,7.6,46,0.00,,,0.00,VWS V14.01,2013-03-12 17:42:00,
2013-03-12 12:43:00,57.2,36.6,30.11,North,350,5.8,7.6,46,0.00,,,0.00,VWS V14.01,2013-03-12 17:43:00,
2013-03-12 12:44:00,57.4,36.8,30.11,NNW,334,4.9,5.8,46,0.00,,,0.00,VWS V14.01,2013-03-12 17:44:00,
2013-03-12 12:45:00,57.4,36.8,30.11,NNW,334,4.9,5.8,46,0.00,,,0.00,VWS V14.01,2013-03-12 17:45:00,
2013-03-12 12:46:00,57.4,36.8,30.11,WNW,298,5.4,5.4,46,0.00,,,0.00,VWS V14.01,2013-03-12 17:46:00,
2013-03-12 12:47:00,57.6,37.0,30.11,NNE,22,2.7,5.4,46,0.00,,,0.00,VWS V14.01,2013-03-12 17:47:00,
2013-03-12 12:48:00,57.4,36.8,30.11,NNE,16,4.0,4.0,46,0.00,,,0.00,VWS V14.01,2013-03-12 17:48:00,
2013-03-12 12:49:00,57.6,37.0,30.11,ENE,58,3.6,4.9,46,0.00,,,0.00,VWS V14.01,2013-03-12 17:49:00,
2013-03-12 12:50:00,57.6,37.0,30.11,North,10,4.0,4.9,46,0.00,,,0.00,VWS V14.01,2013-03-12 17:50:00,
2013-03-12 12:51:00,57.6,37.0,30.11,ESE,111,4.0,8.7,46,0.00,,,0.00,VWS V14.01,2013-03-12 17:51:00,
2013-03-12 12:52:00,57.7,37.1,30.11,ENE,58,6.3,8.3,46,0.00,,,0.00,VWS V14.01,2013-03-12 17:52:00,
2013-03-12 12:53:00,57.7,37.1,30.11,North,3,3.1,6.3,46,0.00,,,0.00,VWS V14.01,2013-03-12 17:53:00,
2013-03-12 12:54:00,57.7,37.1,30.11,NNE,17,4.0,8.3,46,0.00,,,0.00,VWS V14.01,2013-03-12 17:54:00,
2013-03-12 12:55:00,57.7,37.1,30.11,NNE,17,4.0,8.3,46,0.00,,,0.00,VWS V14.01,2013-03-12 17:55:00,
2013-03-12 12:56:00,57.9,37.3,30.11,NNE,14,4.9,5.8,46,0.00,,,0.00,VWS V14.01,2013-03-12 17:56:00,
2013-03-12 12:57:00,58.1,37.5,30.11,NNW,343,3.1,5.8,46,0.00,,,0.00,VWS V14.01,2013-03-12 17:57:00,
2013-03-12 12:58:00,58.1,37.5,30.11,WNW,284,3.1,3.1,46,0.00,,,0.00,VWS V14.01,2013-03-12 17:58:00,
2013-03-12 12:59:00,58.1,37.5,30.11,WNW,301,3.1,7.6,46,0.00,,,0.00,VWS V14.01,2013-03-12 17:59:00,
2013-03-12 13:00:00,58.1,37.5,30.11,NW,321,5.4,7.6,46,0.00,,,0.00,VWS V14.01,2013-03-12 18:00:00,
2013-03-12 13:01:00,58.5,37.8,30.11,NNW,335,7.2,7.2,46,0.00,,,0.00,VWS V14.01,2013-03-12 18:01:00,
2013-03-12 13:02:00,58.5,37.8,30.11,NNE,21,3.6,7.2,46,0.00,,,0.00,VWS V14.01,2013-03-12 18:02:00,
2013-03-12 13:03:00,58.5,37.8,30.11,NW,308,8.7,12.3,46,0.00,,,0.00,VWS V14.01,2013-03-12 18:03:00,
2013-03-12 13:04:00,58.5,37.8,30.11,SSW,213,5.4,7.6,46,0.00,,,0.00,VWS V14.01,2013-03-12 18:04:00,
2013-03-12 13:05:00,58.5,37.8,30.11,SSW,213,5.4,7.6,46,0.00,,,0.00,VWS V14.01,2013-03-12 18:05:00,
2013-03-12 13:06:00,58.5,37.8,30.11,NNW,330,7.6,7.6,46,0.00,,,0.00,VWS V14.01,2013-03-12 18:06:00,
2013-03-12 13:07:00,58.5,37.8,30.11,North,10,6.3,7.6,46,0.00,,,0.00,VWS V14.01,2013-03-12 18:07:00,
2013-03-12 13:08:00,58.5,37.8,30.11,NNE,12,4.0,6.3,46,0.00,,,0.00,VWS V14.01,2013-03-12 18:08:00,
2013-03-12 13:09:00,58.6,37.9,30.11,NW,322,4.0,5.8,46,0.00,,,0.00,VWS V14.01,2013-03-12 18:09:00,
2013-03-12 13:10:00,58.6,37.9,30.11,North,357,2.2,5.8,46,0.00,,,0.00,VWS V14.01,2013-03-12 18:10:00,
2013-03-12 13:11:00,58.5,37.8,30.11,North,8,5.4,5.4,46,0.00,,,0.00,VWS V14.01,2013-03-12 18:11:00,
2013-03-12 13:12:00,58.6,37.9,30.11,North,1,3.6,5.4,46,0.00,,,0.00,VWS V14.01,2013-03-12 18:12:00,
2013-03-12 13:13:00,58.6,37.9,30.11,NW,320,5.4,6.3,46,0.00,,,0.00,VWS V14.01,2013-03-12 18:13:00,
2013-03-12 13:14:00,58.8,38.1,30.11,WNW,299,5.4,6.3,46,0.00,,,0.00,VWS V14.01,2013-03-12 18:14:00,
2013-03-12 13:15:00,58.8,38.1,30.11,WNW,289,5.4,6.3,46,0.00,,,0.00,VWS V14.01,2013-03-12 18:15:00,
2013-03-12 13:16:00,58.8,38.1,30.11,NW,311,4.0,5.8,46,0.00,,,0.00,VWS V14.01,2013-03-12 18:16:00,
2013-03-12 13:17:00,58.8,38.1,30.11,NW,309,8.3,8.3,46,0.00,,,0.00,VWS V14.01,2013-03-12 18:17:00,
2013-03-12 13:18:00,59.0,39.4,30.11,North,357,4.0,8.3,48,0.00,,,0.00,VWS V14.01,2013-03-12 18:18:00,
2013-03-12 13:19:00,59.2,38.4,30.11,NNE,27,6.7,6.7,46,0.00,,,0.00,VWS V14.01,2013-03-12 18:19:00,
2013-03-12 13:20:00,59.2,38.4,30.11,NNE,27,6.7,6.7,46,0.00,,,0.00,VWS V14.01,2013-03-12 18:20:00,
2013-03-12 13:21:00,59.2,38.4,30.11,NE,40,7.2,7.2,46,0.00,,,0.00,VWS V14.01,2013-03-12 18:21:00,
2013-03-12 13:22:00,59.2,38.4,30.11,NNE,23,5.8,8.7,46,0.00,,,0.00,VWS V14.01,2013-03-12 18:22:00,
2013-03-12 13:23:00,59.4,38.6,30.11,WNW,289,3.1,6.3,46,0.00,,,0.00,VWS V14.01,2013-03-12 18:23:00,
2013-03-12 13:24:00,59.4,38.6,30.11,North,7,4.9,5.4,46,0.00,,,0.00,VWS V14.01,2013-03-12 18:24:00,
2013-03-12 13:25:00,59.4,38.6,30.11,NNE,22,5.8,5.8,46,0.00,,,0.00,VWS V14.01,2013-03-12 18:25:00,
2013-03-12 13:26:00,59.4,38.6,30.11,North,349,7.6,7.6,46,0.00,,,0.00,VWS V14.01,2013-03-12 18:26:00,
2013-03-12 13:27:00,59.4,38.6,30.11,NNW,340,8.1,8.1,46,0.00,,,0.00,VWS V14.01,2013-03-12 18:27:00,
2013-03-12 13:28:00,59.4,38.6,30.11,NW,315,3.6,8.1,46,0.00,,,0.00,VWS V14.01,2013-03-12 18:28:00,
2013-03-12 13:29:00,59.5,38.8,30.11,NE,45,4.9,4.9,46,0.00,,,0.00,VWS V14.01,2013-03-12 18:29:00,
2013-03-12 13:30:00,59.5,38.8,30.11,NE,45,4.9,4.9,46,0.00,,,0.00,VWS V14.01,2013-03-12 18:30:00,
2013-03-12 13:31:00,59.5,38.8,30.11,NE,39,5.4,6.3,46,0.00,,,0.00,VWS V14.01,2013-03-12 18:31:00,
2013-03-12 13:32:00,59.5,38.8,30.08,NNE,13,3.6,5.4,46,0.00,,,0.00,VWS V14.01,2013-03-12 18:32:00,
2013-03-12 13:33:00,59.7,38.9,30.08,NE,56,6.3,6.3,46,0.00,,,0.00,VWS V14.01,2013-03-12 18:33:00,
2013-03-12 13:34:00,59.7,38.9,30.08,NNE,14,8.1,8.1,46,0.00,,,0.00,VWS V14.01,2013-03-12 18:34:00,
2013-03-12 13:35:00,59.7,38.9,30.08,NNW,329,10.1,10.1,46,0.00,,,0.00,VWS V14.01,2013-03-12 18:35:00,
2013-03-12 13:36:00,59.5,38.8,30.08,NW,311,5.8,10.1,46,0.00,,,0.00,VWS V14.01,2013-03-12 18:36:00,
2013-03-12 13:37:00,59.5,38.8,30.08,NW,318,3.6,6.3,46,0.00,,,0.00,VWS V14.01,2013-03-12 18:37:00,
2013-03-12 13:38:00,59.7,38.9,30.08,NNE,14,0.0,3.6,46,0.00,,,0.00,VWS V14.01,2013-03-12 18:38:00,
2013-03-12 13:39:00,59.7,38.9,30.08,NW,325,0.0,3.1,46,0.00,,,0.00,VWS V14.01,2013-03-12 18:39:00,
2013-03-12 13:40:00,59.7,38.9,30.08,WNW,301,0.0,3.1,46,0.00,,,0.00,VWS V14.01,2013-03-12 18:40:00,
2013-03-12 13:41:00,59.7,38.9,30.08,NNE,24,6.3,7.6,46,0.00,,,0.00,VWS V14.01,2013-03-12 18:41:00,
2013-03-12 13:42:00,59.9,39.1,30.08,NNW,340,4.0,10.1,46,0.00,,,0.00,VWS V14.01,2013-03-12 18:42:00,
2013-03-12 13:43:00,59.9,39.1,30.08,WNW,303,8.1,8.1,46,0.00,,,0.00,VWS V14.01,2013-03-12 18:43:00,
2013-03-12 13:44:00,60.1,39.2,30.08,North,353,3.6,5.8,46,0.00,,,0.00,VWS V14.01,2013-03-12 18:44:00,
2013-03-12 13:45:00,60.1,39.2,30.08,North,353,3.6,5.8,46,0.00,,,0.00,VWS V14.01,2013-03-12 18:45:00,
2013-03-12 13:46:00,60.1,39.2,30.08,NW,318,5.8,8.3,46,0.00,,,0.00,VWS V14.01,2013-03-12 18:46:00,
2013-03-12 13:47:00,60.1,39.2,30.08,NW,322,5.8,10.1,46,0.00,,,0.00,VWS V14.01,2013-03-12 18:47:00,
2013-03-12 13:48:00,60.1,39.2,30.08,West,271,2.7,6.3,46,0.00,,,0.00,VWS V14.01,2013-03-12 18:48:00,
2013-03-12 13:49:00,60.4,39.6,30.08,NNW,330,4.9,6.3,46,0.00,,,0.00,VWS V14.01,2013-03-12 18:49:00,
2013-03-12 13:50:00,60.4,39.6,30.08,NNW,338,2.7,6.3,46,0.00,,,0.00,VWS V14.01,2013-03-12 18:50:00,
2013-03-12 13:51:00,60.4,39.6,30.08,North,353,4.9,7.2,46,0.00,,,0.00,VWS V14.01,2013-03-12 18:51:00,
2013-03-12 13:52:00,60.4,40.7,30.08,NNE,21,4.0,4.9,48,0.00,,,0.00,VWS V14.01,2013-03-12 18:52:00,
2013-03-12 13:53:00,60.4,40.7,30.08,North,0,5.4,8.3,48,0.00,,,0.00,VWS V14.01,2013-03-12 18:53:00,
2013-03-12 13:54:00,60.6,40.8,30.08,NNW,344,6.3,6.3,48,0.00,,,0.00,VWS V14.01,2013-03-12 18:54:00,
2013-03-12 13:55:00,60.6,40.8,30.08,NW,312,4.9,6.3,48,0.00,,,0.00,VWS V14.01,2013-03-12 18:55:00,
2013-03-12 13:56:00,60.6,40.8,30.08,WNW,298,3.1,8.7,48,0.00,,,0.00,VWS V14.01,2013-03-12 18:56:00,
2013-03-12 13:57:00,60.8,41.0,30.08,NNW,346,7.2,7.2,48,0.00,,,0.00,VWS V14.01,2013-03-12 18:57:00,
2013-03-12 13:58:00,60.8,41.0,30.08,NNE,12,8.3,8.3,48,0.00,,,0.00,VWS V14.01,2013-03-12 18:58:00,
2013-03-12 13:59:00,60.8,41.0,30.08,North,0,10.1,11.0,48,0.00,,,0.00,VWS V14.01,2013-03-12 18:59:00,
2013-03-12 14:00:00,60.8,41.0,30.08,North,11,5.4,11.0,48,0.00,,,0.00,VWS V14.01,2013-03-12 19:00:00,
2013-03-12 14:01:00,61.0,41.2,30.08,NNW,334,5.4,6.3,48,0.00,,,0.00,VWS V14.01,2013-03-12 19:01:00,
2013-03-12 14:02:00,61.0,41.2,30.08,North,0,5.4,9.2,48,0.00,,,0.00,VWS V14.01,2013-03-12 19:02:00,
2013-03-12 14:03:00,61.0,41.2,30.08,NNE,28,5.4,8.7,48,0.00,,,0.00,VWS V14.01,2013-03-12 19:03:00,
2013-03-12 14:04:00,61.0,41.2,30.08,NW,305,3.6,3.6,48,0.00,,,0.00,VWS V14.01,2013-03-12 19:04:00,
2013-03-12 14:05:00,61.0,41.2,30.08,WNW,303,2.7,3.6,48,0.00,,,0.00,VWS V14.01,2013-03-12 19:05:00,
2013-03-12 14:06:00,61.2,41.3,30.08,NNW,337,4.0,6.3,48,0.00,,,0.00,VWS V14.01,2013-03-12 19:06:00,
2013-03-12 14:07:00,61.2,41.3,30.08,North,0,2.7,7.2,48,0.00,,,0.00,VWS V14.01,2013-03-12 19:07:00,
2013-03-12 14:08:00,61.2,41.3,30.08,WNW,285,4.0,7.6,48,0.00,,,0.00,VWS V14.01,2013-03-12 19:08:00,
2013-03-12 14:09:00,61.2,41.3,30.08,WNW,284,10.5,10.5,48,0.00,,,0.00,VWS V14.01,2013-03-12 19:09:00,
2013-03-12 14:10:00,61.2,41.3,30.08,NW,312,8.7,10.5,48,0.00,,,0.00,VWS V14.01,2013-03-12 19:10:00,
2013-03-12 14:11:00,61.2,41.3,30.08,NNW,329,5.4,8.7,48,0.00,,,0.00,VWS V14.01,2013-03-12 19:11:00,
2013-03-12 14:12:00,61.2,41.3,30.08,NW,312,2.7,5.4,48,0.00,,,0.00,VWS V14.01,2013-03-12 19:12:00,
2013-03-12 14:13:00,61.2,41.3,30.08,NW,305,2.7,3.1,48,0.00,,,0.00,VWS V14.01,2013-03-12 19:13:00,
2013-03-12 14:14:00,61.3,41.5,30.08,NNW,329,5.8,5.8,48,0.00,,,0.00,VWS V14.01,2013-03-12 19:14:00,
2013-03-12 14:15:00,61.3,41.5,30.08,NNE,14,5.8,6.3,48,0.00,,,0.00,VWS V14.01,2013-03-12 19:15:00,
2013-03-12 14:16:00,61.3,41.5,30.08,NW,308,5.4,8.1,48,0.00,,,0.00,VWS V14.01,2013-03-12 19:16:00,
2013-03-12 14:17:00,61.5,41.7,30.08,WNW,294,7.6,8.7,48,0.00,,,0.00,VWS V14.01,2013-03-12 19:17:00,
2013-03-12 14:18:00,61.5,41.7,30.08,NW,307,5.8,8.1,48,0.00,,,0.00,VWS V14.01,2013-03-12 19:18:00,
2013-03-12 14:19:00,61.7,41.8,30.08,NNW,332,2.2,4.9,48,0.00,,,0.00,VWS V14.01,2013-03-12 19:19:00,
2013-03-12 14:20:00,61.7,41.8,30.08,NNW,332,2.2,4.9,48,0.00,,,0.00,VWS V14.01,2013-03-12 19:20:00,
2013-03-12 14:21:00,61.7,41.8,30.08,NNW,334,5.8,6.3,48,0.00,,,0.00,VWS V14.01,2013-03-12 19:21:00,
2013-03-12 14:22:00,61.7,41.8,30.08,East,93,5.4,12.8,48,0.00,,,0.00,VWS V14.01,2013-03-12 19:22:00,
2013-03-12 14:23:00,61.7,41.8,30.08,NW,311,5.8,5.8,48,0.00,,,0.00,VWS V14.01,2013-03-12 19:23:00,
2013-03-12 14:24:00,61.5,41.7,30.08,NW,326,0.0,6.7,48,0.00,,,0.00,VWS V14.01,2013-03-12 19:24:00,
2013-03-12 14:25:00,61.5,41.7,30.08,NNW,333,0.0,6.7,48,0.00,,,0.00,VWS V14.01,2013-03-12 19:25:00,
2013-03-12 14:26:00,61.7,41.8,30.08,WNW,297,5.8,5.8,48,0.00,,,0.00,VWS V14.01,2013-03-12 19:26:00,
2013-03-12 14:27:00,61.7,41.8,30.08,NW,316,0.0,6.3,48,0.00,,,0.00,VWS V14.01,2013-03-12 19:27:00,
2013-03-12 14:28:00,61.7,41.8,30.08,NW,318,3.6,5.8,48,0.00,,,0.00,VWS V14.01,2013-03-12 19:28:00,
2013-03-12 14:29:00,61.9,42.0,30.08,NE,56,7.6,8.1,48,0.00,,,0.00,VWS V14.01,2013-03-12 19:29:00,
2013-03-12 14:30:00,61.9,42.0,30.08,North,353,4.0,8.1,48,0.00,,,0.00,VWS V14.01,2013-03-12 19:30:00,
2013-03-12 14:31:00,61.9,42.0,30.08,NNW,343,10.1,10.1,48,0.00,,,0.00,VWS V14.01,2013-03-12 19:31:00,
2013-03-12 14:32:00,61.9,42.0,30.08,NNE,14,3.1,10.1,48,0.00,,,0.00,VWS V14.01,2013-03-12 19:32:00,
2013-03-12 14:33:00,61.9,42.0,30.08,North,11,8.3,8.3,48,0.00,,,0.00,VWS V14.01,2013-03-12 19:33:00,
2013-03-12 14:34:00,61.9,42.0,30.08,North,3,6.3,8.7,48,0.00,,,0.00,VWS V14.01,2013-03-12 19:34:00,
2013-03-12 14:35:00,61.9,42.0,30.08,NW,317,6.3,8.7,48,0.00,,,0.00,VWS V14.01,2013-03-12 19:35:00,
2013-03-12 14:36:00,61.9,42.0,30.08,North,357,5.8,8.1,48,0.00,,,0.00,VWS V14.01,2013-03-12 19:36:00,
2013-03-12 14:37:00,61.9,42.0,30.08,NW,317,7.6,7.6,48,0.00,,,0.00,VWS V14.01,2013-03-12 19:37:00,
2013-03-12 14:38:00,61.9,42.0,30.08,North,353,4.9,7.6,48,0.00,,,0.00,VWS V14.01,2013-03-12 19:38:00,
2013-03-12 14:39:00,61.9,42.0,30.08,North,0,5.4,8.1,48,0.00,,,0.00,VWS V14.01,2013-03-12 19:39:00,
2013-03-12 14:40:00,61.9,42.0,30.08,West,279,5.8,8.7,48,0.00,,,0.00,VWS V14.01,2013-03-12 19:40:00,
2013-03-12 14:41:00,61.9,42.0,30.08,WSW,258,3.1,5.8,48,0.00,,,0.00,VWS V14.01,2013-03-12 19:41:00,
2013-03-12 14:42:00,61.9,42.0,30.08,NE,49,5.4,5.8,48,0.00,,,0.00,VWS V14.01,2013-03-12 19:42:00,
2013-03-12 14:43:00,61.9,42.0,30.08,North,349,8.3,8.3,48,0.00,,,0.00,VWS V14.01,2013-03-12 19:43:00,
2013-03-12 14:44:00,62.1,42.2,30.08,NW,304,6.3,8.1,48,0.00,,,0.00,VWS V14.01,2013-03-12 19:44:00,
2013-03-12 14:45:00,62.1,42.2,30.08,West,264,6.3,8.1,48,0.00,,,0.00,VWS V14.01,2013-03-12 19:45:00,
2013-03-12 14:46:00,61.9,42.0,30.08,NW,322,8.3,8.3,48,0.00,,,0.00,VWS V14.01,2013-03-12 19:46:00,
2013-03-12 14:47:00,61.9,42.0,30.08,North,357,8.1,8.3,48,0.00,,,0.00,VWS V14.01,2013-03-12 19:47:00,
2013-03-12 14:48:00,62.1,42.2,30.08,NW,308,5.8,8.1,48,0.00,,,0.00,VWS V14.01,2013-03-12 19:48:00,
2013-03-12 14:49:00,62.1,42.2,30.08,NW,312,4.0,8.3,48,0.00,,,0.00,VWS V14.01,2013-03-12 19:49:00,
2013-03-12 14:50:00,62.1,42.2,30.08,WNW,291,5.4,8.3,48,0.00,,,0.00,VWS V14.01,2013-03-12 19:50:00,
2013-03-12 14:51:00,62.1,42.2,30.08,NNW,341,8.1,8.3,48,0.00,,,0.00,VWS V14.01,2013-03-12 19:51:00,
2013-03-12 14:52:00,62.1,42.2,30.08,NW,317,3.6,8.1,48,0.00,,,0.00,VWS V14.01,2013-03-12 19:52:00,
2013-03-12 14:53:00,62.1,42.2,30.08,NW,316,2.7,7.6,48,0.00,,,0.00,VWS V14.01,2013-03-12 19:53:00,
2013-03-12 14:54:00,61.9,42.0,30.08,NW,305,10.1,10.1,48,0.00,,,0.00,VWS V14.01,2013-03-12 19:54:00,
2013-03-12 14:55:00,61.9,42.0,30.08,NNW,339,5.8,10.1,48,0.00,,,0.00,VWS V14.01,2013-03-12 19:55:00,
2013-03-12 14:56:00,61.9,42.0,30.08,NW,305,9.6,11.4,48,0.00,,,0.00,VWS V14.01,2013-03-12 19:56:00,
2013-03-12 14:57:00,61.9,42.0,30.08,WNW,291,8.1,10.5,48,0.00,,,0.00,VWS V14.01,2013-03-12 19:57:00,
2013-03-12 14:58:00,61.9,42.0,30.08,WNW,293,6.3,8.1,48,0.00,,,0.00,VWS V14.01,2013-03-12 19:58:00,
2013-03-12 14:59:00,62.1,42.2,30.08,NW,317,4.0,7.2,48,0.00,,,0.00,VWS V14.01,2013-03-12 19:59:00,
2013-03-12 15:00:00,62.1,42.2,30.08,NW,304,4.0,7.2,48,0.00,,,0.00,VWS V14.01,2013-03-12 20:00:00,
2013-03-12 15:01:00,62.1,42.2,30.08,NW,305,3.6,7.6,48,0.00,,,0.00,VWS V14.01,2013-03-12 20:01:00,
2013-03-12 15:02:00,62.1,42.2,30.08,North,357,3.1,8.3,48,0.00,,,0.00,VWS V14.01,2013-03-12 20:02:00,
2013-03-12 15:03:00,62.1,42.2,30.08,NNW,335,5.4,6.3,48,0.00,,,0.00,VWS V14.01,2013-03-12 20:03:00,
2013-03-12 15:04:00,62.1,42.2,30.08,NW,311,6.3,8.1,48,0.00,,,0.00,VWS V14.01,2013-03-12 20:04:00,
2013-03-12 15:05:00,62.2,42.3,30.08,West,260,5.8,8.1,48,0.00,,,0.00,VWS V14.01,2013-03-12 20:05:00,
2013-03-12 15:06:00,62.2,42.3,30.08,WNW,293,5.4,6.3,48,0.00,,,0.00,VWS V14.01,2013-03-12 20:06:00,
2013-03-12 15:07:00,62.2,42.3,30.08,NNW,327,4.0,5.4,48,0.00,,,0.00,VWS V14.01,2013-03-12 20:07:00,
2013-03-12 15:08:00,62.2,42.3,30.08,NNE,17,3.6,4.9,48,0.00,,,0.00,VWS V14.01,2013-03-12 20:08:00,
2013-03-12 15:09:00,62.4,42.5,30.08,NW,318,4.9,5.4,48,0.00,,,0.00,VWS V14.01,2013-03-12 20:09:00,
2013-03-12 15:10:00,62.4,42.5,30.08,WNW,298,2.7,5.4,48,0.00,,,0.00,VWS V14.01,2013-03-12 20:10:00,
2013-03-12 15:11:00,62.4,42.5,30.08,NW,318,8.1,8.1,48,0.00,,,0.00,VWS V14.01,2013-03-12 20:11:00,
2013-03-12 15:12:00,62.4,42.5,30.08,NW,315,8.1,8.1,48,0.00,,,0.00,VWS V14.01,2013-03-12 20:12:00,
2013-03-12 15:13:00,62.4,42.5,30.08,NNW,338,8.1,9.2,48,0.00,,,0.00,VWS V14.01,2013-03-12 20:13:00,
2013-03-12 15:14:00,62.2,42.3,30.08,NW,316,8.3,8.3,48,0.00,,,0.00,VWS V14.01,2013-03-12 20:14:00,
2013-03-12 15:15:00,62.2,42.3,30.08,WNW,283,11.9,11.9,48,0.00,,,0.00,VWS V14.01,2013-03-12 20:15:00,
2013-03-12 15:16:00,62.2,42.3,30.08,NNW,327,4.9,11.9,48,0.00,,,0.00,VWS V14.01,2013-03-12 20:16:00,
2013-03-12 15:17:00,62.2,42.3,30.08,North,357,3.1,6.3,48,0.00,,,0.00,VWS V14.01,2013-03-12 20:17:00,
2013-03-12 15:18:00,62.2,42.3,30.08,NNW,335,6.3,6.3,48,0.00,,,0.00,VWS V14.01,2013-03-12 20:18:00,
2013-03-12 15:19:00,62.2,42.3,30.08,NW,321,6.3,8.1,48,0.00,,,0.00,VWS V14.01,2013-03-12 20:19:00,
2013-03-12 15:20:00,62.2,42.3,30.08,NNE,30,3.1,8.1,48,0.00,,,0.00,VWS V14.01,2013-03-12 20:20:00,
2013-03-12 15:21:00,62.2,42.3,30.08,North,357,6.3,8.3,48,0.00,,,0.00,VWS V14.01,2013-03-12 20:21:00,
2013-03-12 15:22:00,62.2,42.3,30.08,North,357,10.1,10.1,48,0.00,,,0.00,VWS V14.01,2013-03-12 20:22:00,
2013-03-12 15:23:00,62.2,42.3,30.08,NNW,342,10.1,10.1,48,0.00,,,0.00,VWS V14.01,2013-03-12 20:23:00,
2013-03-12 15:24:00,62.2,42.3,30.08,NNW,331,3.6,8.3,48,0.00,,,0.00,VWS V14.01,2013-03-12 20:24:00,
2013-03-12 15:25:00,62.2,42.3,30.08,NNE,14,3.6,8.3,48,0.00,,,0.00,VWS V14.01,2013-03-12 20:25:00,
2013-03-12 15:26:00,62.2,42.3,30.08,WNW,294,6.3,8.1,48,0.00,,,0.00,VWS V14.01,2013-03-12 20:26:00,
2013-03-12 15:27:00,62.2,42.3,30.08,NE,41,3.1,8.7,48,0.00,,,0.00,VWS V14.01,2013-03-12 20:27:00,
2013-03-12 15:28:00,62.1,42.2,30.08,North,0,7.6,11.0,48,0.00,,,0.00,VWS V14.01,2013-03-12 20:28:00,
2013-03-12 15:29:00,62.1,42.2,30.08,NW,323,10.1,10.1,48,0.00,,,0.00,VWS V14.01,2013-03-12 20:29:00,
2013-03-12 15:30:00,62.1,42.2,30.08,North,357,8.1,10.1,48,0.00,,,0.00,VWS V14.01,2013-03-12 20:30:00,
2013-03-12 15:31:00,62.1,42.2,30.08,North,350,7.2,8.3,48,0.00,,,0.00,VWS V14.01,2013-03-12 20:31:00,
2013-03-12 15:32:00,62.2,42.3,30.08,NNE,20,5.4,8.1,48,0.00,,,0.00,VWS V14.01,2013-03-12 20:32:00,
2013-03-12 15:33:00,62.2,42.3,30.08,North,0,8.7,8.7,48,0.00,,,0.00,VWS V14.01,2013-03-12 20:33:00,
2013-03-12 15:34:00,62.2,42.3,30.08,NNE,31,4.9,8.3,48,0.00,,,0.00,VWS V14.01,2013-03-12 20:34:00,
2013-03-12 15:35:00,62.2,42.3,30.08,North,7,7.6,8.3,48,0.00,,,0.00,VWS V14.01,2013-03-12 20:35:00,
2013-03-12 15:36:00,62.2,42.3,30.08,NNE,25,4.9,7.6,48,0.00,,,0.00,VWS V14.01,2013-03-12 20:36:00,
2013-03-12 15:37:00,62.4,42.5,30.08,NNE,19,6.3,6.3,48,0.00,,,0.00,VWS V14.01,2013-03-12 20:37:00,
2013-03-12 15:38:00,62.4,42.5,30.08,NNW,346,5.8,6.3,48,0.00,,,0.00,VWS V14.01,2013-03-12 20:38:00,
2013-03-12 15:39:00,62.6,42.1,30.08,NW,305,2.7,5.8,47,0.00,,,0.00,VWS V14.01,2013-03-12 20:39:00,
2013-03-12 15:40:00,62.6,42.1,30.08,WNW,301,5.4,5.8,47,0.00,,,0.00,VWS V14.01,2013-03-12 20:40:00,
2013-03-12 15:41:00,62.6,42.1,30.08,WNW,293,5.8,7.2,47,0.00,,,0.00,VWS V14.01,2013-03-12 20:41:00,
2013-03-12 15:42:00,62.6,42.1,30.08,WNW,283,8.1,8.7,47,0.00,,,0.00,VWS V14.01,2013-03-12 20:42:00,
2013-03-12 15:43:00,62.6,42.1,30.08,North,0,5.8,8.3,47,0.00,,,0.00,VWS V14.01,2013-03-12 20:43:00,
2013-03-12 15:44:00,62.6,42.1,30.08,NNE,21,7.6,8.1,47,0.00,,,0.00,VWS V14.01,2013-03-12 20:44:00,
2013-03-12 15:45:00,62.6,42.1,30.08,North,357,6.3,8.1,47,0.00,,,0.00,VWS V14.01,2013-03-12 20:45:00,
2013-03-12 15:46:00,62.6,42.1,30.08,NNW,327,2.7,6.3,47,0.00,,,0.00,VWS V14.01,2013-03-12 20:46:00,
2013-03-12 15:47:00,62.6,42.1,30.08,WNW,292,7.6,7.6,47,0.00,,,0.00,VWS V14.01,2013-03-12 20:47:00,
2013-03-12 15:48:00,62.6,42.1,30.08,North,357,7.2,8.3,47,0.00,,,0.00,VWS V14.01,2013-03-12 20:48:00,
2013-03-12 15:49:00,62.6,42.1,30.08,WNW,285,6.3,6.3,47,0.00,,,0.00,VWS V14.01,2013-03-12 20:49:00,
2013-03-12 15:50:00,62.6,42.1,30.08,NW,324,3.6,6.3,47,0.00,,,0.00,VWS V14.01,2013-03-12 20:50:00,
2013-03-12 15:51:00,62.6,42.1,30.08,North,357,5.4,8.3,47,0.00,,,0.00,VWS V14.01,2013-03-12 20:51:00,
2013-03-12 15:52:00,62.6,42.1,30.08,NNW,348,4.0,5.4,47,0.00,,,0.00,VWS V14.01,2013-03-12 20:52:00,
2013-03-12 15:53:00,62.8,42.3,30.08,North,0,2.7,4.9,47,0.00,,,0.00,VWS V14.01,2013-03-12 20:53:00,
2013-03-12 15:54:00,62.8,42.3,30.08,WNW,293,4.0,4.0,47,0.00,,,0.00,VWS V14.01,2013-03-12 20:54:00,
2013-03-12 15:55:00,62.8,42.3,30.08,NE,56,2.7,4.0,47,0.00,,,0.00,VWS V14.01,2013-03-12 20:55:00,
2013-03-12 15:56:00,63.0,42.4,30.08,NNE,12,5.4,7.6,47,0.00,,,0.00,VWS V14.01,2013-03-12 20:56:00,
2013-03-12 15:57:00,63.0,42.4,30.08,NNW,343,5.8,8.7,47,0.00,,,0.00,VWS V14.01,2013-03-12 20:57:00,
2013-03-12 15:58:00,63.0,42.4,30.08,NNW,334,6.3,6.3,47,0.00,,,0.00,VWS V14.01,2013-03-12 20:58:00,
2013-03-12 15:59:00,63.0,42.4,30.08,NW,310,2.7,3.6,47,0.00,,,0.00,VWS V14.01,2013-03-12 20:59:00,
2013-03-12 16:00:00,63.0,42.4,30.08,WNW,302,4.0,4.0,47,0.00,,,0.00,VWS V14.01,2013-03-12 21:00:00,
2013-03-12 16:01:00,63.0,42.4,30.08,NW,324,4.9,4.9,47,0.00,,,0.00,VWS V14.01,2013-03-12 21:01:00,
2013-03-12 16:02:00,63.0,42.4,30.08,WNW,296,6.3,6.3,47,0.00,,,0.00,VWS V14.01,2013-03-12 21:02:00,
2013-03-12 16:03:00,63.0,42.4,30.08,NNW,334,6.3,8.1,47,0.00,,,0.00,VWS V14.01,2013-03-12 21:03:00,
2013-03-12 16:04:00,63.0,42.4,30.08,NE,53,5.8,8.7,47,0.00,,,0.00,VWS V14.01,2013-03-12 21:04:00,
2013-03-12 16:05:00,63.0,42.4,30.08,North,8,5.8,8.7,47,0.00,,,0.00,VWS V14.01,2013-03-12 21:05:00,
2013-03-12 16:06:00,63.0,42.4,30.08,North,0,4.0,8.7,47,0.00,,,0.00,VWS V14.01,2013-03-12 21:06:00,
2013-03-12 16:07:00,63.0,42.4,30.08,NNE,19,5.4,7.6,47,0.00,,,0.00,VWS V14.01,2013-03-12 21:07:00,
2013-03-12 16:08:00,63.0,42.4,30.08,NW,325,8.3,8.3,47,0.00,,,0.00,VWS V14.01,2013-03-12 21:08:00,
2013-03-12 16:09:00,63.0,42.4,30.08,West,264,5.8,8.7,47,0.00,,,0.00,VWS V14.01,2013-03-12 21:09:00,
2013-03-12 16:10:00,63.0,42.4,30.08,West,264,5.8,8.7,47,0.00,,,0.00,VWS V14.01,2013-03-12 21:10:00,
2013-03-12 16:11:00,63.0,42.4,30.08,NW,320,6.3,10.1,47,0.00,,,0.00,VWS V14.01,2013-03-12 21:11:00,
2013-03-12 16:12:00,63.0,42.4,30.08,NW,322,3.6,6.3,47,0.00,,,0.00,VWS V14.01,2013-03-12 21:12:00,
2013-03-12 16:13:00,63.0,42.4,30.08,NNW,335,9.2,9.2,47,0.00,,,0.00,VWS V14.01,2013-03-12 21:13:00,
2013-03-12 16:14:00,63.0,42.4,30.08,NW,324,5.4,8.7,47,0.00,,,0.00,VWS V14.01,2013-03-12 21:14:00,
2013-03-12 16:15:00,63.0,42.4,30.08,North,350,4.0,8.7,47,0.00,,,0.00,VWS V14.01,2013-03-12 21:15:00,
2013-03-12 16:16:00,63.1,42.6,30.08,NNE,15,3.6,5.8,47,0.00,,,0.00,VWS V14.01,2013-03-12 21:16:00,
2013-03-12 16:17:00,63.1,42.6,30.08,North,8,3.6,6.7,47,0.00,,,0.00,VWS V14.01,2013-03-12 21:17:00,
2013-03-12 16:18:00,63.1,42.6,30.08,North,0,8.3,8.3,47,0.00,,,0.00,VWS V14.01,2013-03-12 21:18:00,
2013-03-12 16:19:00,63.1,42.6,30.08,NNE,13,2.7,6.3,47,0.00,,,0.00,VWS V14.01,2013-03-12 21:19:00,
2013-03-12 16:20:00,63.1,42.6,30.08,NNE,21,0.0,6.3,47,0.00,,,0.00,VWS V14.01,2013-03-12 21:20:00,
2013-03-12 16:21:00,63.1,42.6,30.08,WNW,303,7.6,7.6,47,0.00,,,0.00,VWS V14.01,2013-03-12 21:21:00,
2013-03-12 16:22:00,63.1,42.6,30.08,NW,322,5.8,7.6,47,0.00,,,0.00,VWS V14.01,2013-03-12 21:22:00,
2013-03-12 16:23:00,63.3,42.8,30.08,North,0,5.4,5.8,47,0.00,,,0.00,VWS V14.01,2013-03-12 21:23:00,
2013-03-12 16:24:00,63.3,42.8,30.08,NW,317,4.0,5.8,47,0.00,,,0.00,VWS V14.01,2013-03-12 21:24:00,
2013-03-12 16:25:00,63.3,42.8,30.08,NW,316,4.9,5.8,47,0.00,,,0.00,VWS V14.01,2013-03-12 21:25:00,
2013-03-12 16:26:00,63.3,42.8,30.08,NNW,331,3.6,4.9,47,0.00,,,0.00,VWS V14.01,2013-03-12 21:26:00,
2013-03-12 16:27:00,63.3,42.8,30.08,North,353,8.7,8.7,47,0.00,,,0.00,VWS V14.01,2013-03-12 21:27:00,
2013-03-12 16:28:00,63.3,42.8,30.08,North,0,5.4,8.7,47,0.00,,,0.00,VWS V14.01,2013-03-12 21:28:00,
2013-03-12 16:29:00,63.3,42.8,30.08,WNW,291,5.8,6.3,47,0.00,,,0.00,VWS V14.01,2013-03-12 21:29:00,
2013-03-12 16:30:00,63.3,42.8,30.08,NNE,19,3.6,6.3,47,0.00,,,0.00,VWS V14.01,2013-03-12 21:30:00,
2013-03-12 16:31:00,63.3,42.8,30.08,NNE,17,5.4,5.4,47,0.00,,,0.00,VWS V14.01,2013-03-12 21:31:00,
2013-03-12 16:32:00,63.1,42.6,30.08,North,350,7.2,7.2,47,0.00,,,0.00,VWS V14.01,2013-03-12 21:32:00,
2013-03-12 16:33:00,63.1,42.6,30.08,North,353,5.8,7.2,47,0.00,,,0.00,VWS V14.01,2013-03-12 21:33:00,
2013-03-12 16:34:00,63.1,42.6,30.08,NNE,18,2.7,5.8,47,0.00,,,0.00,VWS V14.01,2013-03-12 21:34:00,
2013-03-12 16:35:00,63.1,42.6,30.08,North,8,4.0,5.8,47,0.00,,,0.00,VWS V14.01,2013-03-12 21:35:00,
2013-03-12 16:36:00,63.1,42.6,30.08,NNE,22,5.4,8.3,47,0.00,,,0.00,VWS V14.01,2013-03-12 21:36:00,
2013-03-12 16:37:00,63.1,42.6,30.08,NE,36,4.0,7.6,47,0.00,,,0.00,VWS V14.01,2013-03-12 21:37:00,
2013-03-12 16:38:00,63.1,42.6,30.08,North,357,5.4,5.8,47,0.00,,,0.00,VWS V14.01,2013-03-12 21:38:00,
2013-03-12 16:39:00,63.1,42.6,30.08,NNE,21,6.3,6.3,47,0.00,,,0.00,VWS V14.01,2013-03-12 21:39:00,
2013-03-12 16:40:00,63.1,42.6,30.08,NNE,21,6.3,6.3,47,0.00,,,0.00,VWS V14.01,2013-03-12 21:40:00,
2013-03-12 16:41:00,63.1,42.6,30.08,North,0,3.6,8.3,47,0.00,,,0.00,VWS V14.01,2013-03-12 21:41:00,
2013-03-12 16:42:00,63.1,42.6,30.08,NNE,19,3.6,3.6,47,0.00,,,0.00,VWS V14.01,2013-03-12 21:42:00,
2013-03-12 16:43:00,63.1,42.6,30.08,NNW,344,3.6,6.3,47,0.00,,,0.00,VWS V14.01,2013-03-12 21:43:00,
2013-03-12 16:44:00,63.3,42.8,30.08,ENE,63,6.3,8.3,47,0.00,,,0.00,VWS V14.01,2013-03-12 21:44:00,
2013-03-12 16:45:00,63.3,42.8,30.08,North,353,4.0,8.3,47,0.00,,,0.00,VWS V14.01,2013-03-12 21:45:00,
2013-03-12 16:46:00,63.1,42.6,30.08,NNW,340,6.3,8.1,47,0.00,,,0.00,VWS V14.01,2013-03-12 21:46:00,
2013-03-12 16:47:00,63.1,42.6,30.08,NNW,332,3.1,6.3,47,0.00,,,0.00,VWS V14.01,2013-03-12 21:47:00,
2013-03-12 16:48:00,63.1,42.6,30.08,North,0,3.1,4.0,47,0.00,,,0.00,VWS V14.01,2013-03-12 21:48:00,
2013-03-12 16:49:00,63.1,42.6,30.08,NNE,32,4.9,4.9,47,0.00,,,0.00,VWS V14.01,2013-03-12 21:49:00,
2013-03-12 16:50:00,63.1,42.6,30.08,NNE,32,4.9,4.9,47,0.00,,,0.00,VWS V14.01,2013-03-12 21:50:00,
2013-03-12 16:51:00,63.1,42.6,30.08,North,7,8.1,8.1,47,0.00,,,0.00,VWS V14.01,2013-03-12 21:51:00,
2013-03-12 16:52:00,63.1,42.6,30.08,NNE,16,6.3,8.1,47,0.00,,,0.00,VWS V14.01,2013-03-12 21:52:00,
2013-03-12 16:53:00,63.1,42.6,30.08,NNW,343,3.1,8.1,47,0.00,,,0.00,VWS V14.01,2013-03-12 21:53:00,
2013-03-12 16:54:00,63.1,42.6,30.08,NNW,336,5.4,7.6,47,0.00,,,0.00,VWS V14.01,2013-03-12 21:54:00,
2013-03-12 16:55:00,63.1,42.6,30.08,North,353,4.9,7.6,47,0.00,,,0.00,VWS V14.01,2013-03-12 21:55:00,
2013-03-12 16:56:00,63.1,42.6,30.08,NW,324,3.6,5.4,47,0.00,,,0.00,VWS V14.01,2013-03-12 21:56:00,
2013-03-12 16:57:00,63.1,42.6,30.08,NW,311,3.6,5.8,47,0.00,,,0.00,VWS V14.01,2013-03-12 21:57:00,
2013-03-12 16:58:00,63.1,42.6,30.08,NNW,329,5.4,5.8,47,0.00,,,0.00,VWS V14.01,2013-03-12 21:58:00,
2013-03-12 16:59:00,63.1,42.6,30.08,WNW,299,2.7,5.4,47,0.00,,,0.00,VWS V14.01,2013-03-12 21:59:00,
2013-03-12 17:00:00,63.1,42.6,30.08,WNW,299,2.7,5.4,47,0.00,,,0.00,VWS V14.01,2013-03-12 22:00:00,
2013-03-12 17:01:00,63.1,42.6,30.08,NNE,33,5.8,6.3,47,0.00,,,0.00,VWS V14.01,2013-03-12 22:01:00,
2013-03-12 17:02:00,63.1,42.6,30.08,WNW,286,5.4,5.8,47,0.00,,,0.00,VWS V14.01,2013-03-12 22:02:00,
2013-03-12 17:03:00,63.1,42.6,30.08,NW,316,3.6,5.4,47,0.00,,,0.00,VWS V14.01,2013-03-12 22:03:00,
2013-03-12 17:04:00,63.1,42.6,30.08,NNW,346,3.6,8.1,47,0.00,,,0.00,VWS V14.01,2013-03-12 22:04:00,
2013-03-12 17:05:00,63.1,42.6,30.08,NNW,330,3.6,8.1,47,0.00,,,0.00,VWS V14.01,2013-03-12 22:05:00,
2013-03-12 17:06:00,63.1,42.6,30.08,North,8,7.6,7.6,47,0.00,,,0.00,VWS V14.01,2013-03-12 22:06:00,
2013-03-12 17:07:00,63.1,42.6,30.08,NW,310,4.5,8.1,47,0.00,,,0.00,VWS V14.01,2013-03-12 22:07:00,
2013-03-12 17:08:00,63.1,42.6,30.08,NNW,339,4.0,5.8,47,0.00,,,0.00,VWS V14.01,2013-03-12 22:08:00,
2013-03-12 17:09:00,63.1,42.6,30.08,NNW,341,6.3,6.3,47,0.00,,,0.00,VWS V14.01,2013-03-12 22:09:00,
2013-03-12 17:10:00,63.1,42.6,30.08,NE,37,5.8,6.3,47,0.00,,,0.00,VWS V14.01,2013-03-12 22:10:00,
2013-03-12 17:11:00,63.1,42.6,30.08,NNE,15,7.6,7.6,47,0.00,,,0.00,VWS V14.01,2013-03-12 22:11:00,
2013-03-12 17:12:00,63.0,42.4,30.08,North,353,7.6,7.6,47,0.00,,,0.00,VWS V14.01,2013-03-12 22:12:00,
2013-03-12 17:13:00,63.0,42.4,30.08,NNE,16,6.3,8.1,47,0.00,,,0.00,VWS V14.01,2013-03-12 22:13:00,
2013-03-12 17:14:00,63.0,42.4,30.08,NW,325,5.8,6.3,47,0.00,,,0.00,VWS V14.01,2013-03-12 22:14:00,
2013-03-12 17:15:00,63.0,42.4,30.08,NW,325,5.8,6.3,47,0.00,,,0.00,VWS V14.01,2013-03-12 22:15:00,
2013-03-12 17:16:00,63.0,42.4,30.08,WNW,290,4.0,5.8,47,0.00,,,0.00,VWS V14.01,2013-03-12 22:16:00,
2013-03-12 17:17:00,63.0,42.4,30.08,North,353,4.0,8.1,47,0.00,,,0.00,VWS V14.01,2013-03-12 22:17:00,
2013-03-12 17:18:00,63.0,42.4,30.08,North,357,0.0,4.0,47,0.00,,,0.00,VWS V14.01,2013-03-12 22:18:00,
2013-03-12 17:19:00,63.0,42.4,30.08,North,353,0.0,6.3,47,0.00,,,0.00,VWS V14.01,2013-03-12 22:19:00,
2013-03-12 17:20:00,63.0,42.4,30.08,WNW,292,0.0,6.3,47,0.00,,,0.00,VWS V14.01,2013-03-12 22:20:00,
2013-03-12 17:21:00,63.0,42.4,30.08,NE,47,4.9,5.4,47,0.00,,,0.00,VWS V14.01,2013-03-12 22:21:00,
2013-03-12 17:22:00,63.0,42.4,30.08,NNE,31,6.3,6.3,47,0.00,,,0.00,VWS V14.01,2013-03-12 22:22:00,
2013-03-12 17:23:00,63.0,42.4,30.08,NNW,336,2.7,6.3,47,0.00,,,0.00,VWS V14.01,2013-03-12 22:23:00,
2013-03-12 17:24:00,63.0,42.4,30.08,NNE,16,6.3,6.3,47,0.00,,,0.00,VWS V14.01,2013-03-12 22:24:00,
2013-03-12 17:25:00,63.0,42.4,30.08,NNE,21,7.6,7.6,47,0.00,,,0.00,VWS V14.01,2013-03-12 22:25:00,
2013-03-12 17:26:00,63.0,42.4,30.08,NNW,343,5.4,8.1,47,0.00,,,0.00,VWS V14.01,2013-03-12 22:26:00,
2013-03-12 17:27:00,63.0,42.4,30.08,North,4,3.1,5.4,47,0.00,,,0.00,VWS V14.01,2013-03-12 22:27:00,
2013-03-12 17:28:00,63.0,42.4,30.08,NNW,343,4.0,5.4,47,0.00,,,0.00,VWS V14.01,2013-03-12 22:28:00,
2013-03-12 17:29:00,63.0,42.4,30.08,NNW,341,4.0,4.0,47,0.00,,,0.00,VWS V14.01,2013-03-12 22:29:00,
2013-03-12 17:30:00,63.0,42.4,30.08,NNW,341,4.0,4.0,47,0.00,,,0.00,VWS V14.01,2013-03-12 22:30:00,
2013-03-12 17:31:00,63.0,42.4,30.08,WNW,297,5.8,5.8,47,0.00,,,0.00,VWS V14.01,2013-03-12 22:31:00,
2013-03-12 17:32:00,63.0,42.4,30.08,NW,310,3.1,5.8,47,0.00,,,0.00,VWS V14.01,2013-03-12 22:32:00,
2013-03-12 17:33:00,63.0,42.4,30.08,North,10,0.0,3.6,47,0.00,,,0.00,VWS V14.01,2013-03-12 22:33:00,
2013-03-12 17:34:00,63.0,42.4,30.08,North,349,6.3,6.3,47,0.00,,,0.00,VWS V14.01,2013-03-12 22:34:00,
2013-03-12 17:35:00,63.0,42.4,30.08,North,349,6.3,6.3,47,0.00,,,0.00,VWS V14.01,2013-03-12 22:35:00,
2013-03-12 17:36:00,63.0,42.4,30.08,NNE,15,4.0,6.3,47,0.00,,,0.00,VWS V14.01,2013-03-12 22:36:00,
2013-03-12 17:37:00,63.0,42.4,30.08,North,0,3.6,5.4,47,0.00,,,0.00,VWS V14.01,2013-03-12 22:37:00,
2013-03-12 17:38:00,63.0,42.4,30.08,North,353,3.6,4.9,47,0.00,,,0.00,VWS V14.01,2013-03-12 22:38:00,
2013-03-12 17:39:00,63.0,42.4,30.08,NE,53,3.6,6.3,47,0.00,,,0.00,VWS V14.01,2013-03-12 22:39:00,
2013-03-12 17:40:00,63.0,42.4,30.08,NE,53,3.6,6.3,47,0.00,,,0.00,VWS V14.01,2013-03-12 22:40:00,
2013-03-12 17:41:00,62.8,42.3,30.08,NW,322,6.3,6.3,47,0.00,,,0.00,VWS V14.01,2013-03-12 22:41:00,
2013-03-12 17:42:00,62.8,42.3,30.08,North,350,5.4,7.2,47,0.00,,,0.00,VWS V14.01,2013-03-12 22:42:00,
2013-03-12 17:43:00,62.8,42.3,30.08,NE,56,2.7,7.2,47,0.00,,,0.00,VWS V14.01,2013-03-12 22:43:00,
2013-03-12 17:44:00,62.8,42.3,30.08,North,11,6.3,6.3,47,0.00,,,0.00,VWS V14.01,2013-03-12 22:44:00,
2013-03-12 17:45:00,62.8,42.3,30.08,NE,39,3.6,6.3,47,0.00,,,0.00,VWS V14.01,2013-03-12 22:45:00,
2013-03-12 17:46:00,62.8,42.3,30.08,NNE,16,2.2,5.4,47,0.00,,,0.00,VWS V14.01,2013-03-12 22:46:00,
2013-03-12 17:47:00,62.8,42.3,30.08,WNW,291,3.6,5.8,47,0.00,,,0.00,VWS V14.01,2013-03-12 22:47:00,
2013-03-12 17:48:00,62.8,42.3,30.08,North,353,4.0,4.9,47,0.00,,,0.00,VWS V14.01,2013-03-12 22:48:00,
2013-03-12 17:49:00,62.8,42.3,30.08,NNE,12,5.8,7.6,47,0.00,,,0.00,VWS V14.01,2013-03-12 22:49:00,
2013-03-12 17:50:00,62.8,42.3,30.08,NNE,12,5.8,7.6,47,0.00,,,0.00,VWS V14.01,2013-03-12 22:50:00,
2013-03-12 17:51:00,62.6,42.1,30.08,NNW,333,3.6,5.8,47,0.00,,,0.00,VWS V14.01,2013-03-12 22:51:00,
2013-03-12 17:52:00,62.6,42.1,30.08,North,357,0.0,3.6,47,0.00,,,0.00,VWS V14.01,2013-03-12 22:52:00,
2013-03-12 17:53:00,62.6,42.1,30.08,North,8,3.1,3.1,47,0.00,,,0.00,VWS V14.01,2013-03-12 22:53:00,
2013-03-12 17:54:00,62.6,42.1,30.08,North,349,0.0,4.0,47,0.00,,,0.00,VWS V14.01,2013-03-12 22:54:00,
2013-03-12 17:55:00,62.6,42.1,30.08,North,3,4.5,4.5,47,0.00,,,0.00,VWS V14.01,2013-03-12 22:55:00,
2013-03-12 17:56:00,62.6,42.1,30.08,NW,313,3.1,4.5,47,0.00,,,0.00,VWS V14.01,2013-03-12 22:56:00,
2013-03-12 17:57:00,62.6,42.1,30.08,NNW,346,2.2,4.0,47,0.00,,,0.00,VWS V14.01,2013-03-12 22:57:00,
2013-03-12 17:58:00,62.6,42.1,30.08,NW,307,2.7,3.6,47,0.00,,,0.00,VWS V14.01,2013-03-12 22:58:00,
2013-03-12 17:59:00,62.6,42.1,30.08,NW,308,0.0,0.0,47,0.00,,,0.00,VWS V14.01,2013-03-12 22:59:00,
2013-03-12 18:00:00,62.6,42.1,30.08,WNW,288,0.0,0.0,47,0.00,,,0.00,VWS V14.01,2013-03-12 23:00:00,
2013-03-12 18:01:00,62.6,42.1,30.08,North,0,3.6,4.5,47,0.00,,,0.00,VWS V14.01,2013-03-12 23:01:00,
2013-03-12 18:02:00,62.6,42.1,30.08,WNW,299,0.0,3.6,47,0.00,,,0.00,VWS V14.01,2013-03-12 23:02:00,
2013-03-12 18:03:00,62.6,42.1,30.08,NNW,328,4.0,4.9,47,0.00,,,0.00,VWS V14.01,2013-03-12 23:03:00,
2013-03-12 18:04:00,62.6,42.1,30.08,North,1,3.1,5.4,47,0.00,,,0.00,VWS V14.01,2013-03-12 23:04:00,
2013-03-12 18:05:00,62.4,42.5,30.08,North,1,3.1,5.4,48,0.00,,,0.00,VWS V14.01,2013-03-12 23:05:00,
2013-03-12 18:06:00,62.4,42.5,30.08,North,0,4.0,4.9,48,0.00,,,0.00,VWS V14.01,2013-03-12 23:06:00,
2013-03-12 18:07:00,62.4,42.5,30.08,NW,313,0.0,4.0,48,0.00,,,0.00,VWS V14.01,2013-03-12 23:07:00,
2013-03-12 18:08:00,62.4,42.5,30.08,NNW,341,3.1,3.1,48,0.00,,,0.00,VWS V14.01,2013-03-12 23:08:00,
2013-03-12 18:09:00,62.4,42.5,30.08,WNW,297,2.7,4.9,48,0.00,,,0.00,VWS V14.01,2013-03-12 23:09:00,
2013-03-12 18:10:00,62.4,42.5,30.08,North,11,3.1,4.9,48,0.00,,,0.00,VWS V14.01,2013-03-12 23:10:00,
2013-03-12 18:11:00,62.2,42.3,30.08,North,357,5.8,5.8,48,0.00,,,0.00,VWS V14.01,2013-03-12 23:11:00,
2013-03-12 18:12:00,62.2,42.3,30.08,NW,325,4.0,6.3,48,0.00,,,0.00,VWS V14.01,2013-03-12 23:12:00,
2013-03-12 18:13:00,62.2,42.3,30.08,NW,314,2.2,4.0,48,0.00,,,0.00,VWS V14.01,2013-03-12 23:13:00,
2013-03-12 18:14:00,62.2,42.3,30.08,NNW,341,3.1,5.4,48,0.00,,,0.00,VWS V14.01,2013-03-12 23:14:00,
2013-03-12 18:15:00,62.2,42.3,30.08,NNW,341,3.1,5.4,48,0.00,,,0.00,VWS V14.01,2013-03-12 23:15:00,
2013-03-12 18:16:00,62.2,42.3,30.08,NNW,340,0.0,5.8,48,0.00,,,0.00,VWS V14.01,2013-03-12 23:16:00,
2013-03-12 18:17:00,62.2,42.3,30.08,North,353,5.4,7.2,48,0.00,,,0.00,VWS V14.01,2013-03-12 23:17:00,
2013-03-12 18:18:00,62.1,42.2,30.08,NW,318,0.0,5.4,48,0.00,,,0.00,VWS V14.01,2013-03-12 23:18:00,
2013-03-12 18:19:00,62.1,42.2,30.08,NNE,17,3.6,3.6,48,0.00,,,0.00,VWS V14.01,2013-03-12 23:19:00,
2013-03-12 18:20:00,62.1,42.2,30.08,NNE,17,3.6,3.6,48,0.00,,,0.00,VWS V14.01,2013-03-12 23:20:00,
2013-03-12 18:21:00,62.1,42.2,30.08,NW,325,3.1,4.9,48,0.00,,,0.00,VWS V14.01,2013-03-12 23:21:00,
2013-03-12 18:22:00,61.9,42.0,30.08,NW,321,0.0,3.1,48,0.00,,,0.00,VWS V14.01,2013-03-12 23:22:00,
2013-03-12 18:23:00,61.9,42.0,30.08,NW,319,0.0,0.0,48,0.00,,,0.00,VWS V14.01,2013-03-12 23:23:00,
2013-03-12 18:24:00,61.9,42.0,30.08,North,5,3.1,3.1,48,0.00,,,0.00,VWS V14.01,2013-03-12 23:24:00,
2013-03-12 18:25:00,61.9,42.0,30.08,North,0,4.0,4.0,48,0.00,,,0.00,VWS V14.01,2013-03-12 23:25:00,
2013-03-12 18:26:00,61.9,42.0,30.08,NW,306,0.0,4.0,48,0.00,,,0.00,VWS V14.01,2013-03-12 23:26:00,
2013-03-12 18:27:00,61.7,41.8,30.08,NNE,12,4.0,5.4,48,0.00,,,0.00,VWS V14.01,2013-03-12 23:27:00,
2013-03-12 18:28:00,61.7,41.8,30.08,WNW,295,3.6,4.0,48,0.00,,,0.00,VWS V14.01,2013-03-12 23:28:00,
2013-03-12 18:29:00,61.5,41.7,30.08,NNW,335,2.7,3.1,48,0.00,,,0.00,VWS V14.01,2013-03-12 23:29:00,
2013-03-12 18:30:00,61.5,41.7,30.08,NNW,331,0.0,3.1,48,0.00,,,0.00,VWS V14.01,2013-03-12 23:30:00,
2013-03-12 18:31:00,61.5,41.7,30.08,North,0,0.0,0.0,48,0.00,,,0.00,VWS V14.01,2013-03-12 23:31:00,
2013-03-12 18:32:00,61.5,41.7,30.08,WNW,302,0.0,0.0,48,0.00,,,0.00,VWS V14.01,2013-03-12 23:32:00,
2013-03-12 18:33:00,61.5,41.7,30.08,NW,319,2.7,4.0,48,0.00,,,0.00,VWS V14.01,2013-03-12 23:33:00,
2013-03-12 18:34:00,61.3,41.5,30.08,NNW,343,2.7,3.1,48,0.00,,,0.00,VWS V14.01,2013-03-12 23:34:00,
2013-03-12 18:35:00,61.3,41.5,30.08,NNW,337,0.0,3.1,48,0.00,,,0.00,VWS V14.01,2013-03-12 23:35:00,
2013-03-12 18:36:00,61.3,39.8,30.08,NW,320,0.0,0.0,45,0.00,,,0.00,VWS V14.01,2013-03-12 23:36:00,
2013-03-12 18:37:00,61.3,39.8,30.08,NNW,335,0.0,0.0,45,0.00,,,0.00,VWS V14.01,2013-03-12 23:37:00,
2013-03-12 18:38:00,61.2,39.7,30.08,NNW,335,0.0,0.0,45,0.00,,,0.00,VWS V14.01,2013-03-12 23:38:00,
2013-03-12 18:39:00,61.2,39.7,30.08,NW,324,0.0,0.0,45,0.00,,,0.00,VWS V14.01,2013-03-12 23:39:00,
2013-03-12 18:40:00,61.2,39.7,30.08,NW,324,0.0,0.0,45,0.00,,,0.00,VWS V14.01,2013-03-12 23:40:00,
2013-03-12 18:41:00,61.0,39.5,30.08,NW,324,0.0,0.0,45,0.00,,,0.00,VWS V14.01,2013-03-12 23:41:00,
2013-03-12 18:42:00,61.0,39.5,30.08,NW,324,0.0,0.0,45,0.00,,,0.00,VWS V14.01,2013-03-12 23:42:00,
2013-03-12 18:43:00,61.0,39.5,30.08,NW,324,0.0,0.0,45,0.00,,,0.00,VWS V14.01,2013-03-12 23:43:00,
2013-03-12 18:44:00,60.8,39.3,30.08,NW,324,0.0,0.0,45,0.00,,,0.00,VWS V14.01,2013-03-12 23:44:00,
2013-03-12 18:45:00,60.8,39.3,30.08,NW,324,0.0,0.0,45,0.00,,,0.00,VWS V14.01,2013-03-12 23:45:00,
2013-03-12 18:46:00,60.8,39.3,30.08,NW,324,0.0,0.0,45,0.00,,,0.00,VWS V14.01,2013-03-12 23:46:00,
2013-03-12 18:47:00,60.6,39.8,30.11,NW,324,0.0,0.0,46,0.00,,,0.00,VWS V14.01,2013-03-12 23:47:00,
2013-03-12 18:48:00,60.6,39.8,30.11,NW,324,0.0,0.0,46,0.00,,,0.00,VWS V14.01,2013-03-12 23:48:00,
2013-03-12 18:49:00,60.4,39.6,30.11,NW,324,0.0,0.0,46,0.00,,,0.00,VWS V14.01,2013-03-12 23:49:00,
2013-03-12 18:50:00,60.4,39.6,30.11,NW,324,0.0,0.0,46,0.00,,,0.00,VWS V14.01,2013-03-12 23:50:00,
2013-03-12 18:51:00,60.4,39.6,30.11,NW,324,0.0,0.0,46,0.00,,,0.00,VWS V14.01,2013-03-12 23:51:00,
2013-03-12 18:52:00,60.4,39.6,30.11,NW,324,0.0,0.0,46,0.00,,,0.00,VWS V14.01,2013-03-12 23:52:00,
2013-03-12 18:53:00,60.3,39.4,30.11,NW,324,0.0,0.0,46,0.00,,,0.00,VWS V14.01,2013-03-12 23:53:00,
2013-03-12 18:54:00,60.3,39.4,30.11,NW,324,0.0,0.0,46,0.00,,,0.00,VWS V14.01,2013-03-12 23:54:00,
2013-03-12 18:55:00,60.3,39.4,30.11,NW,324,0.0,0.0,46,0.00,,,0.00,VWS V14.01,2013-03-12 23:55:00,
2013-03-12 18:56:00,60.1,39.2,30.11,NW,324,0.0,0.0,46,0.00,,,0.00,VWS V14.01,2013-03-12 23:56:00,
2013-03-12 18:57:00,60.1,39.2,30.11,NW,324,0.0,0.0,46,0.00,,,0.00,VWS V14.01,2013-03-12 23:57:00,
2013-03-12 18:58:00,59.9,39.1,30.11,NW,324,0.0,0.0,46,0.00,,,0.00,VWS V14.01,2013-03-12 23:58:00,
2013-03-12 18:59:00,59.7,38.9,30.11,NW,324,0.0,0.0,46,0.00,,,0.00,VWS V14.01,2013-03-12 23:59:00,
2013-03-12 19:00:00,59.7,38.9,30.11,NW,324,0.0,0.0,46,0.00,,,0.00,VWS V14.01,2013-03-13 00:00:00,
2013-03-12 19:01:00,59.7,38.9,30.11,NW,324,0.0,0.0,46,0.00,,,0.00,VWS V14.01,2013-03-13 00:01:00,
2013-03-12 19:02:00,59.7,38.9,30.11,NW,324,0.0,0.0,46,0.00,,,0.00,VWS V14.01,2013-03-13 00:02:00,
2013-03-12 19:03:00,59.5,38.8,30.11,NW,324,0.0,0.0,46,0.00,,,0.00,VWS V14.01,2013-03-13 00:03:00,
2013-03-12 19:04:00,59.4,38.6,30.11,NW,324,0.0,0.0,46,0.00,,,0.00,VWS V14.01,2013-03-13 00:04:00,
2013-03-12 19:05:00,59.4,38.6,30.11,NW,324,0.0,0.0,46,0.00,,,0.00,VWS V14.01,2013-03-13 00:05:00,
2013-03-12 19:06:00,59.4,38.6,30.11,NW,324,0.0,0.0,46,0.00,,,0.00,VWS V14.01,2013-03-13 00:06:00,
2013-03-12 19:07:00,59.2,38.4,30.11,NW,324,0.0,0.0,46,0.00,,,0.00,VWS V14.01,2013-03-13 00:07:00,
2013-03-12 19:08:00,59.2,38.4,30.11,NW,324,0.0,0.0,46,0.00,,,0.00,VWS V14.01,2013-03-13 00:08:00,
2013-03-12 19:09:00,59.0,38.3,30.11,NW,324,0.0,0.0,46,0.00,,,0.00,VWS V14.01,2013-03-13 00:09:00,
2013-03-12 19:10:00,59.0,38.3,30.11,NW,324,0.0,0.0,46,0.00,,,0.00,VWS V14.01,2013-03-13 00:10:00,
2013-03-12 19:11:00,58.8,38.1,30.11,NW,324,0.0,0.0,46,0.00,,,0.00,VWS V14.01,2013-03-13 00:11:00,
2013-03-12 19:12:00,58.8,38.1,30.11,NW,324,0.0,0.0,46,0.00,,,0.00,VWS V14.01,2013-03-13 00:12:00,
2013-03-12 19:13:00,58.8,39.2,30.11,NW,324,0.0,0.0,48,0.00,,,0.00,VWS V14.01,2013-03-13 00:13:00,
2013-03-12 19:14:00,58.6,37.9,30.11,NW,324,0.0,0.0,46,0.00,,,0.00,VWS V14.01,2013-03-13 00:14:00,
2013-03-12 19:15:00,58.6,37.9,30.11,NW,324,0.0,0.0,46,0.00,,,0.00,VWS V14.01,2013-03-13 00:15:00,
2013-03-12 19:16:00,58.5,38.9,30.11,NW,324,0.0,0.0,48,0.00,,,0.00,VWS V14.01,2013-03-13 00:16:00,
2013-03-12 19:17:00,58.5,38.9,30.11,NW,324,0.0,0.0,48,0.00,,,0.00,VWS V14.01,2013-03-13 00:17:00,
2013-03-12 19:18:00,58.3,38.7,30.11,NW,324,0.0,0.0,48,0.00,,,0.00,VWS V14.01,2013-03-13 00:18:00,
2013-03-12 19:19:00,58.1,38.5,30.11,NW,324,0.0,0.0,48,0.00,,,0.00,VWS V14.01,2013-03-13 00:19:00,
2013-03-12 19:20:00,58.1,38.5,30.11,NW,324,0.0,0.0,48,0.00,,,0.00,VWS V14.01,2013-03-13 00:20:00,
2013-03-12 19:21:00,58.1,38.5,30.11,NW,324,0.0,0.0,48,0.00,,,0.00,VWS V14.01,2013-03-13 00:21:00,
2013-03-12 19:22:00,58.1,38.5,30.11,NW,324,0.0,0.0,48,0.00,,,0.00,VWS V14.01,2013-03-13 00:22:00,
2013-03-12 19:23:00,57.9,38.4,30.11,NW,324,0.0,0.0,48,0.00,,,0.00,VWS V14.01,2013-03-13 00:23:00,
2013-03-12 19:24:00,57.9,38.4,30.11,NW,324,0.0,0.0,48,0.00,,,0.00,VWS V14.01,2013-03-13 00:24:00,
2013-03-12 19:25:00,57.9,38.4,30.11,NW,324,0.0,0.0,48,0.00,,,0.00,VWS V14.01,2013-03-13 00:25:00,
2013-03-12 19:26:00,57.9,38.4,30.11,NW,324,0.0,0.0,48,0.00,,,0.00,VWS V14.01,2013-03-13 00:26:00,
2013-03-12 19:27:00,57.7,38.2,30.11,NW,324,0.0,0.0,48,0.00,,,0.00,VWS V14.01,2013-03-13 00:27:00,
2013-03-12 19:28:00,57.7,38.2,30.11,NW,324,0.0,0.0,48,0.00,,,0.00,VWS V14.01,2013-03-13 00:28:00,
2013-03-12 19:29:00,57.6,38.0,30.11,NW,324,0.0,0.0,48,0.00,,,0.00,VWS V14.01,2013-03-13 00:29:00,
2013-03-12 19:30:00,57.6,38.0,30.11,NW,324,0.0,0.0,48,0.00,,,0.00,VWS V14.01,2013-03-13 00:30:00,
2013-03-12 19:31:00,57.6,38.0,30.11,NW,324,0.0,0.0,48,0.00,,,0.00,VWS V14.01,2013-03-13 00:31:00,
2013-03-12 19:32:00,57.6,38.0,30.11,NW,324,0.0,0.0,48,0.00,,,0.00,VWS V14.01,2013-03-13 00:32:00,
2013-03-12 19:33:00,57.6,38.0,30.11,NW,324,0.0,0.0,48,0.00,,,0.00,VWS V14.01,2013-03-13 00:33:00,
2013-03-12 19:34:00,57.4,37.9,30.11,NW,324,0.0,0.0,48,0.00,,,0.00,VWS V14.01,2013-03-13 00:34:00,
2013-03-12 19:35:00,57.4,37.9,30.11,NW,324,0.0,0.0,48,0.00,,,0.00,VWS V14.01,2013-03-13 00:35:00,
2013-03-12 19:36:00,57.2,37.7,30.11,NW,324,0.0,0.0,48,0.00,,,0.00,VWS V14.01,2013-03-13 00:36:00,
2013-03-12 19:37:00,57.2,37.7,30.11,NW,324,0.0,0.0,48,0.00,,,0.00,VWS V14.01,2013-03-13 00:37:00,
2013-03-12 19:38:00,57.2,37.7,30.11,NW,324,0.0,0.0,48,0.00,,,0.00,VWS V14.01,2013-03-13 00:38:00,
2013-03-12 19:39:00,57.2,37.7,30.11,NW,324,0.0,0.0,48,0.00,,,0.00,VWS V14.01,2013-03-13 00:39:00,
2013-03-12 19:40:00,57.2,37.7,30.11,NW,324,0.0,0.0,48,0.00,,,0.00,VWS V14.01,2013-03-13 00:40:00,
2013-03-12 19:41:00,57.0,38.1,30.11,NW,324,0.0,0.0,49,0.00,,,0.00,VWS V14.01,2013-03-13 00:41:00,
2013-03-12 19:42:00,57.0,38.1,30.11,NW,324,0.0,0.0,49,0.00,,,0.00,VWS V14.01,2013-03-13 00:42:00,
2013-03-12 19:43:00,56.8,37.9,30.11,NW,324,0.0,0.0,49,0.00,,,0.00,VWS V14.01,2013-03-13 00:43:00,
2013-03-12 19:44:00,56.8,37.9,30.11,NW,324,0.0,0.0,49,0.00,,,0.00,VWS V14.01,2013-03-13 00:44:00,
2013-03-12 19:45:00,56.8,37.9,30.11,NW,324,0.0,0.0,49,0.00,,,0.00,VWS V14.01,2013-03-13 00:45:00,
2013-03-12 19:46:00,56.8,37.9,30.11,NW,324,0.0,0.0,49,0.00,,,0.00,VWS V14.01,2013-03-13 00:46:00,
2013-03-12 19:47:00,56.8,37.9,30.14,NW,324,0.0,0.0,49,0.00,,,0.00,VWS V14.01,2013-03-13 00:47:00,
2013-03-12 19:48:00,56.7,37.7,30.14,NW,324,0.0,0.0,49,0.00,,,0.00,VWS V14.01,2013-03-13 00:48:00,
2013-03-12 19:49:00,56.7,37.7,30.14,NW,324,0.0,0.0,49,0.00,,,0.00,VWS V14.01,2013-03-13 00:49:00,
2013-03-12 19:50:00,56.7,37.7,30.14,NW,324,0.0,0.0,49,0.00,,,0.00,VWS V14.01,2013-03-13 00:50:00,
2013-03-12 19:51:00,56.5,37.6,30.14,NW,324,0.0,0.0,49,0.00,,,0.00,VWS V14.01,2013-03-13 00:51:00,
2013-03-12 19:52:00,56.5,37.6,30.14,NW,324,0.0,0.0,49,0.00,,,0.00,VWS V14.01,2013-03-13 00:52:00,
2013-03-12 19:53:00,56.3,37.4,30.14,NW,324,0.0,0.0,49,0.00,,,0.00,VWS V14.01,2013-03-13 00:53:00,
2013-03-12 19:54:00,56.3,37.4,30.14,NW,324,0.0,0.0,49,0.00,,,0.00,VWS V14.01,2013-03-13 00:54:00,
2013-03-12 19:55:00,56.3,37.4,30.14,NW,324,0.0,0.0,49,0.00,,,0.00,VWS V14.01,2013-03-13 00:55:00,
2013-03-12 19:56:00,56.3,37.4,30.14,NW,324,0.0,0.0,49,0.00,,,0.00,VWS V14.01,2013-03-13 00:56:00,
2013-03-12 19:57:00,56.1,37.2,30.14,NW,324,0.0,0.0,49,0.00,,,0.00,VWS V14.01,2013-03-13 00:57:00,
2013-03-12 19:58:00,56.1,37.2,30.14,NW,324,0.0,0.0,49,0.00,,,0.00,VWS V14.01,2013-03-13 00:58:00,
2013-03-12 19:59:00,55.9,37.1,30.14,NW,324,0.0,0.0,49,0.00,,,0.00,VWS V14.01,2013-03-13 00:59:00,
2013-03-12 20:00:00,55.9,37.1,30.14,NW,324,0.0,0.0,49,0.00,,,0.00,VWS V14.01,2013-03-13 01:00:00,
2013-03-12 20:01:00,55.9,37.1,30.14,NW,324,0.0,0.0,49,0.00,,,0.00,VWS V14.01,2013-03-13 01:01:00,
2013-03-12 20:02:00,55.9,37.1,30.14,NW,324,0.0,0.0,49,0.00,,,0.00,VWS V14.01,2013-03-13 01:02:00,
2013-03-12 20:03:00,55.8,36.9,30.14,NW,324,0.0,0.0,49,0.00,,,0.00,VWS V14.01,2013-03-13 01:03:00,
2013-03-12 20:04:00,55.8,36.9,30.14,NW,324,0.0,0.0,49,0.00,,,0.00,VWS V14.01,2013-03-13 01:04:00,
2013-03-12 20:05:00,55.8,36.9,30.14,NW,324,0.0,0.0,49,0.00,,,0.00,VWS V14.01,2013-03-13 01:05:00,
2013-03-12 20:06:00,55.6,36.7,30.14,NW,324,0.0,0.0,49,0.00,,,0.00,VWS V14.01,2013-03-13 01:06:00,
2013-03-12 20:07:00,55.6,36.7,30.14,NW,324,0.0,0.0,49,0.00,,,0.00,VWS V14.01,2013-03-13 01:07:00,
2013-03-12 20:08:00,55.6,36.7,30.14,NW,324,0.0,0.0,49,0.00,,,0.00,VWS V14.01,2013-03-13 01:08:00,
2013-03-12 20:09:00,55.4,36.6,30.14,NW,324,0.0,0.0,49,0.00,,,0.00,VWS V14.01,2013-03-13 01:09:00,
2013-03-12 20:10:00,55.4,36.6,30.14,NW,324,0.0,0.0,49,0.00,,,0.00,VWS V14.01,2013-03-13 01:10:00,
2013-03-12 20:11:00,55.4,36.6,30.14,NW,324,0.0,0.0,49,0.00,,,0.00,VWS V14.01,2013-03-13 01:11:00,
2013-03-12 20:12:00,55.2,36.4,30.14,NW,324,0.0,0.0,49,0.00,,,0.00,VWS V14.01,2013-03-13 01:12:00,
2013-03-12 20:13:00,55.2,36.4,30.14,NW,324,0.0,0.0,49,0.00,,,0.00,VWS V14.01,2013-03-13 01:13:00,
2013-03-12 20:14:00,55.2,36.4,30.14,NW,324,0.0,0.0,49,0.00,,,0.00,VWS V14.01,2013-03-13 01:14:00,
2013-03-12 20:15:00,55.2,36.4,30.14,NW,324,0.0,0.0,49,0.00,,,0.00,VWS V14.01,2013-03-13 01:15:00,
2013-03-12 20:16:00,55.0,37.8,30.14,NW,324,0.0,0.0,52,0.00,,,0.00,VWS V14.01,2013-03-13 01:16:00,
2013-03-12 20:17:00,55.0,37.8,30.14,NW,324,0.0,0.0,52,0.00,,,0.00,VWS V14.01,2013-03-13 01:17:00,
2013-03-12 20:18:00,55.0,37.8,30.14,NW,324,0.0,0.0,52,0.00,,,0.00,VWS V14.01,2013-03-13 01:18:00,
2013-03-12 20:19:00,54.9,37.6,30.14,NW,324,0.0,0.0,52,0.00,,,0.00,VWS V14.01,2013-03-13 01:19:00,
2013-03-12 20:20:00,54.9,37.6,30.14,NW,324,0.0,0.0,52,0.00,,,0.00,VWS V14.01,2013-03-13 01:20:00,
2013-03-12 20:21:00,54.9,37.6,30.14,NW,324,0.0,0.0,52,0.00,,,0.00,VWS V14.01,2013-03-13 01:21:00,
2013-03-12 20:22:00,54.9,37.6,30.14,NW,324,0.0,0.0,52,0.00,,,0.00,VWS V14.01,2013-03-13 01:22:00,
2013-03-12 20:23:00,54.7,37.4,30.14,NW,324,0.0,0.0,52,0.00,,,0.00,VWS V14.01,2013-03-13 01:23:00,
2013-03-12 20:24:00,54.5,37.2,30.14,NW,324,0.0,0.0,52,0.00,,,0.00,VWS V14.01,2013-03-13 01:24:00,
2013-03-12 20:25:00,54.5,37.2,30.14,NW,324,0.0,0.0,52,0.00,,,0.00,VWS V14.01,2013-03-13 01:25:00,
2013-03-12 20:26:00,54.5,37.2,30.14,NW,324,0.0,0.0,52,0.00,,,0.00,VWS V14.01,2013-03-13 01:26:00,
2013-03-12 20:27:00,54.5,37.2,30.14,NW,324,0.0,0.0,52,0.00,,,0.00,VWS V14.01,2013-03-13 01:27:00,
2013-03-12 20:28:00,54.5,37.2,30.14,NW,324,0.0,0.0,52,0.00,,,0.00,VWS V14.01,2013-03-13 01:28:00,
2013-03-12 20:29:00,54.3,37.1,30.14,NW,324,0.0,0.0,52,0.00,,,0.00,VWS V14.01,2013-03-13 01:29:00,
2013-03-12 20:30:00,54.3,37.1,30.14,NW,324,0.0,0.0,52,0.00,,,0.00,VWS V14.01,2013-03-13 01:30:00,
2013-03-12 20:31:00,54.1,36.9,30.14,NW,324,0.0,0.0,52,0.00,,,0.00,VWS V14.01,2013-03-13 01:31:00,
2013-03-12 20:32:00,54.1,36.9,30.14,NW,324,0.0,0.0,52,0.00,,,0.00,VWS V14.01,2013-03-13 01:32:00,
2013-03-12 20:33:00,54.1,36.9,30.14,NW,324,0.0,0.0,52,0.00,,,0.00,VWS V14.01,2013-03-13 01:33:00,
2013-03-12 20:34:00,54.0,36.8,30.14,NW,324,0.0,0.0,52,0.00,,,0.00,VWS V14.01,2013-03-13 01:34:00,
2013-03-12 20:35:00,54.0,36.8,30.14,NW,324,0.0,0.0,52,0.00,,,0.00,VWS V14.01,2013-03-13 01:35:00,
2013-03-12 20:36:00,53.8,36.6,30.14,NW,324,0.0,0.0,52,0.00,,,0.00,VWS V14.01,2013-03-13 01:36:00,
2013-03-12 20:37:00,53.6,36.4,30.14,NW,324,0.0,0.0,52,0.00,,,0.00,VWS V14.01,2013-03-13 01:37:00,
2013-03-12 20:38:00,53.4,36.2,30.14,NW,324,0.0,0.0,52,0.00,,,0.00,VWS V14.01,2013-03-13 01:38:00,
2013-03-12 20:39:00,53.2,36.1,30.14,NW,324,0.0,0.0,52,0.00,,,0.00,VWS V14.01,2013-03-13 01:39:00,
2013-03-12 20:40:00,53.2,36.1,30.14,NW,324,0.0,0.0,52,0.00,,,0.00,VWS V14.01,2013-03-13 01:40:00,
2013-03-12 20:41:00,53.2,36.1,30.14,NW,324,0.0,0.0,52,0.00,,,0.00,VWS V14.01,2013-03-13 01:41:00,
2013-03-12 20:42:00,53.2,37.5,30.14,NW,324,0.0,0.0,55,0.00,,,0.00,VWS V14.01,2013-03-13 01:42:00,
2013-03-12 20:43:00,53.1,37.3,30.14,NW,324,0.0,0.0,55,0.00,,,0.00,VWS V14.01,2013-03-13 01:43:00,
2013-03-12 20:44:00,53.1,37.3,30.14,NW,324,0.0,0.0,55,0.00,,,0.00,VWS V14.01,2013-03-13 01:44:00,
2013-03-12 20:45:00,53.1,37.3,30.14,NW,324,0.0,0.0,55,0.00,,,0.00,VWS V14.01,2013-03-13 01:45:00,
2013-03-12 20:46:00,53.1,37.3,30.14,NW,324,0.0,0.0,55,0.00,,,0.00,VWS V14.01,2013-03-13 01:46:00,
2013-03-12 20:47:00,53.1,37.3,30.17,NW,324,0.0,0.0,55,0.00,,,0.00,VWS V14.01,2013-03-13 01:47:00,
2013-03-12 20:48:00,53.1,37.3,30.17,NW,324,0.0,0.0,55,0.00,,,0.00,VWS V14.01,2013-03-13 01:48:00,
2013-03-12 20:49:00,52.9,37.2,30.16,NW,324,0.0,0.0,55,0.00,,,0.00,VWS V14.01,2013-03-13 01:49:00,
2013-03-12 20:50:00,52.9,37.2,30.17,NW,324,0.0,0.0,55,0.00,,,0.00,VWS V14.01,2013-03-13 01:50:00,
2013-03-12 20:51:00,52.7,37.0,30.17,NW,324,0.0,0.0,55,0.00,,,0.00,VWS V14.01,2013-03-13 01:51:00,
2013-03-12 20:52:00,52.7,37.0,30.17,NW,324,0.0,0.0,55,0.00,,,0.00,VWS V14.01,2013-03-13 01:52:00,
2013-03-12 20:53:00,52.7,37.0,30.17,NW,324,0.0,0.0,55,0.00,,,0.00,VWS V14.01,2013-03-13 01:53:00,
2013-03-12 20:54:00,52.5,36.8,30.16,NW,324,0.0,0.0,55,0.00,,,0.00,VWS V14.01,2013-03-13 01:54:00,
2013-03-12 20:55:00,52.5,36.8,30.17,NW,324,0.0,0.0,55,0.00,,,0.00,VWS V14.01,2013-03-13 01:55:00,
2013-03-12 20:56:00,52.5,36.8,30.17,NW,324,0.0,0.0,55,0.00,,,0.00,VWS V14.01,2013-03-13 01:56:00,
2013-03-12 20:57:00,52.5,36.8,30.17,NW,324,0.0,0.0,55,0.00,,,0.00,VWS V14.01,2013-03-13 01:57:00,
2013-03-12 20:58:00,52.3,36.7,30.17,NW,324,0.0,0.0,55,0.00,,,0.00,VWS V14.01,2013-03-13 01:58:00,
2013-03-12 20:59:00,52.3,36.7,30.16,NW,324,0.0,0.0,55,0.00,,,0.00,VWS V14.01,2013-03-13 01:59:00,
2013-03-12 21:00:00,52.3,36.7,30.17,NW,324,0.0,0.0,55,0.00,,,0.00,VWS V14.01,2013-03-13 02:00:00,
2013-03-12 21:01:00,52.3,36.7,30.17,NW,324,0.0,0.0,55,0.00,,,0.00,VWS V14.01,2013-03-13 02:01:00,
2013-03-12 21:02:00,52.2,36.5,30.17,NW,324,0.0,0.0,55,0.00,,,0.00,VWS V14.01,2013-03-13 02:02:00,
2013-03-12 21:03:00,52.0,36.3,30.17,NW,324,0.0,0.0,55,0.00,,,0.00,VWS V14.01,2013-03-13 02:03:00,
2013-03-12 21:04:00,52.0,36.3,30.16,NW,324,0.0,0.0,55,0.00,,,0.00,VWS V14.01,2013-03-13 02:04:00,
2013-03-12 21:05:00,52.0,36.3,30.17,NW,324,0.0,0.0,55,0.00,,,0.00,VWS V14.01,2013-03-13 02:05:00,
2013-03-12 21:06:00,52.0,36.3,30.17,NW,324,0.0,0.0,55,0.00,,,0.00,VWS V14.01,2013-03-13 02:06:00,
2013-03-12 21:07:00,52.0,36.3,30.17,NW,324,0.0,0.0,55,0.00,,,0.00,VWS V14.01,2013-03-13 02:07:00,
2013-03-12 21:08:00,52.0,36.3,30.17,NW,324,0.0,0.0,55,0.00,,,0.00,VWS V14.01,2013-03-13 02:08:00,
2013-03-12 21:09:00,52.0,36.3,30.16,NW,324,0.0,0.0,55,0.00,,,0.00,VWS V14.01,2013-03-13 02:09:00,
2013-03-12 21:10:00,52.0,36.3,30.17,NW,324,0.0,0.0,55,0.00,,,0.00,VWS V14.01,2013-03-13 02:10:00,
2013-03-12 21:11:00,52.0,36.3,30.17,NW,324,0.0,0.0,55,0.00,,,0.00,VWS V14.01,2013-03-13 02:11:00,
2013-03-12 21:12:00,52.0,36.3,30.17,NW,324,0.0,0.0,55,0.00,,,0.00,VWS V14.01,2013-03-13 02:12:00,
2013-03-12 21:13:00,52.0,36.3,30.17,NW,324,0.0,0.0,55,0.00,,,0.00,VWS V14.01,2013-03-13 02:13:00,
2013-03-12 21:14:00,52.0,36.3,30.16,NW,324,0.0,0.0,55,0.00,,,0.00,VWS V14.01,2013-03-13 02:14:00,
2013-03-12 21:15:00,52.0,36.3,30.17,NW,324,0.0,0.0,55,0.00,,,0.00,VWS V14.01,2013-03-13 02:15:00,
2013-03-12 21:16:00,52.0,36.3,30.17,NW,324,0.0,0.0,55,0.00,,,0.00,VWS V14.01,2013-03-13 02:16:00,
2013-03-12 21:17:00,51.8,36.6,30.17,NW,324,0.0,0.0,56,0.00,,,0.00,VWS V14.01,2013-03-13 02:17:00,
2013-03-12 21:18:00,51.6,36.5,30.17,NW,324,0.0,0.0,56,0.00,,,0.00,VWS V14.01,2013-03-13 02:18:00,
2013-03-12 21:19:00,51.6,36.5,30.16,NW,324,0.0,0.0,56,0.00,,,0.00,VWS V14.01,2013-03-13 02:19:00,
2013-03-12 21:20:00,51.6,36.5,30.17,NW,324,0.0,0.0,56,0.00,,,0.00,VWS V14.01,2013-03-13 02:20:00,
2013-03-12 21:21:00,51.6,36.5,30.17,NW,324,0.0,0.0,56,0.00,,,0.00,VWS V14.01,2013-03-13 02:21:00,
2013-03-12 21:22:00,51.4,36.3,30.17,NW,324,0.0,0.0,56,0.00,,,0.00,VWS V14.01,2013-03-13 02:22:00,
2013-03-12 21:23:00,51.4,36.3,30.17,NW,324,0.0,0.0,56,0.00,,,0.00,VWS V14.01,2013-03-13 02:23:00,
2013-03-12 21:24:00,51.4,36.3,30.16,NW,324,0.0,0.0,56,0.00,,,0.00,VWS V14.01,2013-03-13 02:24:00,
2013-03-12 21:25:00,51.4,36.3,30.17,NW,324,0.0,0.0,56,0.00,,,0.00,VWS V14.01,2013-03-13 02:25:00,
2013-03-12 21:26:00,51.4,36.3,30.17,NW,324,0.0,0.0,56,0.00,,,0.00,VWS V14.01,2013-03-13 02:26:00,
2013-03-12 21:27:00,51.4,36.3,30.17,NW,324,0.0,0.0,56,0.00,,,0.00,VWS V14.01,2013-03-13 02:27:00,
2013-03-12 21:28:00,51.4,36.3,30.17,NW,324,0.0,0.0,56,0.00,,,0.00,VWS V14.01,2013-03-13 02:28:00,
2013-03-12 21:29:00,51.3,36.1,30.16,NW,324,0.0,0.0,56,0.00,,,0.00,VWS V14.01,2013-03-13 02:29:00,
2013-03-12 21:30:00,51.3,36.1,30.17,NW,324,0.0,0.0,56,0.00,,,0.00,VWS V14.01,2013-03-13 02:30:00,
2013-03-12 21:31:00,51.3,36.1,30.17,NW,324,0.0,0.0,56,0.00,,,0.00,VWS V14.01,2013-03-13 02:31:00,
2013-03-12 21:32:00,51.3,36.1,30.17,NW,324,0.0,0.0,56,0.00,,,0.00,VWS V14.01,2013-03-13 02:32:00,
2013-03-12 21:33:00,50.9,35.8,30.17,NW,324,0.0,0.0,56,0.00,,,0.00,VWS V14.01,2013-03-13 02:33:00,
2013-03-12 21:34:00,50.9,35.8,30.16,NW,324,0.0,0.0,56,0.00,,,0.00,VWS V14.01,2013-03-13 02:34:00,
2013-03-12 21:35:00,50.9,35.8,30.17,NW,324,0.0,0.0,56,0.00,,,0.00,VWS V14.01,2013-03-13 02:35:00,
2013-03-12 21:36:00,50.7,35.6,30.17,NW,324,0.0,0.0,56,0.00,,,0.00,VWS V14.01,2013-03-13 02:36:00,
2013-03-12 21:37:00,50.7,36.1,30.17,NW,324,0.0,0.0,57,0.00,,,0.00,VWS V14.01,2013-03-13 02:37:00,
2013-03-12 21:38:00,50.7,36.1,30.17,NW,324,0.0,0.0,57,0.00,,,0.00,VWS V14.01,2013-03-13 02:38:00,
2013-03-12 21:39:00,50.5,35.9,30.16,NW,324,0.0,0.0,57,0.00,,,0.00,VWS V14.01,2013-03-13 02:39:00,
2013-03-12 21:40:00,50.5,35.9,30.17,NW,324,0.0,0.0,57,0.00,,,0.00,VWS V14.01,2013-03-13 02:40:00,
2013-03-12 21:41:00,50.5,35.9,30.17,NW,324,0.0,0.0,57,0.00,,,0.00,VWS V14.01,2013-03-13 02:41:00,
2013-03-12 21:42:00,50.5,35.9,30.17,NW,324,0.0,0.0,57,0.00,,,0.00,VWS V14.01,2013-03-13 02:42:00,
2013-03-12 21:43:00,50.7,36.1,30.17,NW,324,0.0,0.0,57,0.00,,,0.00,VWS V14.01,2013-03-13 02:43:00,
2013-03-12 21:44:00,50.5,35.9,30.16,NW,324,0.0,0.0,57,0.00,,,0.00,VWS V14.01,2013-03-13 02:44:00,
2013-03-12 21:45:00,50.5,35.9,30.17,NW,324,0.0,0.0,57,0.00,,,0.00,VWS V14.01,2013-03-13 02:45:00,
2013-03-12 21:46:00,50.5,35.9,30.17,NW,324,0.0,0.0,57,0.00,,,0.00,VWS V14.01,2013-03-13 02:46:00,
2013-03-12 21:47:00,50.5,35.9,30.17,NW,324,0.0,0.0,57,0.00,,,0.00,VWS V14.01,2013-03-13 02:47:00,
2013-03-12 21:48:00,50.5,35.9,30.17,NW,324,0.0,0.0,57,0.00,,,0.00,VWS V14.01,2013-03-13 02:48:00,
2013-03-12 21:49:00,50.5,35.9,30.16,NW,324,0.0,0.0,57,0.00,,,0.00,VWS V14.01,2013-03-13 02:49:00,
2013-03-12 21:50:00,50.5,35.9,30.17,NW,324,0.0,0.0,57,0.00,,,0.00,VWS V14.01,2013-03-13 02:50:00,
2013-03-12 21:51:00,50.4,35.7,30.17,NW,324,0.0,0.0,57,0.00,,,0.00,VWS V14.01,2013-03-13 02:51:00,
2013-03-12 21:52:00,50.4,35.7,30.17,NW,324,0.0,0.0,57,0.00,,,0.00,VWS V14.01,2013-03-13 02:52:00,
2013-03-12 21:53:00,50.4,35.7,30.17,NW,324,0.0,0.0,57,0.00,,,0.00,VWS V14.01,2013-03-13 02:53:00,
2013-03-12 21:54:00,50.2,35.5,30.16,NW,324,0.0,0.0,57,0.00,,,0.00,VWS V14.01,2013-03-13 02:54:00,
2013-03-12 21:55:00,50.2,35.5,30.17,NW,324,0.0,0.0,57,0.00,,,0.00,VWS V14.01,2013-03-13 02:55:00,
2013-03-12 21:56:00,50.2,35.5,30.17,NW,324,0.0,0.0,57,0.00,,,0.00,VWS V14.01,2013-03-13 02:56:00,
2013-03-12 21:57:00,50.0,35.4,30.17,NW,324,0.0,0.0,57,0.00,,,0.00,VWS V14.01,2013-03-13 02:57:00,
2013-03-12 21:58:00,50.0,35.4,30.17,NW,324,0.0,0.0,57,0.00,,,0.00,VWS V14.01,2013-03-13 02:58:00,
2013-03-12 21:59:00,50.0,35.4,30.16,NW,324,0.0,0.0,57,0.00,,,0.00,VWS V14.01,2013-03-13 02:59:00,
2013-03-12 22:00:00,50.0,35.4,30.17,NW,324,0.0,0.0,57,0.00,,,0.00,VWS V14.01,2013-03-13 03:00:00,
2013-03-12 22:01:00,50.0,35.4,30.17,NW,324,0.0,0.0,57,0.00,,,0.00,VWS V14.01,2013-03-13 03:01:00,
2013-03-12 22:02:00,50.0,35.4,30.17,NW,324,0.0,0.0,57,0.00,,,0.00,VWS V14.01,2013-03-13 03:02:00,
2013-03-12 22:03:00,50.0,35.4,30.17,NW,324,0.0,0.0,57,0.00,,,0.00,VWS V14.01,2013-03-13 03:03:00,
2013-03-12 22:04:00,50.0,35.4,30.16,NW,324,0.0,0.0,57,0.00,,,0.00,VWS V14.01,2013-03-13 03:04:00,
2013-03-12 22:05:00,50.0,35.4,30.17,NW,324,0.0,0.0,57,0.00,,,0.00,VWS V14.01,2013-03-13 03:05:00,
2013-03-12 22:06:00,49.8,35.7,30.17,NW,324,0.0,0.0,58,0.00,,,0.00,VWS V14.01,2013-03-13 03:06:00,
2013-03-12 22:07:00,49.8,35.7,30.17,NW,324,0.0,0.0,58,0.00,,,0.00,VWS V14.01,2013-03-13 03:07:00,
2013-03-12 22:08:00,50.0,35.4,30.17,NW,324,0.0,0.0,57,0.00,,,0.00,VWS V14.01,2013-03-13 03:08:00,
2013-03-12 22:09:00,50.0,35.8,30.16,NW,324,0.0,0.0,58,0.00,,,0.00,VWS V14.01,2013-03-13 03:09:00,
2013-03-12 22:10:00,50.0,35.8,30.17,NW,324,0.0,0.0,58,0.00,,,0.00,VWS V14.01,2013-03-13 03:10:00,
2013-03-12 22:11:00,50.0,35.8,30.17,NW,324,0.0,0.0,58,0.00,,,0.00,VWS V14.01,2013-03-13 03:11:00,
2013-03-12 22:12:00,50.0,35.8,30.17,NW,324,0.0,0.0,58,0.00,,,0.00,VWS V14.01,2013-03-13 03:12:00,
2013-03-12 22:13:00,49.8,35.7,30.17,NW,324,0.0,0.0,58,0.00,,,0.00,VWS V14.01,2013-03-13 03:13:00,
2013-03-12 22:14:00,49.8,35.7,30.16,NW,324,0.0,0.0,58,0.00,,,0.00,VWS V14.01,2013-03-13 03:14:00,
2013-03-12 22:15:00,49.8,35.7,30.17,NW,324,0.0,0.0,58,0.00,,,0.00,VWS V14.01,2013-03-13 03:15:00,
2013-03-12 22:16:00,49.8,35.7,30.17,NW,324,0.0,0.0,58,0.00,,,0.00,VWS V14.01,2013-03-13 03:16:00,
2013-03-12 22:17:00,49.8,35.7,30.17,NW,324,0.0,0.0,58,0.00,,,0.00,VWS V14.01,2013-03-13 03:17:00,
2013-03-12 22:18:00,49.6,35.5,30.17,NW,324,0.0,0.0,58,0.00,,,0.00,VWS V14.01,2013-03-13 03:18:00,
2013-03-12 22:19:00,49.6,35.5,30.16,NW,324,0.0,0.0,58,0.00,,,0.00,VWS V14.01,2013-03-13 03:19:00,
2013-03-12 22:20:00,49.6,35.5,30.17,NW,324,0.0,0.0,58,0.00,,,0.00,VWS V14.01,2013-03-13 03:20:00,
2013-03-12 22:21:00,49.5,35.3,30.17,NW,324,0.0,0.0,58,0.00,,,0.00,VWS V14.01,2013-03-13 03:21:00,
2013-03-12 22:22:00,49.5,35.3,30.17,NW,324,0.0,0.0,58,0.00,,,0.00,VWS V14.01,2013-03-13 03:22:00,
2013-03-12 22:23:00,49.5,35.3,30.17,NW,324,0.0,0.0,58,0.00,,,0.00,VWS V14.01,2013-03-13 03:23:00,
2013-03-12 22:24:00,49.5,35.3,30.16,NW,324,0.0,0.0,58,0.00,,,0.00,VWS V14.01,2013-03-13 03:24:00,
2013-03-12 22:25:00,49.5,35.3,30.17,NW,324,0.0,0.0,58,0.00,,,0.00,VWS V14.01,2013-03-13 03:25:00,
2013-03-12 22:26:00,49.3,35.2,30.17,NW,324,0.0,0.0,58,0.00,,,0.00,VWS V14.01,2013-03-13 03:26:00,
2013-03-12 22:27:00,49.3,35.2,30.17,NW,324,0.0,0.0,58,0.00,,,0.00,VWS V14.01,2013-03-13 03:27:00,
2013-03-12 22:28:00,49.3,35.2,30.17,NW,324,0.0,0.0,58,0.00,,,0.00,VWS V14.01,2013-03-13 03:28:00,
2013-03-12 22:29:00,49.3,35.1,30.16,NW,324,0.0,0.0,58,0.00,,,0.00,VWS V14.01,2013-03-13 03:29:00,
2013-03-12 22:30:00,49.3,35.2,30.17,NW,324,0.0,0.0,58,0.00,,,0.00,VWS V14.01,2013-03-13 03:30:00,
2013-03-12 22:31:00,49.3,35.2,30.17,NW,324,0.0,0.0,58,0.00,,,0.00,VWS V14.01,2013-03-13 03:31:00,
2013-03-12 22:32:00,49.1,35.0,30.17,NW,324,0.0,0.0,58,0.00,,,0.00,VWS V14.01,2013-03-13 03:32:00,
2013-03-12 22:33:00,49.1,35.0,30.17,NW,324,0.0,0.0,58,0.00,,,0.00,VWS V14.01,2013-03-13 03:33:00,
2013-03-12 22:34:00,48.9,35.2,30.16,NW,324,0.0,0.0,59,0.00,,,0.00,VWS V14.01,2013-03-13 03:34:00,
2013-03-12 22:35:00,48.9,35.2,30.17,NW,324,0.0,0.0,59,0.00,,,0.00,VWS V14.01,2013-03-13 03:35:00,
2013-03-12 22:36:00,48.9,35.2,30.17,NW,324,0.0,0.0,59,0.00,,,0.00,VWS V14.01,2013-03-13 03:36:00,
2013-03-12 22:37:00,48.9,35.2,30.17,NW,324,0.0,0.0,59,0.00,,,0.00,VWS V14.01,2013-03-13 03:37:00,
2013-03-12 22:38:00,48.7,35.1,30.17,NW,324,0.0,0.0,59,0.00,,,0.00,VWS V14.01,2013-03-13 03:38:00,
2013-03-12 22:39:00,48.7,35.1,30.16,NW,324,0.0,0.0,59,0.00,,,0.00,VWS V14.01,2013-03-13 03:39:00,
2013-03-12 22:40:00,48.7,35.1,30.17,NW,324,0.0,0.0,59,0.00,,,0.00,VWS V14.01,2013-03-13 03:40:00,
2013-03-12 22:41:00,48.7,35.1,30.17,NW,324,0.0,0.0,59,0.00,,,0.00,VWS V14.01,2013-03-13 03:41:00,
2013-03-12 22:42:00,48.7,35.5,30.17,NW,324,0.0,0.0,60,0.00,,,0.00,VWS V14.01,2013-03-13 03:42:00,
2013-03-12 22:43:00,48.7,35.5,30.17,NW,324,0.0,0.0,60,0.00,,,0.00,VWS V14.01,2013-03-13 03:43:00,
2013-03-12 22:44:00,48.6,35.3,30.16,NW,324,0.0,0.0,60,0.00,,,0.00,VWS V14.01,2013-03-13 03:44:00,
2013-03-12 22:45:00,48.6,35.3,30.17,NW,324,0.0,0.0,60,0.00,,,0.00,VWS V14.01,2013-03-13 03:45:00,
2013-03-12 22:46:00,48.6,35.3,30.19,NW,324,0.0,0.0,60,0.00,,,0.00,VWS V14.01,2013-03-13 03:46:00,
2013-03-12 22:47:00,48.6,35.3,30.19,NW,324,0.0,0.0,60,0.00,,,0.00,VWS V14.01,2013-03-13 03:47:00,
2013-03-12 22:48:00,48.4,35.2,30.19,NW,324,0.0,0.0,60,0.00,,,0.00,VWS V14.01,2013-03-13 03:48:00,
2013-03-12 22:49:00,48.2,35.0,30.19,NW,324,0.0,0.0,60,0.00,,,0.00,VWS V14.01,2013-03-13 03:49:00,
2013-03-12 22:50:00,48.2,35.0,30.19,NW,324,0.0,0.0,60,0.00,,,0.00,VWS V14.01,2013-03-13 03:50:00,
2013-03-12 22:51:00,48.2,35.0,30.19,NW,324,0.0,0.0,60,0.00,,,0.00,VWS V14.01,2013-03-13 03:51:00,
2013-03-12 22:52:00,48.2,35.4,30.19,NW,324,0.0,0.0,61,0.00,,,0.00,VWS V14.01,2013-03-13 03:52:00,
2013-03-12 22:53:00,48.2,35.4,30.19,NW,324,0.0,0.0,61,0.00,,,0.00,VWS V14.01,2013-03-13 03:53:00,
2013-03-12 22:54:00,48.0,35.2,30.19,NW,324,0.0,0.0,61,0.00,,,0.00,VWS V14.01,2013-03-13 03:54:00,
2013-03-12 22:55:00,48.0,35.2,30.19,NW,324,0.0,0.0,61,0.00,,,0.00,VWS V14.01,2013-03-13 03:55:00,
2013-03-12 22:56:00,48.0,35.2,30.19,NW,324,0.0,0.0,61,0.00,,,0.00,VWS V14.01,2013-03-13 03:56:00,
2013-03-12 22:57:00,48.2,35.4,30.19,NW,324,0.0,0.0,61,0.00,,,0.00,VWS V14.01,2013-03-13 03:57:00,
2013-03-12 22:58:00,48.2,35.4,30.19,NW,324,0.0,0.0,61,0.00,,,0.00,VWS V14.01,2013-03-13 03:58:00,
2013-03-12 22:59:00,48.2,35.4,30.19,NW,324,0.0,0.0,61,0.00,,,0.00,VWS V14.01,2013-03-13 03:59:00,
2013-03-12 23:00:00,48.2,35.4,30.19,NW,324,0.0,0.0,61,0.00,,,0.00,VWS V14.01,2013-03-13 04:00:00,
2013-03-12 23:01:00,48.0,35.2,30.19,NW,324,0.0,0.0,61,0.00,,,0.00,VWS V14.01,2013-03-13 04:01:00,
2013-03-12 23:02:00,48.0,35.2,30.19,NW,324,0.0,0.0,61,0.00,,,0.00,VWS V14.01,2013-03-13 04:02:00,
2013-03-12 23:03:00,48.0,35.2,30.19,NW,324,0.0,0.0,61,0.00,,,0.00,VWS V14.01,2013-03-13 04:03:00,
2013-03-12 23:04:00,48.0,35.2,30.19,NW,324,0.0,0.0,61,0.00,,,0.00,VWS V14.01,2013-03-13 04:04:00,
2013-03-12 23:05:00,48.0,35.2,30.19,NW,324,0.0,0.0,61,0.00,,,0.00,VWS V14.01,2013-03-13 04:05:00,
2013-03-12 23:06:00,48.0,35.2,30.19,NW,324,0.0,0.0,61,0.00,,,0.00,VWS V14.01,2013-03-13 04:06:00,
2013-03-12 23:07:00,47.8,35.1,30.19,NW,324,0.0,0.0,61,0.00,,,0.00,VWS V14.01,2013-03-13 04:07:00,
2013-03-12 23:08:00,47.8,35.1,30.19,NW,324,0.0,0.0,61,0.00,,,0.00,VWS V14.01,2013-03-13 04:08:00,
2013-03-12 23:09:00,47.8,35.1,30.19,NW,324,0.0,0.0,61,0.00,,,0.00,VWS V14.01,2013-03-13 04:09:00,
2013-03-12 23:10:00,47.8,35.1,30.19,NW,324,0.0,0.0,61,0.00,,,0.00,VWS V14.01,2013-03-13 04:10:00,
2013-03-12 23:11:00,48.0,35.2,30.19,NW,324,0.0,0.0,61,0.00,,,0.00,VWS V14.01,2013-03-13 04:11:00,
2013-03-12 23:12:00,48.0,35.2,30.19,NW,324,0.0,0.0,61,0.00,,,0.00,VWS V14.01,2013-03-13 04:12:00,
2013-03-12 23:13:00,48.0,35.2,30.19,NW,324,0.0,0.0,61,0.00,,,0.00,VWS V14.01,2013-03-13 04:13:00,
2013-03-12 23:14:00,48.0,35.6,30.19,NW,324,0.0,0.0,62,0.00,,,0.00,VWS V14.01,2013-03-13 04:14:00,
2013-03-12 23:15:00,48.0,35.6,30.19,NW,324,0.0,0.0,62,0.00,,,0.00,VWS V14.01,2013-03-13 04:15:00,
2013-03-12 23:16:00,47.8,35.5,30.19,NW,324,0.0,0.0,62,0.00,,,0.00,VWS V14.01,2013-03-13 04:16:00,
2013-03-12 23:17:00,47.8,35.5,30.19,NW,324,0.0,0.0,62,0.00,,,0.00,VWS V14.01,2013-03-13 04:17:00,
2013-03-12 23:18:00,47.8,35.5,30.19,NW,324,0.0,0.0,62,0.00,,,0.00,VWS V14.01,2013-03-13 04:18:00,
2013-03-12 23:19:00,47.7,35.3,30.19,NW,324,0.0,0.0,62,0.00,,,0.00,VWS V14.01,2013-03-13 04:19:00,
2013-03-12 23:20:00,47.7,35.3,30.19,NW,324,0.0,0.0,62,0.00,,,0.00,VWS V14.01,2013-03-13 04:20:00,
2013-03-12 23:21:00,47.7,35.3,30.19,NW,324,0.0,0.0,62,0.00,,,0.00,VWS V14.01,2013-03-13 04:21:00,
2013-03-12 23:22:00,47.5,35.1,30.19,NW,324,0.0,0.0,62,0.00,,,0.00,VWS V14.01,2013-03-13 04:22:00,
2013-03-12 23:23:00,47.5,35.5,30.19,NW,324,0.0,0.0,63,0.00,,,0.00,VWS V14.01,2013-03-13 04:23:00,
2013-03-12 23:24:00,47.5,35.5,30.19,NW,324,0.0,0.0,63,0.00,,,0.00,VWS V14.01,2013-03-13 04:24:00,
2013-03-12 23:25:00,47.5,35.5,30.19,NW,324,0.0,0.0,63,0.00,,,0.00,VWS V14.01,2013-03-13 04:25:00,
2013-03-12 23:26:00,47.5,35.5,30.19,NW,324,0.0,0.0,63,0.00,,,0.00,VWS V14.01,2013-03-13 04:26:00,
2013-03-12 23:27:00,47.3,35.4,30.19,NW,324,0.0,0.0,63,0.00,,,0.00,VWS V14.01,2013-03-13 04:27:00,
2013-03-12 23:28:00,47.3,35.4,30.19,NW,324,0.0,0.0,63,0.00,,,0.00,VWS V14.01,2013-03-13 04:28:00,
2013-03-12 23:29:00,47.3,35.4,30.19,NW,324,0.0,0.0,63,0.00,,,0.00,VWS V14.01,2013-03-13 04:29:00,
2013-03-12 23:30:00,47.3,35.4,30.19,NW,324,0.0,0.0,63,0.00,,,0.00,VWS V14.01,2013-03-13 04:30:00,
2013-03-12 23:31:00,47.3,35.4,30.19,NW,324,0.0,0.0,63,0.00,,,0.00,VWS V14.01,2013-03-13 04:31:00,
2013-03-12 23:32:00,47.3,35.4,30.19,NW,324,0.0,0.0,63,0.00,,,0.00,VWS V14.01,2013-03-13 04:32:00,
2013-03-12 23:33:00,47.3,35.4,30.19,NW,324,0.0,0.0,63,0.00,,,0.00,VWS V14.01,2013-03-13 04:33:00,
2013-03-12 23:34:00,47.3,35.4,30.19,NW,324,0.0,0.0,63,0.00,,,0.00,VWS V14.01,2013-03-13 04:34:00,
2013-03-12 23:35:00,47.3,35.4,30.19,NW,324,0.0,0.0,63,0.00,,,0.00,VWS V14.01,2013-03-13 04:35:00,
2013-03-12 23:36:00,47.3,35.4,30.19,NW,324,0.0,0.0,63,0.00,,,0.00,VWS V14.01,2013-03-13 04:36:00,
2013-03-12 23:37:00,47.3,35.4,30.19,NW,324,0.0,0.0,63,0.00,,,0.00,VWS V14.01,2013-03-13 04:37:00,
2013-03-12 23:38:00,47.3,35.4,30.19,NW,324,0.0,0.0,63,0.00,,,0.00,VWS V14.01,2013-03-13 04:38:00,
2013-03-12 23:39:00,47.3,35.4,30.19,NW,324,0.0,0.0,63,0.00,,,0.00,VWS V14.01,2013-03-13 04:39:00,
2013-03-12 23:40:00,47.3,35.4,30.19,NW,324,0.0,0.0,63,0.00,,,0.00,VWS V14.01,2013-03-13 04:40:00,
2013-03-12 23:41:00,47.3,35.4,30.19,NW,324,0.0,0.0,63,0.00,,,0.00,VWS V14.01,2013-03-13 04:41:00,
2013-03-12 23:42:00,47.3,35.4,30.19,NW,324,0.0,0.0,63,0.00,,,0.00,VWS V14.01,2013-03-13 04:42:00,
2013-03-12 23:43:00,47.3,35.4,30.19,NW,324,0.0,0.0,63,0.00,,,0.00,VWS V14.01,2013-03-13 04:43:00,
2013-03-12 23:44:00,47.3,35.4,30.19,NW,324,0.0,0.0,63,0.00,,,0.00,VWS V14.01,2013-03-13 04:44:00,
2013-03-12 23:45:00,47.3,35.4,30.19,NW,324,0.0,0.0,63,0.00,,,0.00,VWS V14.01,2013-03-13 04:45:00,
2013-03-12 23:46:00,47.3,35.8,30.19,NW,324,0.0,0.0,64,0.00,,,0.00,VWS V14.01,2013-03-13 04:46:00,
2013-03-12 23:47:00,47.3,35.8,30.19,NW,324,0.0,0.0,64,0.00,,,0.00,VWS V14.01,2013-03-13 04:47:00,
2013-03-12 23:48:00,47.1,35.6,30.19,NW,324,0.0,0.0,64,0.00,,,0.00,VWS V14.01,2013-03-13 04:48:00,
2013-03-12 23:49:00,47.1,35.6,30.19,NW,324,0.0,0.0,64,0.00,,,0.00,VWS V14.01,2013-03-13 04:49:00,
2013-03-12 23:50:00,46.9,35.4,30.19,NW,324,0.0,0.0,64,0.00,,,0.00,VWS V14.01,2013-03-13 04:50:00,
2013-03-12 23:51:00,46.9,35.4,30.19,NW,324,0.0,0.0,64,0.00,,,0.00,VWS V14.01,2013-03-13 04:51:00,
2013-03-12 23:52:00,46.9,35.8,30.19,NW,324,0.0,0.0,65,0.00,,,0.00,VWS V14.01,2013-03-13 04:52:00,
2013-03-12 23:53:00,46.8,35.6,30.19,NW,324,0.0,0.0,65,0.00,,,0.00,VWS V14.01,2013-03-13 04:53:00,
2013-03-12 23:54:00,46.8,35.6,30.19,NW,324,0.0,0.0,65,0.00,,,0.00,VWS V14.01,2013-03-13 04:54:00,
2013-03-12 23:55:00,46.8,35.6,30.19,NW,324,0.0,0.0,65,0.00,,,0.00,VWS V14.01,2013-03-13 04:55:00,
2013-03-12 23:56:00,46.8,35.6,30.19,NW,324,0.0,0.0,65,0.00,,,0.00,VWS V14.01,2013-03-13 04:56:00,
2013-03-12 23:57:00,46.8,35.6,30.19,NW,324,0.0,0.0,65,0.00,,,0.00,VWS V14.01,2013-03-13 04:57:00,
2013-03-12 23:58:00,46.8,35.6,30.19,NW,324,0.0,0.0,65,0.00,,,0.00,VWS V14.01,2013-03-13 04:58:00,
2013-03-12 23:59:00,46.8,35.6,30.19,NW,324,0.0,0.0,65,0.00,,,0.00,VWS V14.01,2013-03-13 04:59:00,